Provisional Data: Little Muncy Creek near Moreland, PA


Please select a monitoring station.
Please select start date.
Please select start date.

Toggle Unit: C/F Toggle Unit: C/F
Sample Time Temperature (C) Temperature (F) Specific Conductivity (mS/cm) pH   Turbidity (NTU+) DO (mg/L)
6/22/2021 12:00:00 AM 22.38 72.284 0.122 7.25 6.59 7.26
6/22/2021 12:15:00 AM 22.33 72.194 0.122 7.24 7.13 7.28
6/22/2021 12:30:00 AM 22.27 72.086 0.122 7.23 6.22 7.26
6/22/2021 12:45:00 AM 22.21 71.978 0.122 7.22 6.66 7.28
6/22/2021 1:00:00 AM 22.15 71.87 0.122 7.22 7.08 7.29
6/22/2021 1:15:00 AM 22.08 71.744 0.122 7.21 6.85 7.31
6/22/2021 1:30:00 AM 22 71.6 0.122 7.17 5.87 7.35
6/22/2021 1:45:00 AM 21.93 71.474 0.122 7.21 6.58 7.37
6/22/2021 2:00:00 AM 21.87 71.366 0.123 7.21 6.53 7.38
6/22/2021 2:15:00 AM 21.8 71.24 0.123 7.2 7.47 7.39
6/22/2021 2:30:00 AM 21.74 71.132 0.124 7.21 6.74 7.42
6/22/2021 2:45:00 AM 21.68 71.024 0.124 7.2 5.97 7.45
6/22/2021 3:00:00 AM 21.62 70.916 0.125 7.22 6.1 7.44
6/22/2021 3:15:00 AM 21.57 70.826 0.125 7.22 6.33 7.48
6/22/2021 3:30:00 AM 21.51 70.718 0.125 7.23 6.81 7.52
6/22/2021 3:45:00 AM 21.46 70.628 0.125 7.24 7.06 7.52
6/22/2021 4:00:00 AM 21.41 70.538 0.125 7.24 7.05 7.55
6/22/2021 4:15:00 AM 21.36 70.448 0.125 7.24 7.12 7.56
6/22/2021 4:30:00 AM 21.32 70.376 0.125 7.26 7.48 7.59
6/22/2021 4:45:00 AM 21.26 70.268 0.125 7.26 8.23 7.6
6/22/2021 5:00:00 AM 21.21 70.17799 0.125 7.26 8.31 7.62
6/22/2021 5:15:00 AM 21.16 70.088 0.125 7.27 9.49 7.63
6/22/2021 5:30:00 AM 21.1 69.98 0.125 7.27 9.66 7.65
6/22/2021 5:45:00 AM 21.04 69.872 0.125 7.28 9.56 7.69
6/22/2021 6:00:00 AM 20.99 69.782 0.124 7.29 9.06 7.69
6/22/2021 6:15:00 AM 20.93 69.674 0.124 7.28 9.1 7.71
6/22/2021 6:30:00 AM 20.88 69.584 0.124 7.29 9.51 7.74
6/22/2021 6:45:00 AM 20.82 69.476 0.123 7.29 8.7 7.79
6/22/2021 7:00:00 AM 20.76 69.368 0.123 7.28 8.99 7.79
6/22/2021 7:15:00 AM 20.7 69.26 0.122 7.3 8.53 7.85
6/22/2021 7:30:00 AM 20.64 69.152 0.121 7.29 7.9 7.91
6/22/2021 7:45:00 AM 20.59 69.062 0.121 7.32 7.82 7.94
6/22/2021 8:00:00 AM 20.52 68.936 0.12 7.32 8.03 7.99
6/22/2021 8:15:00 AM 20.47 68.846 0.12 7.33 8.05 8.06
6/22/2021 8:30:00 AM 20.42 68.756 0.12 7.33 8.12 8.08
6/22/2021 8:45:00 AM 20.37 68.666 0.12 7.33 8.3 8.11
6/22/2021 9:00:00 AM 20.32 68.576 0.119 7.33 8.06 8.18
6/22/2021 9:15:00 AM 20.28 68.504 0.12 7.36 8.79 8.2
6/22/2021 9:30:00 AM 20.24 68.432 0.12 7.35 8.22 8.19
6/22/2021 9:45:00 AM 20.19 68.342 0.12 7.34 8.11 8.23
6/22/2021 10:00:00 AM 20.13 68.234 0.12 7.36 7.79 8.23
6/22/2021 10:15:00 AM 20.09 68.162 0.12 7.37 7.85 8.3
6/22/2021 10:30:00 AM 20.06 68.108 0.12 7.38 7.05 8.39
6/22/2021 10:45:00 AM 20.03 68.054 0.12 7.41 7.27 8.53
6/22/2021 11:00:00 AM 20.04 68.07201 0.121 7.44 6.77 8.64
6/22/2021 11:15:00 AM 20.05 68.09 0.121 7.47 6.63 8.73
6/22/2021 11:30:00 AM 20.04 68.07201 0.121 7.47 6.13 8.84
6/22/2021 11:45:00 AM 20.02 68.036 0.121 7.52 6.26 8.88
6/22/2021 12:00:00 PM 20 68 0.121 7.54 5.97 8.97
6/22/2021 12:15:00 PM 19.96 67.92799 0.121 7.55 5.91 8.97
6/22/2021 12:30:00 PM 19.94 67.892 0.121 7.57 5.35 9.03
6/22/2021 12:45:00 PM 19.93 67.874 0.122 7.6 5.15 9.09
6/22/2021 1:00:00 PM 19.91 67.838 0.122 7.62 5.81 9.14
6/22/2021 1:15:00 PM 19.89 67.802 0.123 7.64 4.83 9.16
6/22/2021 1:30:00 PM 19.94 67.892 0.123 7.69 4.96 9.29
6/22/2021 1:45:00 PM 19.93 67.874 0.124 7.71 5.87 9.31
6/22/2021 2:00:00 PM 19.89 67.802 0.124 7.71 4.94 9.28
6/22/2021 2:15:00 PM 19.82 67.676 0.124 7.71 4.89 9.27
6/22/2021 2:30:00 PM 19.8 67.64 0.124 7.71 5.15 9.28
6/22/2021 2:45:00 PM 19.79 67.622 0.124 7.73 4.74 9.3
6/22/2021 3:00:00 PM 19.75 67.55 0.124 7.71 4.57 9.21
6/22/2021 3:15:00 PM 19.69 67.442 0.124 7.67 4.97 9.11
6/22/2021 3:30:00 PM 19.67 67.406 0.124 7.69 4.37 9.14
6/22/2021 3:45:00 PM 19.66 67.388 0.124 7.7 4.34 9.21
6/22/2021 4:00:00 PM 19.64 67.352 0.124 7.71 4.35 9.21
6/22/2021 4:15:00 PM 19.63 67.334 0.124 7.72 4.43 9.22
6/22/2021 4:30:00 PM 19.62 67.316 0.124 7.74 4.92 9.27
6/22/2021 4:45:00 PM 19.61 67.298 0.124 7.76 4.58 9.28
6/22/2021 5:00:00 PM 19.59 67.262 0.124 7.76 4.1 9.31
6/22/2021 5:15:00 PM 19.63 67.334 0.124 7.78 4.08 9.31
6/22/2021 5:30:00 PM 19.55 67.19 0.124 7.77 4.31 9.33
6/22/2021 5:45:00 PM 19.47 67.046 0.125 7.74 4.54 9.25
6/22/2021 6:00:00 PM 19.46 67.028 0.125 7.72 4.36 9.24
6/22/2021 6:15:00 PM 19.37 66.866 0.124 7.72 4.86 9.2
6/22/2021 6:30:00 PM 19.3 66.74 0.124 7.7 4.27 9.16
6/22/2021 6:45:00 PM 19.24 66.632 0.124 7.66 7.21 9.06
6/22/2021 7:00:00 PM 19.17 66.506 0.124 7.63 4.52 9.01
6/22/2021 7:15:00 PM 19.09 66.362 0.124 7.6 4.04 8.97
6/22/2021 7:30:00 PM 19.02 66.236 0.123 7.58 4.87 8.9
6/22/2021 7:45:00 PM 18.96 66.128 0.123 7.56 5.07 8.87
6/22/2021 8:00:00 PM 18.9 66.02 0.123 7.51 4.88 8.82
6/22/2021 8:15:00 PM 18.82 65.876 0.123 7.52 4.69 8.78
6/22/2021 8:30:00 PM 18.73 65.714 0.123 7.49 5.01 8.73
6/22/2021 8:45:00 PM 18.63 65.534 0.123 7.48 4.41 8.67
6/22/2021 9:00:00 PM 18.53 65.354 0.123 7.45 7.22 8.64
6/22/2021 9:15:00 PM 18.45 65.21 0.123 7.41 5.92 8.61
6/22/2021 9:30:00 PM 18.35 65.03 0.123 7.41 5.81 8.59
6/22/2021 9:45:00 PM 18.26 64.868 0.123 7.4 7.39 8.57
6/22/2021 10:00:00 PM 18.18 64.724 0.123 7.39 5.65 8.57
6/22/2021 10:15:00 PM 18.08 64.544 0.123 7.38 5.56 8.55
6/22/2021 10:30:00 PM 17.98 64.364 0.123 7.37 5.95 8.55
6/22/2021 10:45:00 PM 17.9 64.22 0.123 7.36 6.66 8.55
6/22/2021 11:00:00 PM 17.81 64.058 0.123 7.33 5.59 8.55
6/22/2021 11:15:00 PM 17.72 63.896 0.123 7.35 6.27 8.54
6/22/2021 11:30:00 PM 17.63 63.734 0.123 7.34 5.55 8.57
6/22/2021 11:45:00 PM 17.54 63.572 0.123 7.34 6.33 8.58
6/23/2021 12:00:00 AM 17.45 63.41 0.123 7.33 6.05 8.58
6/23/2021 12:15:00 AM 17.36 63.248 0.123 7.32 5.95 8.6
6/23/2021 12:30:00 AM 17.27 63.086 0.123 7.32 6.34 8.61
6/23/2021 12:45:00 AM 17.18 62.924 0.123 7.32 5.85 8.63
6/23/2021 1:00:00 AM 17.1 62.78 0.123 7.32 6.5 8.63
6/23/2021 1:15:00 AM 17 62.6 0.123 7.28 6.1 8.65
6/23/2021 1:30:00 AM 16.93 62.474 0.123 7.31 6.24 8.66
6/23/2021 1:45:00 AM 16.85 62.33 0.123 7.32 5.84 8.67
6/23/2021 2:00:00 AM 16.77 62.186 0.123 7.31 5.89 8.69
6/23/2021 2:15:00 AM 16.67 62.006 0.123 7.31 5.89 8.71
6/23/2021 2:30:00 AM 16.58 61.844 0.123 7.3 9.46 8.72
6/23/2021 2:45:00 AM 16.48 61.664 0.123 7.3 7.23 8.75
6/23/2021 3:00:00 AM 16.39 61.502 0.123 7.3 9.54 8.76
6/23/2021 3:15:00 AM 16.31 61.358 0.123 7.3 6.38 8.78
6/23/2021 3:30:00 AM 16.23 61.214 0.123 7.27 5.46 8.8
6/23/2021 3:45:00 AM 16.15 61.07 0.123 7.31 6.25 8.83
6/23/2021 4:00:00 AM 16.07 60.926 0.123 7.3 5.52 8.85
6/23/2021 4:15:00 AM 16.01 60.818 0.122 7.3 5.92 8.86
6/23/2021 4:30:00 AM 15.94 60.692 0.122 7.31 6.31 8.89
6/23/2021 4:45:00 AM 15.88 60.584 0.122 7.31 6.3 8.89
6/23/2021 5:00:00 AM 15.81 60.458 0.122 7.31 5.77 8.91
6/23/2021 5:15:00 AM 15.74 60.332 0.122 7.3 5.38 8.94
6/23/2021 5:30:00 AM 15.66 60.188 0.122 7.31 5.22 8.95
6/23/2021 5:45:00 AM 15.58 60.044 0.122 7.3 5.68 8.97
6/23/2021 6:00:00 AM 15.51 59.918 0.122 7.3 5.53 9.01
6/23/2021 6:15:00 AM 15.44 59.792 0.122 7.31 5.13 9.06
6/23/2021 6:30:00 AM 15.38 59.684 0.122 7.32 5.35 9.1
6/23/2021 6:45:00 AM 15.3 59.54 0.122 7.33 5.35 9.17
6/23/2021 7:00:00 AM 15.23 59.414 0.122 7.32 5.54 9.21
6/23/2021 7:15:00 AM 15.18 59.324 0.122 7.32 4.42 9.3
6/23/2021 7:30:00 AM 15.18 59.324 0.122 7.36 4.98 9.38
6/23/2021 7:45:00 AM 15.18 59.324 0.122 7.38 4.63 9.45
6/23/2021 8:00:00 AM 15.2 59.36 0.122 7.4 4.44 9.5
6/23/2021 8:15:00 AM 15.22 59.396 0.122 7.42 4.14 9.57
6/23/2021 8:30:00 AM 15.26 59.468 0.122 7.43 4.4 9.61
6/23/2021 8:45:00 AM 15.31 59.558 0.122 7.44 4.47 9.66
6/23/2021 9:00:00 AM 15.37 59.666 0.122 7.47 4.86 9.71
6/23/2021 9:15:00 AM 15.44 59.792 0.122 7.48 5.28 9.75
6/23/2021 9:30:00 AM 15.55 59.99 0.122 7.51 4.19 9.85
6/23/2021 9:45:00 AM 15.65 60.17 0.122 7.53 3.81 9.89
6/23/2021 10:00:00 AM 15.76 60.368 0.122 7.54 4.1 9.91
6/23/2021 10:15:00 AM 15.88 60.584 0.122 7.56 3.48 9.98
6/23/2021 10:30:00 AM 16.04 60.872 0.122 7.6 3.49 10.03
6/23/2021 10:45:00 AM 16.23 61.214 0.122 7.62 3.37 10.09
6/23/2021 11:00:00 AM 16.5 61.7 0.122 7.67 3.44 10.17
6/23/2021 11:15:00 AM 16.73 62.114 0.122 7.68 3.68 10.19
6/23/2021 11:30:00 AM 16.97 62.546 0.122 7.73 3.39 10.23
6/23/2021 11:45:00 AM 17.15 62.87 0.122 7.75 3.48 10.25
6/23/2021 12:00:00 PM 17.41 63.338 0.122 7.79 3.04 10.31
6/23/2021 12:15:00 PM 17.64 63.752 0.122 7.82 3.22 10.35
6/23/2021 12:30:00 PM 17.81 64.058 0.123 7.84 3.03 10.32
6/23/2021 12:45:00 PM 17.99 64.382 0.123 7.84 2.86 10.35
6/23/2021 1:00:00 PM 18.13 64.634 0.123 7.9 3.06 10.35
6/23/2021 1:15:00 PM 18.08 64.544 0.123 7.85 3.46 10.33
6/23/2021 1:30:00 PM 18.55 65.39 0.123 7.95 3.05 10.39
6/23/2021 1:45:00 PM 18.83 65.894 0.123 7.99 2.63 10.43
6/23/2021 2:00:00 PM 19.19 66.542 0.123 8.04 2.68 10.47
6/23/2021 2:15:00 PM 19.41 66.938 0.123 8.07 2.78 10.45
6/23/2021 2:30:00 PM 19.57 67.226 0.123 8.11 2.46 10.39
6/23/2021 2:45:00 PM 19.68 67.424 0.123 8.07 2.8 10.38
6/23/2021 3:00:00 PM 19.93 67.874 0.124 8.14 3.46 10.38
6/23/2021 3:15:00 PM 20.08 68.144 0.124 8.16 2.73 10.39
6/23/2021 3:30:00 PM 20.13 68.234 0.124 8.16 2.63 10.3
6/23/2021 3:45:00 PM 20.22 68.396 0.124 8.16 2.41 10.28
6/23/2021 4:00:00 PM 20.21 68.378 0.124 8.15 2.16 10.21
6/23/2021 4:15:00 PM 20.07 68.126 0.124 8.08 2.63 10.08
6/23/2021 4:30:00 PM 20.02 68.036 0.124 8.05 2.45 9.99
6/23/2021 4:45:00 PM 19.94 67.892 0.124 7.99 2.51 9.89
6/23/2021 5:00:00 PM 19.72 67.496 0.125 7.89 2.85 9.73
6/23/2021 5:15:00 PM 19.65 67.37 0.125 7.87 2.49 9.68
6/23/2021 5:30:00 PM 19.58 67.244 0.125 7.81 2.47 9.59
6/23/2021 5:45:00 PM 19.43 66.974 0.125 7.77 2.78 9.5
6/23/2021 6:00:00 PM 19.35 66.83 0.125 7.74 2.9 9.46
6/23/2021 6:15:00 PM 19.25 66.65 0.125 7.68 2.79 9.35
6/23/2021 6:30:00 PM 19.14 66.452 0.125 7.66 2.28 9.26
6/23/2021 6:45:00 PM 19.04 66.272 0.125 7.61 2.37 9.16
6/23/2021 7:00:00 PM 18.95 66.11 0.125 7.58 2.49 9.07
6/23/2021 7:15:00 PM 18.89 66.002 0.125 7.52 2.56 8.97
6/23/2021 7:30:00 PM 18.84 65.912 0.125 7.53 3.83 8.89
6/23/2021 7:45:00 PM 18.81 65.858 0.125 7.5 2.86 8.86
6/23/2021 8:00:00 PM 18.79 65.82201 0.125 7.49 2.72 8.8
6/23/2021 8:15:00 PM 18.78 65.804 0.125 7.45 2.82 8.75
6/23/2021 8:30:00 PM 18.76 65.768 0.125 7.46 2.65 8.68
6/23/2021 8:45:00 PM 18.74 65.732 0.125 7.44 2.83 8.63
6/23/2021 9:00:00 PM 18.71 65.67799 0.125 7.43 3.21 8.57
6/23/2021 9:15:00 PM 18.69 65.642 0.125 7.41 2.95 8.53
6/23/2021 9:30:00 PM 18.65 65.57 0.125 7.39 3.55 8.48
6/23/2021 9:45:00 PM 18.61 65.498 0.125 7.35 2.78 8.45
6/23/2021 10:00:00 PM 18.57 65.426 0.125 7.37 3.7 8.44
6/23/2021 10:15:00 PM 18.53 65.354 0.125 7.34 3.42 8.42
6/23/2021 10:30:00 PM 18.48 65.264 0.125 7.35 3.83 8.4
6/23/2021 10:45:00 PM 18.41 65.138 0.125 7.33 3.61 8.4
6/23/2021 11:00:00 PM 18.35 65.03 0.125 7.33 4.2 8.4
6/23/2021 11:15:00 PM 18.28 64.904 0.125 7.29 3.86 8.4
6/23/2021 11:30:00 PM 18.21 64.778 0.125 7.32 4.19 8.39
6/23/2021 11:45:00 PM 18.13 64.634 0.125 7.28 3.81 8.41
6/24/2021 12:00:00 AM 18.04 64.472 0.125 7.3 3.91 8.42
6/24/2021 12:15:00 AM 17.96 64.328 0.125 7.26 3.8 8.42
6/24/2021 12:30:00 AM 17.88 64.184 0.125 7.29 4.6 8.41
6/24/2021 12:45:00 AM 17.78 64.004 0.125 7.27 3.85 8.44
6/24/2021 1:00:00 AM 17.69 63.842 0.125 7.27 4.71 8.47
6/24/2021 1:15:00 AM 17.6 63.68 0.125 7.27 3.78 8.46
6/24/2021 1:30:00 AM 17.51 63.518 0.125 7.24 3.87 8.49
6/24/2021 1:45:00 AM 17.42 63.356 0.125 7.27 3.91 8.51
6/24/2021 2:00:00 AM 17.32 63.176 0.125 7.25 4.15 8.53
6/24/2021 2:15:00 AM 17.24 63.032 0.125 7.26 4.49 8.53
6/24/2021 2:30:00 AM 17.15 62.87 0.125 7.26 4.27 8.56
6/24/2021 2:45:00 AM 17.06 62.708 0.125 7.24 5.46 8.56
6/24/2021 3:00:00 AM 16.97 62.546 0.125 7.26 4.41 8.59
6/24/2021 3:15:00 AM 16.88 62.384 0.125 7.25 4.3 8.6
6/24/2021 3:30:00 AM 16.8 62.24 0.125 7.25 4.03 8.63
6/24/2021 3:45:00 AM 16.73 62.114 0.125 7.25 4.34 8.64
6/24/2021 4:00:00 AM 16.64 61.952 0.125 7.25 3.98 8.67
6/24/2021 4:15:00 AM 16.58 61.844 0.125 7.25 4.24 8.65
6/24/2021 4:30:00 AM 16.49 61.682 0.125 7.25 4.02 8.68
6/24/2021 4:45:00 AM 16.43 61.574 0.125 7.25 5.79 8.68
6/24/2021 5:00:00 AM 16.35 61.43 0.125 7.25 3.67 8.71
6/24/2021 5:15:00 AM 16.27 61.286 0.125 7.25 4.63 8.71
6/24/2021 5:30:00 AM 16.2 61.16 0.125 7.26 4.39 8.76
6/24/2021 5:45:00 AM 16.13 61.034 0.125 7.25 4.44 8.79
6/24/2021 6:00:00 AM 16.06 60.908 0.125 7.26 4.05 8.83
6/24/2021 6:15:00 AM 16.01 60.818 0.125 7.26 4.11 8.88
6/24/2021 6:30:00 AM 15.97 60.746 0.125 7.28 3.84 8.93
6/24/2021 6:45:00 AM 15.94 60.692 0.125 7.29 3.9 9
6/24/2021 7:00:00 AM 15.91 60.638 0.125 7.3 3.91 9.09
6/24/2021 7:15:00 AM 15.91 60.638 0.125 7.31 3.72 9.21
6/24/2021 7:30:00 AM 15.91 60.638 0.125 7.33 3.77 9.31
6/24/2021 7:45:00 AM 15.92 60.656 0.124 7.36 3.84 9.38
6/24/2021 8:00:00 AM 15.93 60.674 0.124 7.38 3.25 9.48
6/24/2021 8:15:00 AM 15.98 60.764 0.124 7.41 3.43 9.58
6/24/2021 8:30:00 AM 16.05 60.89 0.124 7.42 3.44 9.72
6/24/2021 8:45:00 AM 16.1 60.98 0.124 7.47 3.4 9.79
6/24/2021 9:00:00 AM 16.15 61.07 0.124 7.49 3.19 9.82
6/24/2021 9:15:00 AM 16.26 61.268 0.124 7.51 3.04 9.89
6/24/2021 9:30:00 AM 16.47 61.646 0.124 7.53 3.26 9.98
6/24/2021 9:45:00 AM 16.7 62.06 0.124 7.59 4.25 10
6/24/2021 10:00:00 AM 16.88 62.384 0.124 7.61 3.08 10.03
6/24/2021 10:15:00 AM 17.03 62.654 0.124 7.63 3.47 10.06
6/24/2021 10:30:00 AM 17.19 62.942 0.124 7.64 2.6 10.13
6/24/2021 10:45:00 AM 17.42 63.356 0.124 7.7 2.56 10.19
6/24/2021 11:00:00 AM 17.74 63.932 0.124 7.74 2.44 10.23
6/24/2021 11:15:00 AM 17.95 64.31 0.124 7.79 2.58 10.27
6/24/2021 11:30:00 AM 18.04 64.472 0.124 7.81 2.24 10.27
6/24/2021 11:45:00 AM 18.28 64.904 0.124 7.84 2.76 10.33
6/24/2021 12:00:00 PM 18.3 64.94 0.124 7.86 2.4 10.31
6/24/2021 12:15:00 PM 18.55 65.39 0.124 7.9 2.54 10.39
6/24/2021 12:30:00 PM 19 66.2 0.124 7.99 2.27 10.47
6/24/2021 12:45:00 PM 19.23 66.614 0.124 8.03 2.71 10.49
6/24/2021 1:00:00 PM 19.57 67.226 0.124 8.09 2.26 10.56
6/24/2021 1:15:00 PM 19.81 67.658 0.124 8.11 2.66 10.51
6/24/2021 1:30:00 PM 20.03 68.054 0.124 8.15 2.38 10.53
6/24/2021 1:45:00 PM 20.29 68.522 0.124 8.2 2.5 10.56
6/24/2021 2:00:00 PM 20.57 69.026 0.124 8.2 2.32 10.53
6/24/2021 2:15:00 PM 20.84 69.512 0.124 8.28 2.51 10.53
6/24/2021 2:30:00 PM 21.02 69.836 0.124 8.31 2.23 10.55
6/24/2021 2:45:00 PM 21.21 70.17799 0.124 8.33 2.28 10.5
6/24/2021 3:00:00 PM 21.38 70.484 0.124 8.34 2.07 10.47
6/24/2021 3:15:00 PM 21.51 70.718 0.124 8.35 2.03 10.44
6/24/2021 3:30:00 PM 21.54 70.772 0.124 8.34 2.26 10.39
6/24/2021 3:45:00 PM 21.49 70.682 0.124 8.31 2.08 10.28
6/24/2021 4:00:00 PM 21.52 70.736 0.124 8.3 1.88 10.24
6/24/2021 4:15:00 PM 21.5 70.7 0.124 8.26 2.17 10.08
6/24/2021 4:30:00 PM 21.38 70.484 0.124 8.23 1.79 10.05
6/24/2021 4:45:00 PM 21.28 70.304 0.124 8.17 2.6 9.91
6/24/2021 5:00:00 PM 21.2 70.16 0.124 8.11 2.28 9.8
6/24/2021 5:15:00 PM 21.09 69.962 0.124 8.06 2.31 9.72
6/24/2021 5:30:00 PM 20.94 69.692 0.125 7.98 2.47 9.58
6/24/2021 5:45:00 PM 20.79 69.422 0.125 7.91 2.44 9.47
6/24/2021 6:00:00 PM 20.63 69.134 0.125 7.83 2.34 9.39
6/24/2021 6:15:00 PM 20.46 68.828 0.125 7.79 2.13 9.25
6/24/2021 6:30:00 PM 20.3 68.54 0.125 7.73 4.09 9.15
6/24/2021 6:45:00 PM 20.16 68.288 0.125 7.67 2.42 9.04
6/24/2021 7:00:00 PM 20.04 68.07201 0.125 7.63 2.53 8.94
6/24/2021 7:15:00 PM 19.95 67.91 0.125 7.59 2.16 8.82
6/24/2021 7:30:00 PM 19.84 67.712 0.125 7.55 2.36 8.77
6/24/2021 7:45:00 PM 19.78 67.604 0.125 7.5 2.06 8.67
6/24/2021 8:00:00 PM 19.72 67.496 0.125 7.5 2.45 8.61
6/24/2021 8:15:00 PM 19.67 67.406 0.125 7.48 2.36 8.54
6/24/2021 8:30:00 PM 19.62 67.316 0.125 7.46 2.64 8.49
6/24/2021 8:45:00 PM 19.57 67.226 0.125 7.44 2.46 8.43
6/24/2021 9:00:00 PM 19.52 67.136 0.125 7.42 2.53 8.37
6/24/2021 9:15:00 PM 19.48 67.064 0.125 7.4 2.52 8.3
6/24/2021 9:30:00 PM 19.43 66.974 0.125 7.39 2.79 8.28
6/24/2021 9:45:00 PM 19.39 66.902 0.125 7.38 2.67 8.26
6/24/2021 10:00:00 PM 19.35 66.83 0.125 7.36 3.34 8.24
6/24/2021 10:15:00 PM 19.31 66.758 0.125 7.34 3.22 8.2
6/24/2021 10:30:00 PM 19.28 66.704 0.125 7.33 6.4 8.17
6/24/2021 10:45:00 PM 19.23 66.614 0.125 7.33 3.27 8.16
6/24/2021 11:00:00 PM 19.19 66.542 0.125 7.31 3.17 8.12
6/24/2021 11:15:00 PM 19.14 66.452 0.125 7.29 2.95 8.14
6/24/2021 11:30:00 PM 19.09 66.362 0.125 7.3 3.28 8.11
6/24/2021 11:45:00 PM 19.02 66.236 0.125 7.28 3.77 8.12
6/25/2021 12:00:00 AM 18.95 66.11 0.125 7.27 4.93 8.12
6/25/2021 12:15:00 AM 18.89 66.002 0.125 7.27 3.28 8.11
6/25/2021 12:30:00 AM 18.8 65.84 0.125 7.26 3.28 8.12
6/25/2021 12:45:00 AM 18.75 65.75 0.125 7.26 3.46 8.12
6/25/2021 1:00:00 AM 18.66 65.588 0.125 7.26 3.53 8.15
6/25/2021 1:15:00 AM 18.58 65.444 0.125 7.25 2.99 8.14
6/25/2021 1:30:00 AM 18.49 65.282 0.125 7.25 3.62 8.19
6/25/2021 1:45:00 AM 18.41 65.138 0.125 7.25 4.05 8.19
6/25/2021 2:00:00 AM 18.33 64.994 0.125 7.25 4.02 8.2
6/25/2021 2:15:00 AM 18.24 64.832 0.125 7.24 3.53 8.23
6/25/2021 2:30:00 AM 18.17 64.706 0.125 7.24 4.1 8.21
6/25/2021 2:45:00 AM 18.08 64.544 0.125 7.24 4.07 8.24
6/25/2021 3:00:00 AM 18.01 64.418 0.125 7.24 3.55 8.24
6/25/2021 3:15:00 AM 17.91 64.238 0.125 7.24 4.24 8.27
6/25/2021 3:30:00 AM 17.85 64.13 0.125 7.24 4.1 8.29
6/25/2021 3:45:00 AM 17.76 63.968 0.125 7.24 4.09 8.32
6/25/2021 4:00:00 AM 17.67 63.806 0.125 7.23 3.77 8.33
6/25/2021 4:15:00 AM 17.6 63.68 0.125 7.23 6.33 8.34
6/25/2021 4:30:00 AM 17.52 63.536 0.125 7.23 4.14 8.33
6/25/2021 4:45:00 AM 17.44 63.392 0.125 7.23 3.98 8.38
6/25/2021 5:00:00 AM 17.35 63.23 0.125 7.23 3.96 8.41
6/25/2021 5:15:00 AM 17.28 63.104 0.125 7.23 4.5 8.4
6/25/2021 5:30:00 AM 17.19 62.942 0.125 7.2 3.92 8.45
6/25/2021 5:45:00 AM 17.12 62.816 0.125 7.24 4.05 8.48
6/25/2021 6:00:00 AM 17.03 62.654 0.125 7.23 4.23 8.52
6/25/2021 6:15:00 AM 16.98 62.564 0.125 7.24 4 8.55
6/25/2021 6:30:00 AM 16.91 62.438 0.125 7.25 3.64 8.57
6/25/2021 6:45:00 AM 16.86 62.348 0.125 7.26 3.67 8.64
6/25/2021 7:00:00 AM 16.82 62.276 0.125 7.28 3.01 8.7
6/25/2021 7:15:00 AM 16.81 62.258 0.125 7.29 2.81 8.83
6/25/2021 7:30:00 AM 16.82 62.276 0.125 7.31 3.06 8.98
6/25/2021 7:45:00 AM 16.84 62.312 0.124 7.29 9.09 9.05
6/25/2021 8:00:00 AM 16.87 62.366 0.124 7.37 3.23 9.21
6/25/2021 8:15:00 AM 16.91 62.438 0.124 7.39 3.86 9.28
6/25/2021 8:30:00 AM 16.99 62.582 0.124 7.42 9.16 9.38
6/25/2021 8:45:00 AM 17.08 62.744 0.124 7.44 3.49 9.48
6/25/2021 9:00:00 AM 17.2 62.96 0.124 7.48 3.27 9.57
6/25/2021 9:15:00 AM 17.33 63.194 0.124 7.51 3.1 9.67
6/25/2021 9:30:00 AM 17.46 63.428 0.124 7.53 2.85 9.72
6/25/2021 9:45:00 AM 17.58 63.644 0.124 7.58 2.92 9.79
6/25/2021 10:00:00 AM 17.68 63.824 0.124 7.6 2.87 9.86
6/25/2021 10:15:00 AM 17.8 64.04 0.124 7.65 2.74 9.95
6/25/2021 10:30:00 AM 17.9 64.22 0.124 7.65 2.5 10.02
6/25/2021 10:45:00 AM 18.13 64.634 0.124 7.74 2.53 10.09
6/25/2021 11:00:00 AM 18.39 65.102 0.124 7.79 2.51 10.21
6/25/2021 11:15:00 AM 18.59 65.462 0.124 7.85 2.11 10.24
6/25/2021 11:30:00 AM 18.77 65.786 0.124 7.9 2.63 10.3
6/25/2021 11:45:00 AM 18.99 66.182 0.123 7.95 2.39 10.37
6/25/2021 12:00:00 PM 19.22 66.596 0.123 8.01 2.14 10.45
6/25/2021 12:15:00 PM 19.41 66.938 0.123 8.06 2.01 10.48
6/25/2021 12:30:00 PM 19.62 67.316 0.123 8.11 1.99 10.5
6/25/2021 12:45:00 PM 19.86 67.748 0.123 8.15 2.09 10.54
6/25/2021 1:00:00 PM 20.13 68.234 0.123 8.23 2.01 10.56
6/25/2021 1:15:00 PM 20.41 68.738 0.123 8.28 2.11 10.61
6/25/2021 1:30:00 PM 20.67 69.206 0.123 8.34 2.47 10.66
6/25/2021 1:45:00 PM 20.91 69.638 0.123 8.37 2.12 10.68
6/25/2021 2:00:00 PM 21.12 70.016 0.123 8.4 2.57 10.66
6/25/2021 2:15:00 PM 21.28 70.304 0.123 8.43 1.94 10.66
6/25/2021 2:30:00 PM 21.47 70.646 0.123 8.45 2.03 10.66
6/25/2021 2:45:00 PM 21.59 70.862 0.123 8.49 2.17 10.62
6/25/2021 3:00:00 PM 21.67 71.006 0.123 8.51 2.23 10.64
6/25/2021 3:15:00 PM 21.71 71.078 0.123 8.48 1.86 10.58
6/25/2021 3:30:00 PM 21.66 70.988 0.123 8.49 1.97 10.53
6/25/2021 3:45:00 PM 21.67 71.006 0.123 8.51 1.97 10.49
6/25/2021 4:00:00 PM 21.71 71.078 0.123 8.51 2 10.47
6/25/2021 4:15:00 PM 21.81 71.258 0.123 8.5 1.8 10.39
6/25/2021 4:30:00 PM 21.86 71.348 0.123 8.49 2.21 10.3
6/25/2021 4:45:00 PM 21.86 71.348 0.123 8.45 2.03 10.19
6/25/2021 5:00:00 PM 21.81 71.258 0.124 8.41 1.97 10.05
6/25/2021 5:15:00 PM 21.71 71.078 0.124 8.34 2.03 9.9
6/25/2021 5:30:00 PM 21.55 70.79 0.124 8.24 2.28 9.72
6/25/2021 5:45:00 PM 21.36 70.448 0.124 8.15 1.88 9.59
6/25/2021 6:00:00 PM 21.17 70.106 0.124 8.07 2.54 9.5
6/25/2021 6:15:00 PM 21.02 69.836 0.124 7.99 1.84 9.41
6/25/2021 6:30:00 PM 20.91 69.638 0.124 7.92 2.63 9.28
6/25/2021 6:45:00 PM 20.81 69.458 0.124 7.85 2.07 9.17
6/25/2021 7:00:00 PM 20.74 69.332 0.124 7.81 1.86 9.12
6/25/2021 7:15:00 PM 20.68 69.224 0.124 7.77 1.9 9.01
6/25/2021 7:30:00 PM 20.63 69.134 0.124 7.73 2.07 8.96
6/25/2021 7:45:00 PM 20.58 69.044 0.124 7.68 2.31 8.88
6/25/2021 8:00:00 PM 20.52 68.936 0.124 7.65 1.87 8.79
6/25/2021 8:15:00 PM 20.45 68.81 0.124 7.62 2.04 8.71
6/25/2021 8:30:00 PM 20.38 68.684 0.124 7.57 2.1 8.61
6/25/2021 8:45:00 PM 20.3 68.54 0.125 7.54 1.89 8.49
6/25/2021 9:00:00 PM 20.23 68.414 0.125 7.51 2.09 8.4
6/25/2021 9:15:00 PM 20.18 68.324 0.125 7.48 2.24 8.29
6/25/2021 9:30:00 PM 20.13 68.234 0.125 7.38 2.49 8.22
6/25/2021 9:45:00 PM 20.09 68.162 0.125 7.45 2.7 8.18
6/25/2021 10:00:00 PM 20.05 68.09 0.125 7.33 2.7 8.12
6/25/2021 10:15:00 PM 20.01 68.018 0.125 7.39 3.29 8.09
6/25/2021 10:30:00 PM 19.98 67.964 0.125 7.37 2.64 8.06
6/25/2021 10:45:00 PM 19.93 67.874 0.125 7.36 3 8.04
6/25/2021 11:00:00 PM 19.89 67.802 0.125 7.35 3.36 8
6/25/2021 11:15:00 PM 19.84 67.712 0.125 7.34 2.52 7.98
6/25/2021 11:30:00 PM 19.79 67.622 0.125 7.33 3.64 7.95
6/25/2021 11:45:00 PM 19.75 67.55 0.125 7.31 2.8 7.93
6/26/2021 12:00:00 AM 19.71 67.478 0.125 7.31 2.94 7.9
6/26/2021 12:15:00 AM 19.66 67.388 0.125 7.3 3.24 7.9
6/26/2021 12:30:00 AM 19.61 67.298 0.125 7.3 3.16 7.92
6/26/2021 12:45:00 AM 19.54 67.172 0.125 7.29 2.74 7.9
6/26/2021 1:00:00 AM 19.5 67.1 0.125 7.28 3.24 7.9
6/26/2021 1:15:00 AM 19.46 67.028 0.125 7.27 2.78 7.89
6/26/2021 1:30:00 AM 19.39 66.902 0.125 7.27 3.79 7.94
6/26/2021 1:45:00 AM 19.35 66.83 0.125 7.27 3.6 7.89
6/26/2021 2:00:00 AM 19.3 66.74 0.125 7.27 3.28 7.9
6/26/2021 2:15:00 AM 19.25 66.65 0.125 7.26 3.35 7.96
6/26/2021 2:30:00 AM 19.2 66.56 0.125 7.25 3.23 7.92
6/26/2021 2:45:00 AM 19.16 66.488 0.125 7.26 4.29 7.91
6/26/2021 3:00:00 AM 19.13 66.434 0.125 7.26 3.09 7.94
6/26/2021 3:15:00 AM 19.07 66.326 0.125 7.25 3.17 7.98
6/26/2021 3:30:00 AM 19.03 66.254 0.125 7.25 3.34 8
6/26/2021 3:45:00 AM 18.99 66.182 0.125 7.25 3.86 7.97
6/26/2021 4:00:00 AM 18.94 66.092 0.125 7.25 3.24 8.02
6/26/2021 4:15:00 AM 18.9 66.02 0.125 7.24 3.2 8.01
6/26/2021 4:30:00 AM 18.84 65.912 0.125 7.24 3.53 8.01
6/26/2021 4:45:00 AM 18.81 65.858 0.125 7.24 3.96 8.02
6/26/2021 5:00:00 AM 18.79 65.82201 0.125 7.23 4.58 8.02
6/26/2021 5:15:00 AM 18.76 65.768 0.125 7.22 3.97 7.98
6/26/2021 5:30:00 AM 18.73 65.714 0.125 7.21 4.11 8.04
6/26/2021 5:45:00 AM 18.7 65.66 0.125 7.24 3.43 8.06
6/26/2021 6:00:00 AM 18.68 65.624 0.125 7.24 4.14 8.08
6/26/2021 6:15:00 AM 18.65 65.57 0.125 7.25 3.46 8.1
6/26/2021 6:30:00 AM 18.64 65.552 0.125 7.26 3.34 8.16
6/26/2021 6:45:00 AM 18.63 65.534 0.125 7.25 3.18 8.23
6/26/2021 7:00:00 AM 18.63 65.534 0.125 7.27 3.04 8.3
6/26/2021 7:15:00 AM 18.63 65.534 0.125 7.28 3.38 8.37
6/26/2021 7:30:00 AM 18.65 65.57 0.125 7.3 3.33 8.55
6/26/2021 7:45:00 AM 18.68 65.624 0.125 7.33 2.89 8.71
6/26/2021 8:00:00 AM 18.71 65.67799 0.125 7.33 3.09 8.78
6/26/2021 8:15:00 AM 18.73 65.714 0.125 7.36 3.31 8.83
6/26/2021 8:30:00 AM 18.77 65.786 0.124 7.34 2.67 8.98
6/26/2021 8:45:00 AM 18.85 65.93 0.124 7.43 2.81 9.08
6/26/2021 9:00:00 AM 18.96 66.128 0.124 7.46 2.74 9.15
6/26/2021 9:15:00 AM 19.11 66.398 0.124 7.5 3.25 9.29
6/26/2021 9:30:00 AM 19.31 66.758 0.124 7.55 2.57 9.48
6/26/2021 9:45:00 AM 19.47 67.046 0.124 7.58 2.78 9.44
6/26/2021 10:00:00 AM 19.58 67.244 0.124 7.57 2.71 9.56
6/26/2021 10:15:00 AM 19.71 67.478 0.124 7.65 2.46 9.65
6/26/2021 10:30:00 AM 19.74 67.532 0.124 7.67 2.5 9.64
6/26/2021 10:45:00 AM 19.95 67.91 0.124 7.73 2.46 9.79
6/26/2021 11:00:00 AM 20.33 68.594 0.124 7.83 2.22 9.96
6/26/2021 11:15:00 AM 20.63 69.134 0.124 7.9 2.45 10.02
6/26/2021 11:30:00 AM 20.94 69.692 0.124 7.96 2.01 10.09
6/26/2021 11:45:00 AM 21.2 70.16 0.123 8.04 2.13 10.2
6/26/2021 12:00:00 PM 21.37 70.466 0.124 8.06 2.29 10.18
6/26/2021 12:15:00 PM 21.44 70.592 0.124 8.07 2.48 10.18
6/26/2021 12:30:00 PM 21.55 70.79 0.123 8.15 2.33 10.24
6/26/2021 12:45:00 PM 21.69 71.042 0.123 8.21 2.21 10.29
6/26/2021 1:00:00 PM 21.71 71.078 0.123 8.24 2.33 10.31
6/26/2021 1:15:00 PM 21.72 71.096 0.123 8.26 2.56 10.25
6/26/2021 1:30:00 PM 21.92 71.456 0.123 8.29 2.41 10.29
6/26/2021 1:45:00 PM 22.31 72.158 0.123 8.4 2.36 10.39
6/26/2021 2:00:00 PM 22.65 72.77 0.123 8.44 2.08 10.4
6/26/2021 2:15:00 PM 22.91 73.238 0.123 8.5 1.88 10.41
6/26/2021 2:30:00 PM 23.19 73.742 0.123 8.5 4.05 10.42
6/26/2021 2:45:00 PM 23.45 74.21 0.123 8.56 1.91 10.44
6/26/2021 3:00:00 PM 23.7 74.66 0.123 8.59 2.01 10.42
6/26/2021 3:15:00 PM 23.77 74.786 0.123 8.61 2.08 10.4
6/26/2021 3:30:00 PM 23.86 74.948 0.123 8.57 4.12 10.33
6/26/2021 3:45:00 PM 23.82 74.876 0.123 8.58 1.97 10.21
6/26/2021 4:00:00 PM 23.86 74.948 0.123 8.6 1.94 10.23
6/26/2021 4:15:00 PM 23.76 74.768 0.124 8.52 3.91 10.05
6/26/2021 4:30:00 PM 23.61 74.498 0.124 8.47 1.63 9.9
6/26/2021 4:45:00 PM 23.66 74.588 0.124 8.47 1.71 9.93
6/26/2021 5:00:00 PM 23.7 74.66 0.124 8.46 1.66 9.82
6/26/2021 5:15:00 PM 23.56 74.408 0.124 8.39 2.01 9.6
6/26/2021 5:30:00 PM 23.46 74.228 0.124 8.31 1.94 9.55
6/26/2021 5:45:00 PM 23.36 74.048 0.124 8.27 1.97 9.41
6/26/2021 6:00:00 PM 23.22 73.796 0.124 8.16 1.79 9.28
6/26/2021 6:15:00 PM 23.13 73.634 0.124 8.13 1.82 9.2
6/26/2021 6:30:00 PM 23.06 73.508 0.124 8.06 1.76 9.07
6/26/2021 6:45:00 PM 22.96 73.328 0.124 7.98 1.63 8.92
6/26/2021 7:00:00 PM 22.86 73.148 0.124 7.89 1.68 8.83
6/26/2021 7:15:00 PM 22.78 73.004 0.125 7.84 2.14 8.71
6/26/2021 7:30:00 PM 22.68 72.824 0.125 7.76 1.91 8.57
6/26/2021 7:45:00 PM 22.61 72.698 0.125 7.71 1.97 8.42
6/26/2021 8:00:00 PM 22.54 72.57201 0.125 7.66 2.11 8.31
6/26/2021 8:15:00 PM 22.48 72.464 0.125 7.62 2.21 8.2
6/26/2021 8:30:00 PM 22.43 72.374 0.125 7.58 2.26 8.07
6/26/2021 8:45:00 PM 22.38 72.284 0.125 7.53 2.13 7.97
6/26/2021 9:00:00 PM 22.32 72.176 0.125 7.48 2.17 7.88
6/26/2021 9:15:00 PM 22.27 72.086 0.125 7.46 2.63 7.79
6/26/2021 9:30:00 PM 22.24 72.032 0.125 7.43 2.57 7.72
6/26/2021 9:45:00 PM 22.19 71.942 0.125 7.42 2.58 7.69
6/26/2021 10:00:00 PM 22.14 71.852 0.125 7.39 2.69 7.63
6/26/2021 10:15:00 PM 22.1 71.78 0.125 7.38 3.19 7.57
6/26/2021 10:30:00 PM 22.06 71.708 0.125 7.37 2.55 7.53
6/26/2021 10:45:00 PM 22.01 71.618 0.125 7.35 2.94 7.52
6/26/2021 11:00:00 PM 21.98 71.564 0.126 7.34 3.1 7.46
6/26/2021 11:15:00 PM 21.94 71.492 0.126 7.33 2.79 7.46
6/26/2021 11:30:00 PM 21.9 71.42 0.126 7.32 3.29 7.45
6/26/2021 11:45:00 PM 21.86 71.348 0.126 7.31 2.79 7.44
6/27/2021 12:00:00 AM 21.82 71.276 0.126 7.3 3.35 7.45
6/27/2021 12:15:00 AM 21.79 71.222 0.126 7.27 3.39 7.44
6/27/2021 12:30:00 AM 21.76 71.168 0.126 7.29 3.76 7.38
6/27/2021 12:45:00 AM 21.71 71.078 0.126 7.28 2.8 7.42
6/27/2021 1:00:00 AM 21.68 71.024 0.126 7.25 3.59 7.38
6/27/2021 1:15:00 AM 21.63 70.934 0.126 7.27 3.35 7.42
6/27/2021 1:30:00 AM 21.6 70.88 0.126 7.26 3.46 7.35
6/27/2021 1:45:00 AM 21.56 70.808 0.126 7.26 3.36 7.35
6/27/2021 2:00:00 AM 21.52 70.736 0.122 7.24 3.76 7.37
6/27/2021 2:15:00 AM 21.47 70.646 0.126 7.25 4.13 7.37
6/27/2021 2:30:00 AM 21.42 70.556 0.126 7.24 3.97 7.42
6/27/2021 2:45:00 AM 21.38 70.484 0.126 7.24 3.83 7.41
6/27/2021 3:00:00 AM 21.33 70.394 0.126 7.23 3.71 7.42
6/27/2021 3:15:00 AM 21.28 70.304 0.126 7.21 3.85 7.43
6/27/2021 3:30:00 AM 21.23 70.214 0.126 7.24 4.28 7.44
6/27/2021 3:45:00 AM 21.18 70.124 0.126 7.23 4.2 7.45
6/27/2021 4:00:00 AM 21.12 70.016 0.126 7.24 3.97 7.46
6/27/2021 4:15:00 AM 21.06 69.908 0.126 7.23 3.8 7.45
6/27/2021 4:30:00 AM 21 69.8 0.126 7.23 4.09 7.42
6/27/2021 4:45:00 AM 20.93 69.674 0.126 7.21 3.51 7.53
6/27/2021 5:00:00 AM 20.88 69.584 0.126 7.23 4.17 7.48
6/27/2021 5:15:00 AM 20.82 69.476 0.126 7.18 4.62 7.48
6/27/2021 5:30:00 AM 20.76 69.368 0.126 7.22 4.84 7.46
6/27/2021 5:45:00 AM 20.71 69.278 0.126 7.19 6.24 7.51
6/27/2021 6:00:00 AM 20.65 69.17 0.126 7.22 3.7 7.57
6/27/2021 6:15:00 AM 20.6 69.08 0.126 7.23 3.52 7.61
6/27/2021 6:30:00 AM 20.54 68.972 0.126 7.23 3.98 7.62
6/27/2021 6:45:00 AM 20.5 68.9 0.126 7.23 4.38 7.71
6/27/2021 7:00:00 AM 20.46 68.828 0.126 7.26 3.3 7.78
6/27/2021 7:15:00 AM 20.44 68.792 0.126 7.25 3.15 7.86
6/27/2021 7:30:00 AM 20.45 68.81 0.126 7.28 3.28 7.99
6/27/2021 7:45:00 AM 20.45 68.81 0.126 7.3 3.24 8.09
6/27/2021 8:00:00 AM 20.46 68.828 0.126 7.27 3.08 8.16
6/27/2021 8:15:00 AM 20.49 68.882 0.126 7.32 3.13 8.27
6/27/2021 8:30:00 AM 20.57 69.026 0.126 7.36 3.43 8.48
6/27/2021 8:45:00 AM 20.71 69.278 0.125 7.41 3.5 8.56
6/27/2021 9:00:00 AM 20.81 69.458 0.125 7.42 3.12 8.59
6/27/2021 9:15:00 AM 20.95 69.71 0.125 7.41 2.68 8.73
6/27/2021 9:30:00 AM 21.13 70.034 0.125 7.48 2.99 8.88
6/27/2021 9:45:00 AM 21.28 70.304 0.125 7.52 2.96 9
6/27/2021 10:00:00 AM 21.4 70.52 0.125 7.56 3.08 9.03
6/27/2021 10:15:00 AM 21.59 70.862 0.125 7.61 2.81 9.19
6/27/2021 10:30:00 AM 21.77 71.186 0.125 7.68 2.65 9.36
6/27/2021 10:45:00 AM 21.9 71.42 0.125 7.69 2.79 9.38
6/27/2021 11:00:00 AM 22.22 71.996 0.125 7.76 2.56 9.5
6/27/2021 11:15:00 AM 22.46 72.42799 0.125 7.86 2.61 9.65
6/27/2021 11:30:00 AM 22.72 72.896 0.125 7.93 2.48 9.72
6/27/2021 11:45:00 AM 22.96 73.328 0.125 7.98 2.31 9.77
6/27/2021 12:00:00 PM 23.22 73.796 0.125 8.03 2.33 9.81
6/27/2021 12:15:00 PM 23.37 74.066 0.125 8.08 2.59 9.83
6/27/2021 12:30:00 PM 23.38 74.084 0.125 8.07 2.4 9.78
6/27/2021 12:45:00 PM 23.37 74.066 0.124 8.08 2.22 9.85
6/27/2021 1:00:00 PM 23.82 74.876 0.124 8.24 3.15 9.99
6/27/2021 1:15:00 PM 23.94 75.092 0.124 8.26 2.74 9.95
6/27/2021 1:30:00 PM 23.87 74.966 0.125 8.21 4.04 9.83
6/27/2021 1:45:00 PM 23.68 74.624 0.125 8.13 2.4 9.6
6/27/2021 2:00:00 PM 23.74 74.732 0.124 8.17 2.55 9.7
6/27/2021 2:15:00 PM 23.96 75.128 0.124 8.23 2.3 9.81
6/27/2021 2:30:00 PM 24.15 75.47 0.124 8.29 2.16 9.78
6/27/2021 2:45:00 PM 24.44 75.992 0.124 8.35 2.33 9.86
6/27/2021 3:00:00 PM 24.6 76.28 0.124 8.36 2.07 9.83
6/27/2021 3:15:00 PM 24.65 76.37 0.124 8.38 4.05 9.84
6/27/2021 3:30:00 PM 24.64 76.352 0.124 8.43 1.8 9.82
6/27/2021 3:45:00 PM 24.58 76.244 0.124 8.38 2.12 9.78
6/27/2021 4:00:00 PM 24.54 76.172 0.124 8.41 4.2 9.77
6/27/2021 4:15:00 PM 24.63 76.334 0.124 8.43 1.99 9.75
6/27/2021 4:30:00 PM 24.63 76.334 0.124 8.41 2.15 9.61
6/27/2021 4:45:00 PM 24.68 76.424 0.124 8.37 4.31 9.57
6/27/2021 5:00:00 PM 24.64 76.352 0.124 8.36 4.1 9.55
6/27/2021 5:15:00 PM 24.62 76.316 0.125 8.34 1.86 9.39
6/27/2021 5:30:00 PM 24.62 76.316 0.125 8.31 1.84 9.32
6/27/2021 5:45:00 PM 24.53 76.154 0.125 8.24 2.01 9.19
6/27/2021 6:00:00 PM 24.4 75.92 0.125 8.17 2.07 9.08
6/27/2021 6:15:00 PM 24.34 75.812 0.125 8.08 2.1 8.96
6/27/2021 6:30:00 PM 24.3 75.74 0.125 8.05 1.81 8.85
6/27/2021 6:45:00 PM 24.18 75.524 0.125 7.95 2.1 8.71
6/27/2021 7:00:00 PM 24.1 75.38 0.125 7.86 2.21 8.57
6/27/2021 7:15:00 PM 24.01 75.218 0.126 7.83 2.04 8.44
6/27/2021 7:30:00 PM 23.91 75.038 0.126 7.74 2.17 8.29
6/27/2021 7:45:00 PM 23.81 74.858 0.126 7.69 2.27 8.17
6/27/2021 8:00:00 PM 23.74 74.732 0.126 7.65 2.35 8.04
6/27/2021 8:15:00 PM 23.68 74.624 0.126 7.6 2.52 7.96
6/27/2021 8:30:00 PM 23.61 74.498 0.126 7.56 2.39 7.86
6/27/2021 8:45:00 PM 23.54 74.372 0.126 7.52 2.85 7.77
6/27/2021 9:00:00 PM 23.49 74.282 0.126 7.49 2.19 7.65
6/27/2021 9:15:00 PM 23.44 74.192 0.126 7.45 2.74 7.54
6/27/2021 9:30:00 PM 23.39 74.102 0.126 7.45 2.43 7.46
6/27/2021 9:45:00 PM 23.32 73.976 0.126 7.4 2.73 7.43
6/27/2021 10:00:00 PM 23.28 73.904 0.126 7.38 3.04 7.33
6/27/2021 10:15:00 PM 23.24 73.832 0.126 7.36 2.68 7.31
6/27/2021 10:30:00 PM 23.2 73.76 0.126 7.34 3.17 7.29
6/27/2021 10:45:00 PM 23.15 73.67 0.127 7.31 3.54 7.26
6/27/2021 11:00:00 PM 23.12 73.616 0.127 7.32 3.16 7.2
6/27/2021 11:15:00 PM 23.09 73.562 0.127 7.31 3.8 7.16
6/27/2021 11:30:00 PM 23.05 73.49 0.127 7.29 3.18 7.17
6/27/2021 11:45:00 PM 23 73.4 0.127 7.23 3.34 7.18
6/28/2021 12:00:00 AM 22.97 73.346 0.127 7.27 3.1 7.13
6/28/2021 12:15:00 AM 22.93 73.274 0.127 7.27 4.37 7.16
6/28/2021 12:30:00 AM 22.9 73.22 0.127 7.26 3.9 7.13
6/28/2021 12:45:00 AM 22.87 73.166 0.127 7.25 5.75 7.13
6/28/2021 1:00:00 AM 22.84 73.112 0.127 7.25 4.1 7.14
6/28/2021 1:15:00 AM 22.8 73.04 0.127 7.25 4.04 7.16
6/28/2021 1:30:00 AM 22.76 72.968 0.127 7.24 4.42 7.1
6/28/2021 1:45:00 AM 22.71 72.878 0.127 7.23 4.34 7.14
6/28/2021 2:00:00 AM 22.67 72.806 0.127 7.24 4.2 7.09
6/28/2021 2:15:00 AM 22.62 72.716 0.127 7.23 3.75 7.1
6/28/2021 2:30:00 AM 22.56 72.608 0.127 7.22 4.12 7.15
6/28/2021 2:45:00 AM 22.51 72.518 0.127 7.23 3.81 7.12
6/28/2021 3:00:00 AM 22.46 72.42799 0.127 7.22 4.42 7.14
6/28/2021 3:15:00 AM 22.41 72.338 0.127 7.23 4.52 7.18
6/28/2021 3:30:00 AM 22.36 72.248 0.127 7.19 3.96 7.14
6/28/2021 3:45:00 AM 22.31 72.158 0.127 7.22 4.42 7.19
6/28/2021 4:00:00 AM 22.26 72.068 0.127 7.21 4.22 7.2
6/28/2021 4:15:00 AM 22.2 71.96 0.127 7.22 3.63 7.18
6/28/2021 4:30:00 AM 22.15 71.87 0.127 7.22 4.05 7.16
6/28/2021 4:45:00 AM 22.1 71.78 0.127 7.14 6.52 7.15
6/28/2021 5:00:00 AM 22.05 71.69 0.127 7.22 5.75 7.18
6/28/2021 5:15:00 AM 22 71.6 0.127 7.22 4.48 7.21
6/28/2021 5:30:00 AM 21.94 71.492 0.127 7.22 3.94 7.18
6/28/2021 5:45:00 AM 21.89 71.402 0.127 7.22 4.27 7.25
6/28/2021 6:00:00 AM 21.82 71.276 0.127 7.22 3.92 7.34
6/28/2021 6:15:00 AM 21.77 71.186 0.127 7.21 3.98 7.31
6/28/2021 6:30:00 AM 21.73 71.114 0.127 7.22 3.07 7.35
6/28/2021 6:45:00 AM 21.7 71.06 0.127 7.24 4.35 7.45
6/28/2021 7:00:00 AM 21.67 71.006 0.127 7.25 4.64 7.51
6/28/2021 7:15:00 AM 21.67 71.006 0.127 7.27 3.16 7.59
6/28/2021 7:30:00 AM 21.68 71.024 0.127 7.28 3.38 7.71
6/28/2021 7:45:00 AM 21.7 71.06 0.127 7.29 4.32 7.81
6/28/2021 8:00:00 AM 21.75 71.15 0.127 7.31 3.23 7.95
6/28/2021 8:15:00 AM 21.81 71.258 0.127 7.33 3.37 8
6/28/2021 8:30:00 AM 21.9 71.42 0.127 7.36 2.99 8.23
6/28/2021 8:45:00 AM 21.98 71.564 0.127 7.38 2.95 8.29
6/28/2021 9:00:00 AM 22.1 71.78 0.127 7.41 3.98 8.36
6/28/2021 9:15:00 AM 22.23 72.014 0.127 7.43 3.08 8.45
6/28/2021 9:30:00 AM 22.37 72.266 0.127 7.47 3.73 8.6
6/28/2021 9:45:00 AM 22.51 72.518 0.127 7.49 2.93 8.65
6/28/2021 10:00:00 AM 22.63 72.734 0.127 7.52 3.15 8.72
6/28/2021 10:15:00 AM 22.77 72.986 0.127 7.57 2.84 8.88
6/28/2021 10:30:00 AM 22.96 73.328 0.127 7.61 2.62 8.95
6/28/2021 10:45:00 AM 23.19 73.742 0.126 7.66 3.08 9.17
6/28/2021 11:00:00 AM 23.49 74.282 0.126 7.74 2.98 9.25
6/28/2021 11:15:00 AM 23.75 74.75 0.126 7.8 2.74 9.37
6/28/2021 11:30:00 AM 23.95 75.11 0.126 7.86 2.79 9.42
6/28/2021 11:45:00 AM 24.16 75.488 0.126 7.89 2.93 9.46
6/28/2021 12:00:00 PM 24.42 75.956 0.126 7.95 5.45 9.59
6/28/2021 12:15:00 PM 24.65 76.37 0.126 8.04 2.36 9.65
6/28/2021 12:30:00 PM 24.62 76.316 0.126 7.98 2.95 9.46
6/28/2021 12:45:00 PM 24.94 76.892 0.126 8.08 2.56 9.64
6/28/2021 1:00:00 PM 25.18 77.324 0.126 8.17 2.39 9.71
6/28/2021 1:15:00 PM 25.37 77.666 0.125 8.18 4.91 9.75
6/28/2021 1:30:00 PM 25.43 77.774 0.126 8.22 4.35 9.72
6/28/2021 1:45:00 PM 25.75 78.35 0.125 8.3 4.33 9.85
6/28/2021 2:00:00 PM 25.98 78.764 0.125 8.35 2.28 9.82
6/28/2021 2:15:00 PM 26.24 79.232 0.125 8.45 2.37 9.91
6/28/2021 2:30:00 PM 26.4 79.52 0.125 8.42 4.37 9.86
6/28/2021 2:45:00 PM 26.62 79.916 0.125 8.48 4.37 9.93
6/28/2021 3:00:00 PM 26.84 80.312 0.125 8.52 4.36 9.95
6/28/2021 3:15:00 PM 26.96 80.528 0.125 8.53 4.34 9.87
6/28/2021 3:30:00 PM 27.12 80.816 0.125 8.51 4.08 9.79
6/28/2021 3:45:00 PM 27.16 80.888 0.126 8.51 4.43 9.76
6/28/2021 4:00:00 PM 27.07 80.726 0.126 8.52 4.22 9.66
6/28/2021 4:15:00 PM 27.02 80.636 0.125 8.47 4.69 9.59
6/28/2021 4:30:00 PM 26.95 80.51 0.126 8.46 2.47 9.46
6/28/2021 4:45:00 PM 26.89 80.402 0.126 8.4 4.22 9.33
6/28/2021 5:00:00 PM 26.71 80.078 0.126 8.31 1.91 9.16
6/28/2021 5:15:00 PM 26.63 79.934 0.126 8.24 4.34 9.03
6/28/2021 5:30:00 PM 26.51 79.718 0.126 8.17 4.43 8.88
6/28/2021 5:45:00 PM 26.41 79.538 0.126 8.1 4.42 8.72
6/28/2021 6:00:00 PM 26.23 79.214 0.127 8 2.05 8.56
6/28/2021 6:15:00 PM 26.09 78.962 0.127 7.89 4.71 8.38
6/28/2021 6:30:00 PM 25.92 78.656 0.127 7.86 2.22 8.27
6/28/2021 6:45:00 PM 25.77 78.386 0.127 7.78 2.45 8.13
6/28/2021 7:00:00 PM 25.61 78.098 0.127 7.71 2.27 8.02
6/28/2021 7:15:00 PM 25.51 77.918 0.127 7.65 7 7.88
6/28/2021 7:30:00 PM 25.39 77.702 0.127 7.62 2.39 7.79
6/28/2021 7:45:00 PM 25.3 77.54 0.127 7.59 2.6 7.69
6/28/2021 8:00:00 PM 25.21 77.378 0.128 7.55 2.23 7.61
6/28/2021 8:15:00 PM 25.14 77.252 0.128 7.52 2.33 7.48
6/28/2021 8:30:00 PM 25.06 77.108 0.128 7.47 2.6 7.39
6/28/2021 8:45:00 PM 24.97 76.946 0.128 7.46 2.21 7.29
6/28/2021 9:00:00 PM 24.89 76.802 0.128 7.43 3.02 7.2
6/28/2021 9:15:00 PM 24.83 76.694 0.128 7.39 4.52 7.14
6/28/2021 9:30:00 PM 24.76 76.568 0.128 7.38 3.39 7.03
6/28/2021 9:45:00 PM 24.7 76.46 0.128 7.37 3.08 6.99
6/28/2021 10:00:00 PM 24.64 76.352 0.128 7.35 3.4 6.93
6/28/2021 10:15:00 PM 24.59 76.262 0.128 7.34 2.99 6.91
6/28/2021 10:30:00 PM 24.53 76.154 0.128 7.33 3.08 6.91
6/28/2021 10:45:00 PM 24.49 76.082 0.128 7.32 3.06 6.86
6/28/2021 11:00:00 PM 24.44 75.992 0.128 7.31 3.22 6.87
6/28/2021 11:15:00 PM 24.39 75.902 0.128 7.3 3.16 6.82
6/28/2021 11:30:00 PM 24.35 75.83 0.128 7.28 2.87 6.84
6/28/2021 11:45:00 PM 24.32 75.776 0.128 7.25 3.32 6.8
6/29/2021 12:00:00 AM 24.29 75.722 0.128 7.25 3.51 6.84
6/29/2021 12:15:00 AM 24.25 75.65 0.128 7.27 3.48 6.79
6/29/2021 12:30:00 AM 24.22 75.596 0.128 7.25 3.03 6.79
6/29/2021 12:45:00 AM 24.18 75.524 0.128 7.25 3.27 6.78
6/29/2021 1:00:00 AM 24.16 75.488 0.128 7.24 5.77 6.73
6/29/2021 1:15:00 AM 24.13 75.434 0.128 7.23 3.38 6.76
6/29/2021 1:30:00 AM 24.1 75.38 0.128 7.23 4.81 6.75
6/29/2021 1:45:00 AM 24.08 75.344 0.128 7.23 3.65 6.75
6/29/2021 2:00:00 AM 24.06 75.308 0.128 7.23 3.39 6.72
6/29/2021 2:15:00 AM 24.02 75.236 0.128 7.23 3.65 6.8
6/29/2021 2:30:00 AM 23.98 75.164 0.128 7.22 3.9 6.75
6/29/2021 2:45:00 AM 23.94 75.092 0.128 7.22 4.57 6.83
6/29/2021 3:00:00 AM 23.9 75.02 0.128 7.22 4.12 6.79
6/29/2021 3:15:00 AM 23.84 74.912 0.128 7.21 4.79 6.7
6/29/2021 3:30:00 AM 23.8 74.84 0.128 7.18 4.47 6.76
6/29/2021 3:45:00 AM 23.75 74.75 0.128 7.22 3.76 6.83
6/29/2021 4:00:00 AM 23.71 74.67799 0.129 7.21 3.45 6.84
6/29/2021 4:15:00 AM 23.66 74.588 0.129 7.21 4.48 6.8
6/29/2021 4:30:00 AM 23.61 74.498 0.129 7.21 3.96 6.81
6/29/2021 4:45:00 AM 23.58 74.444 0.129 7.21 546.17 6.82
6/29/2021 5:00:00 AM 23.53 74.354 0.129 7.21 4.43 6.81
6/29/2021 5:15:00 AM 23.49 74.282 0.129 7.2 4.07 6.81
6/29/2021 5:30:00 AM 23.44 74.192 0.129 7.2 4.26 6.81
6/29/2021 5:45:00 AM 23.4 74.12 0.129 7.21 4.51 6.82
6/29/2021 6:00:00 AM 23.36 74.048 0.129 7.21 4.81 6.88
6/29/2021 6:15:00 AM 23.31 73.958 0.129 7.22 4.02 6.93
6/29/2021 6:30:00 AM 23.28 73.904 0.129 7.22 3.91 6.9
6/29/2021 6:45:00 AM 23.25 73.85 0.129 7.23 4.48 7.03
6/29/2021 7:00:00 AM 23.23 73.814 0.129 7.23 3.75 7.07
6/29/2021 7:15:00 AM 23.22 73.796 0.129 7.25 3.37 7.32
6/29/2021 7:30:00 AM 23.23 73.814 0.129 7.26 3.74 7.4
6/29/2021 7:45:00 AM 23.25 73.85 0.129 7.28 3.5 7.41
6/29/2021 8:00:00 AM 23.3 73.94 0.128 7.3 3.26 7.59
6/29/2021 8:15:00 AM 23.35 74.03 0.128 7.3 2.76 7.66
6/29/2021 8:30:00 AM 23.42 74.156 0.128 7.35 3.92 7.72
6/29/2021 8:45:00 AM 23.5 74.3 0.128 7.36 3.1 7.8
6/29/2021 9:00:00 AM 23.62 74.516 0.128 7.4 3.07 8.11
6/29/2021 9:15:00 AM 23.74 74.732 0.128 7.4 3.92 8.19
6/29/2021 9:30:00 AM 23.88 74.984 0.128 7.46 3.22 8.36
6/29/2021 9:45:00 AM 24.01 75.218 0.128 7.46 2.99 8.43
6/29/2021 10:00:00 AM 24.15 75.47 0.128 7.53 3.46 8.52
6/29/2021 10:15:00 AM 24.26 75.668 0.128 7.54 2.74 8.65
6/29/2021 10:30:00 AM 24.4 75.92 0.128 7.59 3.32 8.66
6/29/2021 10:45:00 AM 24.59 76.262 0.128 7.64 2.81 8.74
6/29/2021 11:00:00 AM 24.98 76.964 0.128 7.72 2.59 9.04
6/29/2021 11:15:00 AM 25.2 77.36 0.128 7.76 2.84 9.13
6/29/2021 11:30:00 AM 25.39 77.702 0.128 7.83 4.85 9.21
6/29/2021 11:45:00 AM 25.63 78.134 0.128 7.89 5.13 9.29
6/29/2021 12:00:00 PM 25.82 78.476 0.127 7.93 5.01 9.36
6/29/2021 12:15:00 PM 26.07 78.926 0.127 8.03 2.99 9.44
6/29/2021 12:30:00 PM 26.34 79.412 0.127 8.09 2.96 9.47
6/29/2021 12:45:00 PM 26.63 79.934 0.127 8.14 2.58 9.5
6/29/2021 1:00:00 PM 26.83 80.294 0.127 8.19 2.44 9.53
6/29/2021 1:15:00 PM 27.08 80.744 0.127 8.22 4.18 9.58
6/29/2021 1:30:00 PM 27.32 81.176 0.127 8.32 2.82 9.7
6/29/2021 1:45:00 PM 27.5 81.5 0.127 8.39 2.34 9.75
6/29/2021 2:00:00 PM 27.74 81.932 0.127 8.39 4.49 9.73
6/29/2021 2:15:00 PM 27.87 82.166 0.127 8.42 2.31 9.67
6/29/2021 2:30:00 PM 27.87 82.166 0.127 8.42 4.53 9.65
6/29/2021 2:45:00 PM 28.09 82.562 0.127 8.46 4.52 9.73
6/29/2021 3:00:00 PM 28.17 82.706 0.127 8.48 2.26 9.62
6/29/2021 3:15:00 PM 28.25 82.85 0.127 8.48 4.49 9.57
6/29/2021 3:30:00 PM 28.22 82.796 0.127 8.45 4.14 9.49
6/29/2021 3:45:00 PM 28.37 83.066 0.127 8.47 2.62 9.48
6/29/2021 4:00:00 PM 28.47 83.24599 0.127 8.51 4.49 9.5
6/29/2021 4:15:00 PM 28.51 83.318 0.127 8.51 4.44 9.46
6/29/2021 4:30:00 PM 28.48 83.264 0.127 8.49 2.31 9.29
6/29/2021 4:45:00 PM 28.36 83.048 0.127 8.43 2.6 9.13
6/29/2021 5:00:00 PM 28.26 82.868 0.127 8.38 2.43 9.04
6/29/2021 5:15:00 PM 28.18 82.724 0.127 8.35 2.84 8.99
6/29/2021 5:30:00 PM 28.13 82.634 0.127 8.31 4.07 8.92
6/29/2021 5:45:00 PM 27.99 82.382 0.127 8.26 2.72 8.73
6/29/2021 6:00:00 PM 27.75 81.95 0.128 8.1 4.76 8.47
6/29/2021 6:15:00 PM 27.57 81.626 0.128 8.04 2.53 8.33
6/29/2021 6:30:00 PM 27.44 81.392 0.128 7.94 4.97 8.28
6/29/2021 6:45:00 PM 27.33 81.194 0.128 7.91 4.19 8.16
6/29/2021 7:00:00 PM 27.22 80.996 0.128 7.85 2.12 7.92
6/29/2021 7:15:00 PM 27.06 80.708 0.128 7.75 2.36 7.77
6/29/2021 7:30:00 PM 26.93 80.474 0.128 7.68 2.47 7.69
6/29/2021 7:45:00 PM 26.82 80.276 0.128 7.63 4.4 7.6
6/29/2021 8:00:00 PM 26.74 80.132 0.129 7.62 2.74 7.45
6/29/2021 8:15:00 PM 26.62 79.916 0.129 7.51 5.08 7.31
6/29/2021 8:30:00 PM 26.52 79.736 0.129 7.49 4.63 7.2
6/29/2021 8:45:00 PM 26.43 79.574 0.129 7.46 2.36 7.07
6/29/2021 9:00:00 PM 26.34 79.412 0.129 7.4 2.99 6.92
6/29/2021 9:15:00 PM 26.25 79.25 0.129 7.42 3.38 6.9
6/29/2021 9:30:00 PM 26.17 79.106 0.129 7.38 2.9 6.8
6/29/2021 9:45:00 PM 26.1 78.98 0.13 7.37 4.25 6.7
6/29/2021 10:00:00 PM 26.02 78.836 0.129 7.35 3.43 6.68
6/29/2021 10:15:00 PM 25.95 78.71 0.129 7.34 3.28 6.67
6/29/2021 10:30:00 PM 25.88 78.584 0.129 7.32 3.32 6.64
6/29/2021 10:45:00 PM 25.82 78.476 0.129 7.3 4.23 6.6
6/29/2021 11:00:00 PM 25.76 78.368 0.129 7.29 2.69 6.52
6/29/2021 11:15:00 PM 25.73 78.314 0.129 7.29 3 6.52
6/29/2021 11:30:00 PM 25.66 78.188 0.129 7.28 3.3 6.47
6/29/2021 11:45:00 PM 25.63 78.134 0.129 7.27 4.02 6.51
6/30/2021 12:00:00 AM 25.58 78.044 0.129 7.27 3.24 6.49
6/30/2021 12:15:00 AM 25.53 77.954 0.129 7.23 3.72 6.44
6/30/2021 12:30:00 AM 25.48 77.864 0.129 7.25 4.35 6.4
6/30/2021 12:45:00 AM 25.42 77.756 0.129 7.25 3.89 6.44
6/30/2021 1:00:00 AM 25.37 77.666 0.129 7.26 3.6 6.53
6/30/2021 1:15:00 AM 25.32 77.576 0.129 7.26 4.47 6.52
6/30/2021 1:30:00 AM 25.25 77.45 0.129 7.25 3.46 6.46
6/30/2021 1:45:00 AM 25.19 77.342 0.129 7.25 4.05 6.45
6/30/2021 2:00:00 AM 25.12 77.216 0.129 7.24 3.68 6.55
6/30/2021 2:15:00 AM 25.06 77.108 0.129 7.24 3.7 6.5
6/30/2021 2:30:00 AM 24.98 76.964 0.129 7.23 4.19 6.46
6/30/2021 2:45:00 AM 24.92 76.856 0.129 7.23 4.58 6.47
6/30/2021 3:00:00 AM 24.86 76.748 0.129 7.23 4.19 6.53
6/30/2021 3:15:00 AM 24.79 76.622 0.129 7.23 4.31 6.51
6/30/2021 3:30:00 AM 24.74 76.532 0.129 7.22 4.26 6.54
6/30/2021 3:45:00 AM 24.66 76.388 0.129 7.24 3.1 6.56
6/30/2021 4:00:00 AM 24.6 76.28 0.129 7.23 5.14 6.53
6/30/2021 4:15:00 AM 24.52 76.136 0.129 7.24 3.88 6.56
6/30/2021 4:30:00 AM 24.45 76.01 0.129 7.22 3.91 6.61
6/30/2021 4:45:00 AM 24.37 75.866 0.129 7.22 5.06 6.61
6/30/2021 5:00:00 AM 24.31 75.758 0.13 7.23 4.54 6.61
6/30/2021 5:15:00 AM 24.23 75.614 0.13 7.21 3.81 6.56
6/30/2021 5:30:00 AM 24.15 75.47 0.129 7.21 5.64 6.55
6/30/2021 5:45:00 AM 24.07 75.326 0.13 7.16 9.16 6.62
6/30/2021 6:00:00 AM 24.02 75.236 0.13 7.23 4.87 6.7
6/30/2021 6:15:00 AM 23.95 75.11 0.13 7.24 4.11 6.75
6/30/2021 6:30:00 AM 23.88 74.984 0.13 7.24 3.72 6.84
6/30/2021 6:45:00 AM 23.83 74.894 0.13 7.24 3.36 6.9
6/30/2021 7:00:00 AM 23.79 74.82201 0.13 7.26 3.35 7.02
6/30/2021 7:15:00 AM 23.77 74.786 0.129 7.28 3.92 7.01
6/30/2021 7:30:00 AM 23.77 74.786 0.129 7.28 3.55 7.11
6/30/2021 7:45:00 AM 23.79 74.82201 0.129 7.3 3.73 7.36
6/30/2021 8:00:00 AM 23.82 74.876 0.129 7.33 3.67 7.47
6/30/2021 8:15:00 AM 23.85 74.93 0.129 7.36 3.75 7.54
6/30/2021 8:30:00 AM 23.93 75.074 0.129 7.38 3.15 7.74
6/30/2021 8:45:00 AM 24 75.2 0.129 7.4 5.89 7.83
6/30/2021 9:00:00 AM 24.07 75.326 0.129 7.43 3.32 7.8
6/30/2021 9:15:00 AM 24.15 75.47 0.129 7.44 3.22 7.93
6/30/2021 9:30:00 AM 24.27 75.686 0.129 7.47 3.31 8.08
6/30/2021 9:45:00 AM 24.44 75.992 0.129 7.51 3.06 8.27
6/30/2021 10:00:00 AM 24.56 76.208 0.129 7.5 3.03 8.36
6/30/2021 10:15:00 AM 24.63 76.334 0.129 7.56 2.94 8.36
6/30/2021 10:30:00 AM 24.79 76.622 0.129 7.6 3.4 8.48
6/30/2021 10:45:00 AM 24.95 76.91 0.128 7.63 2.8 8.55
6/30/2021 11:00:00 AM 25.36 77.648 0.128 7.75 3.39 8.87
6/30/2021 11:15:00 AM 25.59 78.062 0.128 7.8 2.62 8.93
6/30/2021 11:30:00 AM 25.79 78.422 0.128 7.87 3.21 9.04
6/30/2021 11:45:00 AM 25.97 78.746 0.128 7.88 2.6 9.08
6/30/2021 12:00:00 PM 26.18 79.124 0.128 7.92 4.88 9.14
6/30/2021 12:15:00 PM 26.43 79.574 0.128 7.98 4.98 9.25
6/30/2021 12:30:00 PM 26.72 80.096 0.128 8.09 2.64 9.36
6/30/2021 12:45:00 PM 26.92 80.456 0.128 8.13 2.88 9.38
6/30/2021 1:00:00 PM 26.99 80.582 0.128 8.12 2.3 9.26
6/30/2021 1:15:00 PM 27.04 80.672 0.128 8.09 4.25 9.26
6/30/2021 1:30:00 PM 27.1 80.78 0.128 8.13 4.88 9.3
6/30/2021 1:45:00 PM 27.29 81.122 0.127 8.24 2.59 9.4
6/30/2021 2:00:00 PM 27.34 81.212 0.128 8.2 4.62 9.35
6/30/2021 2:15:00 PM 27.64 81.752 0.127 8.28 4.49 9.44
6/30/2021 2:30:00 PM 27.72 81.896 0.127 8.32 2.63 9.4
6/30/2021 2:45:00 PM 27.86 82.148 0.127 8.32 4.76 9.42
6/30/2021 3:00:00 PM 27.91 82.238 0.127 8.36 2.72 9.35
6/30/2021 3:15:00 PM 27.9 82.22 0.127 8.36 5.13 9.37
6/30/2021 3:30:00 PM 27.85 82.13 0.127 8.33 4.74 9.26
6/30/2021 3:45:00 PM 27.84 82.112 0.127 8.35 5.26 9.22
6/30/2021 4:00:00 PM 27.69 81.842 0.127 8.28 4.6 9.08
6/30/2021 4:15:00 PM 27.56 81.608 0.127 8.25 2.26 8.93
6/30/2021 4:30:00 PM 27.39 81.302 0.128 8.14 4.41 8.6
6/30/2021 4:45:00 PM 26.83 80.294 0.108 7.66 8.79 8.2
6/30/2021 5:00:00 PM 26.55 79.79 0.119 7.68 9.26 7.98
6/30/2021 5:15:00 PM 26.53 79.754 0.123 7.67 5.73 7.76
6/30/2021 5:30:00 PM 26.38 79.484 0.123 7.57 5.87 7.56
6/30/2021 5:45:00 PM 26.24 79.232 0.121 7.53 5.42 7.4
6/30/2021 6:00:00 PM 26.24 79.232 0.122 7.51 6.62 7.35
6/30/2021 6:15:00 PM 26.25 79.25 0.124 7.51 5.6 7.32
6/30/2021 6:30:00 PM 26.18 79.124 0.124 7.49 5.49 7.27
6/30/2021 6:45:00 PM 26.05 78.89 0.124 7.46 4.81 7.3
6/30/2021 7:00:00 PM 25.95 78.71 0.124 7.44 4.56 7.23
6/30/2021 7:15:00 PM 25.84 78.512 0.124 7.42 4.58 7.16
6/30/2021 7:30:00 PM 25.73 78.314 0.125 7.41 6.99 7.11
6/30/2021 7:45:00 PM 25.64 78.152 0.126 7.4 5.02 7.11
6/30/2021 8:00:00 PM 25.53 77.954 0.126 7.36 4.87 7.06
6/30/2021 8:15:00 PM 25.44 77.792 0.127 7.38 5.58 6.97
6/30/2021 8:30:00 PM 25.34 77.612 0.128 7.36 6.42 6.88
6/30/2021 8:45:00 PM 25.23 77.414 0.13 7.33 6.72 6.86
6/30/2021 9:00:00 PM 25.16 77.288 0.13 7.34 6.62 6.74
6/30/2021 9:15:00 PM 25.07 77.126 0.132 7.32 6.75 6.71
6/30/2021 9:30:00 PM 24.99 76.982 0.134 7.32 5.95 6.68
6/30/2021 9:45:00 PM 24.92 76.856 0.136 7.32 6.41 6.63
6/30/2021 10:00:00 PM 24.86 76.748 0.139 7.3 6.29 6.59
6/30/2021 10:15:00 PM 24.8 76.64 0.14 7.31 7.42 6.62
6/30/2021 10:30:00 PM 24.75 76.55 0.141 7.32 6.67 6.6
6/30/2021 10:45:00 PM 24.67 76.406 0.141 7.31 5.78 6.63
6/30/2021 11:00:00 PM 24.62 76.316 0.141 7.32 5.72 6.64
6/30/2021 11:15:00 PM 24.57 76.226 0.141 7.31 7.08 6.6
6/30/2021 11:30:00 PM 24.5 76.1 0.141 7.31 6.71 6.6
6/30/2021 11:45:00 PM 24.44 75.992 0.141 7.3 5.91 6.61
7/1/2021 12:00:00 AM 24.36 75.848 0.14 7.29 5.57 6.63
7/1/2021 12:15:00 AM 24.3 75.74 0.14 7.29 6.03 6.66
7/1/2021 12:30:00 AM 24.23 75.614 0.14 7.3 5.38 6.65
7/1/2021 12:45:00 AM 24.17 75.506 0.14 7.28 5.86 6.66
7/1/2021 1:00:00 AM 24.12 75.416 0.139 7.29 5.84 6.68
7/1/2021 1:15:00 AM 24.05 75.29 0.139 7.29 6.14 6.7
7/1/2021 1:30:00 AM 24 75.2 0.139 7.29 6.65 6.7
7/1/2021 1:45:00 AM 23.94 75.092 0.139 7.29 6.7 6.76
7/1/2021 2:00:00 AM 23.89 75.002 0.139 7.27 6.1 6.73
7/1/2021 2:15:00 AM 23.85 74.93 0.139 7.28 6.59 6.76
7/1/2021 2:30:00 AM 23.8 74.84 0.139 7.29 5.78 6.74
7/1/2021 2:45:00 AM 23.75 74.75 0.139 7.28 6.53 6.75
7/1/2021 3:00:00 AM 23.7 74.66 0.138 7.29 6.84 6.71
7/1/2021 3:15:00 AM 23.66 74.588 0.138 7.27 7.41 6.79
7/1/2021 3:30:00 AM 23.61 74.498 0.138 7.29 6.14 6.79
7/1/2021 3:45:00 AM 23.56 74.408 0.138 7.22 5.88 6.84
7/1/2021 4:00:00 AM 23.51 74.318 0.138 7.29 5.43 6.82
7/1/2021 4:15:00 AM 23.48 74.264 0.137 7.22 6.34 6.83
7/1/2021 4:30:00 AM 23.43 74.174 0.137 7.29 5.92 6.79
7/1/2021 4:45:00 AM 23.39 74.102 0.137 7.28 6.08 6.84
7/1/2021 5:00:00 AM 23.34 74.012 0.137 7.28 6.87 6.91
7/1/2021 5:15:00 AM 23.3 73.94 0.136 7.28 5.79 6.89
7/1/2021 5:30:00 AM 23.27 73.886 0.136 7.28 5.34 6.85
7/1/2021 5:45:00 AM 23.21 73.778 0.136 7.26 5.97 6.87
7/1/2021 6:00:00 AM 23.17 73.706 0.136 7.22 5.74 6.91
7/1/2021 6:15:00 AM 23.14 73.652 0.135 7.29 6.57 6.93
7/1/2021 6:30:00 AM 23.1 73.58 0.135 7.18 5.8 6.94
7/1/2021 6:45:00 AM 23.06 73.508 0.135 7.3 4.94 6.89
7/1/2021 7:00:00 AM 23.02 73.436 0.134 7.28 10.01 6.94
7/1/2021 7:15:00 AM 22.91 73.238 0.129 7.29 6.61 7.17
7/1/2021 7:30:00 AM 22.93 73.274 0.133 7.3 5.42 7.15
7/1/2021 7:45:00 AM 22.91 73.238 0.133 7.31 4.81 7.24
7/1/2021 8:00:00 AM 22.89 73.202 0.133 7.31 4.47 7.23
7/1/2021 8:15:00 AM 22.88 73.184 0.132 7.32 5.07 7.38
7/1/2021 8:30:00 AM 22.89 73.202 0.132 7.35 4.7 7.53
7/1/2021 8:45:00 AM 22.9 73.22 0.132 7.37 4.12 7.63
7/1/2021 9:00:00 AM 22.91 73.238 0.132 7.37 4.05 7.82
7/1/2021 9:15:00 AM 22.92 73.256 0.132 7.41 3.95 7.81
7/1/2021 9:30:00 AM 22.91 73.238 0.132 7.4 4.19 7.87
7/1/2021 9:45:00 AM 22.9 73.22 0.132 7.45 3.84 8
7/1/2021 10:00:00 AM 22.88 73.184 0.132 7.45 3.62 8.08
7/1/2021 10:15:00 AM 22.88 73.184 0.132 7.47 3.54 8.05
7/1/2021 10:30:00 AM 22.89 73.202 0.131 7.49 3.61 8.16
7/1/2021 10:45:00 AM 22.87 73.166 0.131 7.5 3.75 8.15
7/1/2021 11:00:00 AM 22.88 73.184 0.131 7.53 3.69 8.35
7/1/2021 11:15:00 AM 22.92 73.256 0.131 7.57 3.85 8.46
7/1/2021 11:30:00 AM 22.96 73.328 0.131 7.61 3.77 8.55
7/1/2021 11:45:00 AM 22.93 73.274 0.131 7.58 3.65 8.43
7/1/2021 12:00:00 PM 22.99 73.382 0.131 7.64 3.61 8.69
7/1/2021 12:15:00 PM 23.06 73.508 0.131 7.71 3.73 8.8
7/1/2021 12:30:00 PM 23.05 73.49 0.131 7.68 3.44 8.7
7/1/2021 12:45:00 PM 23 73.4 0.131 7.67 3.26 8.61
7/1/2021 1:00:00 PM 23.02 73.436 0.131 7.72 3.29 8.8
7/1/2021 1:15:00 PM 23.01 73.418 0.131 7.73 3.02 8.74
7/1/2021 1:30:00 PM 22.99 73.382 0.131 7.65 3.03 8.73
7/1/2021 1:45:00 PM 23 73.4 0.131 7.74 2.91 8.83
7/1/2021 2:00:00 PM 22.99 73.382 0.131 7.75 2.91 8.81
7/1/2021 2:15:00 PM 22.99 73.382 0.131 7.76 3.32 8.82
7/1/2021 2:30:00 PM 23.03 73.454 0.13 7.72 3.27 8.92
7/1/2021 2:45:00 PM 23.03 73.454 0.131 7.79 2.99 8.84
7/1/2021 3:00:00 PM 23.05 73.49 0.131 7.83 2.77 8.92
7/1/2021 3:15:00 PM 23.06 73.508 0.131 7.84 3.05 8.9
7/1/2021 3:30:00 PM 23.06 73.508 0.131 7.84 2.79 8.94
7/1/2021 3:45:00 PM 23.06 73.508 0.131 7.84 3.02 8.87
7/1/2021 4:00:00 PM 23.09 73.562 0.131 7.87 3.38 8.95
7/1/2021 4:15:00 PM 23.08 73.544 0.131 7.82 3 8.86
7/1/2021 4:30:00 PM 23.04 73.472 0.131 7.81 3 8.73
7/1/2021 4:45:00 PM 23.03 73.454 0.131 7.82 2.82 8.75
7/1/2021 5:00:00 PM 23.04 73.472 0.131 7.82 2.78 8.78
7/1/2021 5:15:00 PM 23.04 73.472 0.131 7.81 2.48 8.74
7/1/2021 5:30:00 PM 23.04 73.472 0.131 7.8 2.91 8.76
7/1/2021 5:45:00 PM 23.07 73.526 0.13 7.82 4.36 8.78
7/1/2021 6:00:00 PM 23.06 73.508 0.13 7.84 2.77 8.77
7/1/2021 6:15:00 PM 23.02 73.436 0.131 7.79 3.66 8.61
7/1/2021 6:30:00 PM 22.97 73.346 0.131 7.76 3.05 8.49
7/1/2021 6:45:00 PM 22.93 73.274 0.131 7.71 3.08 8.36
7/1/2021 7:00:00 PM 22.88 73.184 0.131 7.68 3.11 8.23
7/1/2021 7:15:00 PM 22.84 73.112 0.131 7.65 3.12 8.17
7/1/2021 7:30:00 PM 22.81 73.058 0.131 7.62 3.32 8.07
7/1/2021 7:45:00 PM 22.78 73.004 0.131 7.5 3.25 7.96
7/1/2021 8:00:00 PM 22.75 72.95 0.131 7.56 3.61 7.88
7/1/2021 8:15:00 PM 22.71 72.878 0.131 7.54 3.78 7.81
7/1/2021 8:30:00 PM 22.67 72.806 0.13 7.52 3.05 7.73
7/1/2021 8:45:00 PM 22.64 72.752 0.13 7.5 3.91 7.68
7/1/2021 9:00:00 PM 22.6 72.68 0.13 7.47 4.56 7.63
7/1/2021 9:15:00 PM 22.56 72.608 0.13 7.45 4.17 7.59
7/1/2021 9:30:00 PM 22.52 72.536 0.13 7.38 4.53 7.54
7/1/2021 9:45:00 PM 22.48 72.464 0.13 7.43 4.27 7.54
7/1/2021 10:00:00 PM 22.44 72.392 0.13 7.4 4.37 7.49
7/1/2021 10:15:00 PM 22.4 72.32 0.13 7.39 5.01 7.46
7/1/2021 10:30:00 PM 22.36 72.248 0.13 7.38 4.69 7.48
7/1/2021 10:45:00 PM 22.33 72.194 0.13 7.37 5.55 7.45
7/1/2021 11:00:00 PM 22.28 72.104 0.13 7.37 4.55 7.46
7/1/2021 11:15:00 PM 22.25 72.05 0.13 7.35 5.44 7.42
7/1/2021 11:30:00 PM 22.2 71.96 0.13 7.36 4.78 7.44
7/1/2021 11:45:00 PM 22.17 71.906 0.13 7.35 5.84 7.42
7/2/2021 12:00:00 AM 22.12 71.816 0.13 7.34 5.07 7.42
7/2/2021 12:15:00 AM 22.07 71.726 0.13 7.34 5.03 7.42
7/2/2021 12:30:00 AM 22.03 71.654 0.13 7.34 5.38 7.43
7/2/2021 12:45:00 AM 21.98 71.564 0.13 7.34 5.72 7.47
7/2/2021 1:00:00 AM 21.93 71.474 0.13 7.32 4.8 7.45
7/2/2021 1:15:00 AM 21.89 71.402 0.13 7.33 5.65 7.45
7/2/2021 1:30:00 AM 21.84 71.312 0.13 7.35 4.3 7.49
7/2/2021 1:45:00 AM 21.8 71.24 0.13 7.27 5.46 7.49
7/2/2021 2:00:00 AM 21.75 71.15 0.13 7.35 5.29 7.47
7/2/2021 2:15:00 AM 21.7 71.06 0.131 7.35 5.04 7.52
7/2/2021 2:30:00 AM 21.66 70.988 0.131 7.35 4.95 7.52
7/2/2021 2:45:00 AM 21.61 70.898 0.131 7.34 4.94 7.54
7/2/2021 3:00:00 AM 21.56 70.808 0.131 7.35 6.2 7.54
7/2/2021 3:15:00 AM 21.52 70.736 0.131 7.35 5.51 7.52
7/2/2021 3:30:00 AM 21.46 70.628 0.131 7.35 5.52 7.54
7/2/2021 3:45:00 AM 21.41 70.538 0.131 7.31 5.79 7.56
7/2/2021 4:00:00 AM 21.36 70.448 0.131 7.35 6.04 7.57
7/2/2021 4:15:00 AM 21.31 70.358 0.131 7.34 5.4 7.55
7/2/2021 4:30:00 AM 21.26 70.268 0.131 7.34 5.62 7.59
7/2/2021 4:45:00 AM 21.21 70.17799 0.131 7.28 5.45 7.61
7/2/2021 5:00:00 AM 21.15 70.07 0.131 7.35 6.54 7.61
7/2/2021 5:15:00 AM 21.11 69.998 0.13 7.35 7.12 7.63
7/2/2021 5:30:00 AM 21.05 69.89 0.13 7.34 9.9 7.64
7/2/2021 5:45:00 AM 21 69.8 0.13 7.35 7.86 7.65
7/2/2021 6:00:00 AM 20.94 69.692 0.13 7.35 5.75 7.67
7/2/2021 6:15:00 AM 20.89 69.602 0.13 7.35 5.56 7.71
7/2/2021 6:30:00 AM 20.84 69.512 0.13 7.3 4.63 7.75
7/2/2021 6:45:00 AM 20.8 69.44 0.13 7.37 5.08 7.74
7/2/2021 7:00:00 AM 20.76 69.368 0.13 7.38 4.4 7.85
7/2/2021 7:15:00 AM 20.74 69.332 0.13 7.39 4.9 7.98
7/2/2021 7:30:00 AM 20.71 69.278 0.129 7.4 5.05 8.01
7/2/2021 7:45:00 AM 20.69 69.242 0.129 7.42 4.33 8.12
7/2/2021 8:00:00 AM 20.66 69.188 0.129 7.45 4.48 8.22
7/2/2021 8:15:00 AM 20.65 69.17 0.129 7.4 5.15 8.27
7/2/2021 8:30:00 AM 20.64 69.152 0.129 7.48 4.54 8.39
7/2/2021 8:45:00 AM 20.63 69.134 0.129 7.5 5.06 8.43
7/2/2021 9:00:00 AM 20.64 69.152 0.129 7.52 4.68 8.55
7/2/2021 9:15:00 AM 20.76 69.368 0.129 7.57 3.68 8.67
7/2/2021 9:30:00 AM 20.79 69.422 0.129 7.6 3.74 8.73
7/2/2021 9:45:00 AM 20.82 69.476 0.128 7.62 4.26 8.82
7/2/2021 10:00:00 AM 20.93 69.674 0.128 7.64 5.11 8.82
7/2/2021 10:15:00 AM 21.11 69.998 0.128 7.69 4.56 8.99
7/2/2021 10:30:00 AM 21.28 70.304 0.128 7.74 3.69 9.11
7/2/2021 10:45:00 AM 21.41 70.538 0.128 7.79 3.18 9.18
7/2/2021 11:00:00 AM 21.43 70.574 0.128 7.81 4.61 9.27
7/2/2021 11:15:00 AM 21.53 70.754 0.128 7.86 3.01 9.36
7/2/2021 11:30:00 AM 21.63 70.934 0.128 7.87 2.89 9.43
7/2/2021 11:45:00 AM 21.82 71.276 0.128 7.94 2.92 9.47
7/2/2021 12:00:00 PM 21.9 71.42 0.128 7.97 3.07 9.53
7/2/2021 12:15:00 PM 22.24 72.032 0.128 8.05 2.85 9.67
7/2/2021 12:30:00 PM 22.11 71.798 0.128 8.03 3.55 9.54
7/2/2021 12:45:00 PM 22.03 71.654 0.128 7.98 2.51 9.44
7/2/2021 1:00:00 PM 21.98 71.564 0.128 7.99 3.2 9.42
7/2/2021 1:15:00 PM 21.93 71.474 0.127 7.97 2.86 9.32
7/2/2021 1:30:00 PM 21.96 71.528 0.127 7.96 2.69 9.38
7/2/2021 1:45:00 PM 22.55 72.59 0.127 8.09 2.82 9.48
7/2/2021 2:00:00 PM 22.48 72.464 0.127 8.08 2.78 9.39
7/2/2021 2:15:00 PM 22.37 72.266 0.127 7.97 3.88 9.17
7/2/2021 2:30:00 PM 22.3 72.14 0.125 7.94 3.45 9.07
7/2/2021 2:45:00 PM 22.1 71.78 0.126 7.89 2.82 8.96
7/2/2021 3:00:00 PM 22.01 71.618 0.126 7.87 2.81 9.07
7/2/2021 3:15:00 PM 21.98 71.564 0.126 7.87 2.74 8.98
7/2/2021 3:30:00 PM 21.97 71.546 0.126 7.87 2.72 8.92
7/2/2021 3:45:00 PM 21.96 71.528 0.126 7.84 2.71 8.86
7/2/2021 4:00:00 PM 21.94 71.492 0.126 7.81 2.9 8.8
7/2/2021 4:15:00 PM 21.96 71.528 0.126 7.86 2.76 8.92
7/2/2021 4:30:00 PM 21.96 71.528 0.126 7.87 2.49 8.95
7/2/2021 4:45:00 PM 21.95 71.51 0.126 7.89 2.7 9.04
7/2/2021 5:00:00 PM 22 71.6 0.126 7.94 3.71 9.13
7/2/2021 5:15:00 PM 22.13 71.834 0.126 7.91 3.53 9.06
7/2/2021 5:30:00 PM 22.2 71.96 0.127 7.94 3.34 9.01
7/2/2021 5:45:00 PM 22.12 71.816 0.127 7.89 3.26 8.85
7/2/2021 6:00:00 PM 21.88 71.384 0.127 7.79 3.35 8.66
7/2/2021 6:15:00 PM 21.69 71.042 0.127 7.72 5.59 8.47
7/2/2021 6:30:00 PM 21.58 70.844 0.127 7.65 4.66 8.31
7/2/2021 6:45:00 PM 21.49 70.682 0.127 7.61 3.67 8.26
7/2/2021 7:00:00 PM 21.43 70.574 0.127 7.61 3.08 8.26
7/2/2021 7:15:00 PM 21.38 70.484 0.127 7.53 2.9 8.31
7/2/2021 7:30:00 PM 21.33 70.394 0.127 7.59 2.86 8.26
7/2/2021 7:45:00 PM 21.27 70.286 0.127 7.57 2.69 8.22
7/2/2021 8:00:00 PM 21.22 70.196 0.127 7.55 2.88 8.16
7/2/2021 8:15:00 PM 21.14 70.052 0.128 7.55 3.3 8.14
7/2/2021 8:30:00 PM 21.05 69.89 0.128 7.52 3.8 8.08
7/2/2021 8:45:00 PM 20.99 69.782 0.128 7.5 3.44 8.02
7/2/2021 9:00:00 PM 20.92 69.656 0.128 7.48 3.06 7.95
7/2/2021 9:15:00 PM 20.86 69.548 0.128 7.46 4.16 7.88
7/2/2021 9:30:00 PM 20.8 69.44 0.128 7.45 3.16 7.88
7/2/2021 9:45:00 PM 20.75 69.35 0.128 7.45 3.3 7.85
7/2/2021 10:00:00 PM 20.69 69.242 0.128 7.44 3.08 7.84
7/2/2021 10:15:00 PM 20.64 69.152 0.129 7.43 4.17 7.8
7/2/2021 10:30:00 PM 20.57 69.026 0.129 7.43 3.61 7.82
7/2/2021 10:45:00 PM 20.51 68.918 0.129 7.42 4.77 7.77
7/2/2021 11:00:00 PM 20.45 68.81 0.129 7.41 3.72 7.76
7/2/2021 11:15:00 PM 20.38 68.684 0.129 7.35 3.65 7.79
7/2/2021 11:30:00 PM 20.32 68.576 0.129 7.4 5.39 7.81
7/2/2021 11:45:00 PM 20.29 68.522 0.13 7.39 4.27 7.74
7/3/2021 12:00:00 AM 20.25 68.45 0.13 7.39 4.14 7.78
7/3/2021 12:15:00 AM 20.2 68.36 0.13 7.38 3.75 7.77
7/3/2021 12:30:00 AM 20.14 68.252 0.13 7.39 3.97 7.77
7/3/2021 12:45:00 AM 20.08 68.144 0.13 7.36 4.16 7.77
7/3/2021 1:00:00 AM 20 68 0.13 7.37 4.27 7.79
7/3/2021 1:15:00 AM 19.93 67.874 0.13 7.37 3.94 7.81
7/3/2021 1:30:00 AM 19.88 67.784 0.13 7.36 3.87 7.8
7/3/2021 1:45:00 AM 19.83 67.694 0.13 7.36 4.06 7.82
7/3/2021 2:00:00 AM 19.77 67.586 0.13 7.37 3.85 7.81
7/3/2021 2:15:00 AM 19.71 67.478 0.13 7.37 4.34 7.82
7/3/2021 2:30:00 AM 19.64 67.352 0.13 7.37 4.42 7.84
7/3/2021 2:45:00 AM 19.56 67.208 0.13 7.35 3.84 7.87
7/3/2021 3:00:00 AM 19.49 67.082 0.13 7.34 4.26 7.85
7/3/2021 3:15:00 AM 19.42 66.956 0.13 7.34 4.27 7.9
7/3/2021 3:30:00 AM 19.37 66.866 0.13 7.29 4.67 7.86
7/3/2021 3:45:00 AM 19.3 66.74 0.13 7.35 8.33 7.89
7/3/2021 4:00:00 AM 19.22 66.596 0.13 7.36 6.69 7.95
7/3/2021 4:15:00 AM 19.18 66.524 0.13 7.36 4.89 7.93
7/3/2021 4:30:00 AM 19.11 66.398 0.13 7.34 4.62 7.95
7/3/2021 4:45:00 AM 19.05 66.29 0.13 7.36 4.83 7.96
7/3/2021 5:00:00 AM 18.99 66.182 0.13 7.35 13.15 7.93
7/3/2021 5:15:00 AM 18.92 66.056 0.13 7.35 6.01 7.92
7/3/2021 5:30:00 AM 18.87 65.966 0.13 7.35 4.6 8
7/3/2021 5:45:00 AM 18.82 65.876 0.13 7.34 4.73 7.99
7/3/2021 6:00:00 AM 18.77 65.786 0.13 7.36 4.72 8.04
7/3/2021 6:15:00 AM 18.73 65.714 0.129 7.34 6.85 8.09
7/3/2021 6:30:00 AM 18.69 65.642 0.129 7.36 3.74 8.12
7/3/2021 6:45:00 AM 18.66 65.588 0.129 7.38 3.86 8.21
7/3/2021 7:00:00 AM 18.62 65.516 0.129 7.38 4.01 8.26
7/3/2021 7:15:00 AM 18.61 65.498 0.129 7.4 3.89 8.39
7/3/2021 7:30:00 AM 18.62 65.516 0.129 7.41 3.67 8.43
7/3/2021 7:45:00 AM 18.61 65.498 0.129 7.43 3.64 8.53
7/3/2021 8:00:00 AM 18.63 65.534 0.128 7.45 3.57 8.69
7/3/2021 8:15:00 AM 18.64 65.552 0.128 7.42 3.98 8.75
7/3/2021 8:30:00 AM 18.66 65.588 0.128 7.5 3.39 8.85
7/3/2021 8:45:00 AM 18.69 65.642 0.128 7.54 3.11 8.98
7/3/2021 9:00:00 AM 18.72 65.696 0.128 7.55 3.33 9.03
7/3/2021 9:15:00 AM 18.78 65.804 0.128 7.58 2.91 9.13
7/3/2021 9:30:00 AM 18.84 65.912 0.128 7.64 3.04 9.29
7/3/2021 9:45:00 AM 18.94 66.092 0.128 7.68 3.21 9.39
7/3/2021 10:00:00 AM 19.02 66.236 0.128 7.72 3.75 9.47
7/3/2021 10:15:00 AM 19.12 66.416 0.127 7.62 2.93 9.63
7/3/2021 10:30:00 AM 19.12 66.416 0.125 7.73 3.84 9.39
7/3/2021 10:45:00 AM 19.02 66.236 0.125 7.7 3.57 9.3
7/3/2021 11:00:00 AM 19.02 66.236 0.126 7.7 2.75 9.46
7/3/2021 11:15:00 AM 19.05 66.29 0.126 7.75 2.67 9.45
7/3/2021 11:30:00 AM 19.17 66.506 0.126 7.78 3.04 9.58
7/3/2021 11:45:00 AM 19.28 66.704 0.126 7.87 2.87 9.64
7/3/2021 12:00:00 PM 19.37 66.866 0.126 7.87 3.08 9.68
7/3/2021 12:15:00 PM 19.71 67.478 0.126 7.98 3.23 9.79
7/3/2021 12:30:00 PM 19.7 67.46 0.126 7.88 2.82 9.54
7/3/2021 12:45:00 PM 19.89 67.802 0.126 7.94 2.86 9.75
7/3/2021 1:00:00 PM 19.81 67.658 0.126 7.86 2.59 9.7
7/3/2021 1:15:00 PM 19.97 67.946 0.126 7.98 2.81 9.79
7/3/2021 1:30:00 PM 19.98 67.964 0.126 8.03 2.92 9.76
7/3/2021 1:45:00 PM 19.92 67.856 0.125 8.01 3.1 9.82
7/3/2021 2:00:00 PM 19.96 67.92799 0.125 8.03 2.68 9.77
7/3/2021 2:15:00 PM 20.43 68.774 0.126 8.14 3.02 9.91
7/3/2021 2:30:00 PM 20.54 68.972 0.126 8.1 2.67 9.91
7/3/2021 2:45:00 PM 20.72 69.296 0.126 8.15 7.64 9.97
7/3/2021 3:00:00 PM 20.77 69.386 0.126 8.23 2.94 9.96
7/3/2021 3:15:00 PM 20.59 69.062 0.126 8.15 3.25 9.86
7/3/2021 3:30:00 PM 20.52 68.936 0.126 8.18 2.78 9.91
7/3/2021 3:45:00 PM 20.7 69.26 0.126 8.22 2.71 9.91
7/3/2021 4:00:00 PM 20.6 69.08 0.126 8.13 2.84 9.73
7/3/2021 4:15:00 PM 20.65 69.17 0.126 8.19 3.01 9.82
7/3/2021 4:30:00 PM 20.59 69.062 0.127 8.16 2.99 9.72
7/3/2021 4:45:00 PM 20.56 69.008 0.126 8.16 2.75 9.74
7/3/2021 5:00:00 PM 20.48 68.864 0.126 8.09 3.19 9.51
7/3/2021 5:15:00 PM 20.44 68.792 0.126 8.04 3.24 9.43
7/3/2021 5:30:00 PM 20.41 68.738 0.127 7.97 3.47 9.27
7/3/2021 5:45:00 PM 20.49 68.882 0.127 7.99 4.15 9.34
7/3/2021 6:00:00 PM 20.51 68.918 0.128 7.96 4.44 9.29
7/3/2021 6:15:00 PM 20.53 68.954 0.129 7.99 4.1 9.28
7/3/2021 6:30:00 PM 20.48 68.864 0.13 7.93 4.48 9.19
7/3/2021 6:45:00 PM 20.44 68.792 0.131 7.9 4.58 9.07
7/3/2021 7:00:00 PM 20.4 68.72 0.131 7.86 4.91 8.99
7/3/2021 7:15:00 PM 20.35 68.63 0.131 7.81 4.29 8.9
7/3/2021 7:30:00 PM 20.29 68.522 0.131 7.77 4.43 8.79
7/3/2021 7:45:00 PM 20.24 68.432 0.131 7.72 5 8.69
7/3/2021 8:00:00 PM 20.18 68.324 0.131 7.7 4.66 8.63
7/3/2021 8:15:00 PM 20.14 68.252 0.131 7.66 5.39 8.56
7/3/2021 8:30:00 PM 20.09 68.162 0.131 7.63 5.08 8.5
7/3/2021 8:45:00 PM 20.03 68.054 0.131 7.61 5.02 8.44
7/3/2021 9:00:00 PM 19.96 67.92799 0.131 7.59 4.45 8.4
7/3/2021 9:15:00 PM 19.91 67.838 0.131 7.57 5 8.35
7/3/2021 9:30:00 PM 19.86 67.748 0.131 7.55 5.85 8.32
7/3/2021 9:45:00 PM 19.8 67.64 0.131 7.53 5.34 8.29
7/3/2021 10:00:00 PM 19.72 67.496 0.131 7.51 5.35 8.27
7/3/2021 10:15:00 PM 19.65 67.37 0.13 7.5 4.75 8.27
7/3/2021 10:30:00 PM 19.58 67.244 0.13 7.49 6.41 8.26
7/3/2021 10:45:00 PM 19.51 67.118 0.13 7.48 5.79 8.24
7/3/2021 11:00:00 PM 19.45 67.01 0.13 7.48 6.61 8.25
7/3/2021 11:15:00 PM 19.41 66.938 0.129 7.45 6.07 8.24
7/3/2021 11:30:00 PM 19.36 66.848 0.129 7.46 5.43 8.25
7/3/2021 11:45:00 PM 19.31 66.758 0.129 7.45 7.06 8.22
7/4/2021 12:00:00 AM 19.27 66.686 0.129 7.45 5.71 8.24
7/4/2021 12:15:00 AM 19.22 66.596 0.128 7.45 6.56 8.24
7/4/2021 12:30:00 AM 19.17 66.506 0.128 7.45 6.52 8.23
7/4/2021 12:45:00 AM 19.12 66.416 0.128 7.44 6.29 8.25
7/4/2021 1:00:00 AM 19.07 66.326 0.127 7.44 6.74 8.23
7/4/2021 1:15:00 AM 19.02 66.236 0.127 7.39 6.36 8.25
7/4/2021 1:30:00 AM 18.97 66.146 0.127 7.44 6.63 8.25
7/4/2021 1:45:00 AM 18.92 66.056 0.127 7.43 6.86 8.24
7/4/2021 2:00:00 AM 18.87 65.966 0.127 7.42 6.28 8.24
7/4/2021 2:15:00 AM 18.82 65.876 0.126 7.39 8.19 8.25
7/4/2021 2:30:00 AM 18.78 65.804 0.126 7.42 7.04 8.26
7/4/2021 2:45:00 AM 18.73 65.714 0.126 7.42 6.67 8.26
7/4/2021 3:00:00 AM 18.69 65.642 0.126 7.4 7.99 8.28
7/4/2021 3:15:00 AM 18.64 65.552 0.126 7.41 6.91 8.28
7/4/2021 3:30:00 AM 18.59 65.462 0.126 7.41 8.52 8.29
7/4/2021 3:45:00 AM 18.55 65.39 0.126 7.42 6.87 8.29
7/4/2021 4:00:00 AM 18.5 65.3 0.125 7.42 7.13 8.28
7/4/2021 4:15:00 AM 18.45 65.21 0.125 7.41 6.95 8.3
7/4/2021 4:30:00 AM 18.41 65.138 0.125 7.41 7.35 8.32
7/4/2021 4:45:00 AM 18.37 65.066 0.125 7.41 6.47 8.31
7/4/2021 5:00:00 AM 18.32 64.976 0.125 7.4 6.41 8.3
7/4/2021 5:15:00 AM 18.27 64.886 0.125 7.4 7.22 8.33
7/4/2021 5:30:00 AM 18.22 64.796 0.125 7.4 6.73 8.33
7/4/2021 5:45:00 AM 18.17 64.706 0.125 7.4 6.46 8.35
7/4/2021 6:00:00 AM 18.12 64.616 0.125 7.4 6.94 8.36
7/4/2021 6:15:00 AM 18.07 64.526 0.125 7.39 6.22 8.38
7/4/2021 6:30:00 AM 18.03 64.454 0.125 7.4 6.02 8.44
7/4/2021 6:45:00 AM 18.01 64.418 0.125 7.42 5.64 8.51
7/4/2021 7:00:00 AM 18 64.4 0.126 7.38 5.69 8.56
7/4/2021 7:15:00 AM 17.99 64.382 0.126 7.44 5.99 8.62
7/4/2021 7:30:00 AM 17.98 64.364 0.126 7.46 5.72 8.68
7/4/2021 7:45:00 AM 17.98 64.364 0.126 7.47 5.15 8.77
7/4/2021 8:00:00 AM 17.99 64.382 0.126 7.49 5.08 8.88
7/4/2021 8:15:00 AM 18.03 64.454 0.126 7.51 4.78 8.98
7/4/2021 8:30:00 AM 18.04 64.472 0.126 7.51 4.83 9.07
7/4/2021 8:45:00 AM 18.06 64.508 0.126 7.56 4.76 9.14
7/4/2021 9:00:00 AM 18.09 64.562 0.126 7.59 4.3 9.22
7/4/2021 9:15:00 AM 18.17 64.706 0.126 7.63 4.47 9.34
7/4/2021 9:30:00 AM 18.24 64.832 0.126 7.64 4.08 9.42
7/4/2021 9:45:00 AM 18.4 65.12 0.125 7.69 3.91 9.5
7/4/2021 10:00:00 AM 18.53 65.354 0.126 7.73 3.99 9.58
7/4/2021 10:15:00 AM 18.75 65.75 0.126 7.77 4.36 9.67
7/4/2021 10:30:00 AM 18.9 66.02 0.125 7.82 4.2 9.77
7/4/2021 10:45:00 AM 19.1 66.38 0.125 7.86 3.22 9.82
7/4/2021 11:00:00 AM 19.29 66.722 0.125 7.9 4.07 9.87
7/4/2021 11:15:00 AM 19.47 67.046 0.125 7.94 4.05 9.92
7/4/2021 11:30:00 AM 19.71 67.478 0.125 7.99 3.56 9.98
7/4/2021 11:45:00 AM 19.88 67.784 0.125 8.02 3.31 10
7/4/2021 12:00:00 PM 20.12 68.216 0.125 8.07 3.32 10.07
7/4/2021 12:15:00 PM 20.3 68.54 0.125 8.09 3.71 10.08
7/4/2021 12:30:00 PM 20.43 68.774 0.125 8.1 2.79 10.1
7/4/2021 12:45:00 PM 20.49 68.882 0.125 8.13 3.11 10.03
7/4/2021 1:00:00 PM 20.83 69.494 0.125 8.12 3.15 10.15
7/4/2021 1:15:00 PM 20.89 69.602 0.125 8.19 3.06 10.02
7/4/2021 1:30:00 PM 21.21 70.17799 0.125 8.23 2.89 10.13
7/4/2021 1:45:00 PM 21.33 70.394 0.125 8.23 2.87 10.03
7/4/2021 2:00:00 PM 21.43 70.574 0.125 8.24 3.12 9.99
7/4/2021 2:15:00 PM 21.77 71.186 0.125 8.3 3.05 10.13
7/4/2021 2:30:00 PM 21.9 71.42 0.125 8.34 2.83 10.13
7/4/2021 2:45:00 PM 21.83 71.294 0.124 8.3 2.73 10.02
7/4/2021 3:00:00 PM 21.8 71.24 0.124 8.29 2.7 9.9
7/4/2021 3:15:00 PM 21.83 71.294 0.124 8.21 3.01 9.83
7/4/2021 3:30:00 PM 21.96 71.528 0.124 8.27 4.53 9.81
7/4/2021 3:45:00 PM 22.25 72.05 0.124 8.32 2.81 9.85
7/4/2021 4:00:00 PM 22.29 72.122 0.124 8.3 2.68 9.85
7/4/2021 4:15:00 PM 22.37 72.266 0.124 8.32 3 9.77
7/4/2021 4:30:00 PM 22.33 72.194 0.124 8.28 2.57 9.69
7/4/2021 4:45:00 PM 22.28 72.104 0.124 8.24 2.89 9.61
7/4/2021 5:00:00 PM 22.21 71.978 0.124 8.21 2.84 9.53
7/4/2021 5:15:00 PM 22.12 71.816 0.124 8.15 2.57 9.41
7/4/2021 5:30:00 PM 22.06 71.708 0.124 8.11 2.6 9.33
7/4/2021 5:45:00 PM 21.97 71.546 0.124 8.06 2.7 9.24
7/4/2021 6:00:00 PM 21.88 71.384 0.125 7.99 2.68 9.07
7/4/2021 6:15:00 PM 21.76 71.168 0.125 7.88 2.6 8.95
7/4/2021 6:30:00 PM 21.67 71.006 0.125 7.86 2.63 8.86
7/4/2021 6:45:00 PM 21.57 70.826 0.125 7.79 2.79 8.72
7/4/2021 7:00:00 PM 21.48 70.664 0.125 7.74 2.98 8.61
7/4/2021 7:15:00 PM 21.4 70.52 0.125 7.71 2.67 8.51
7/4/2021 7:30:00 PM 21.32 70.376 0.125 7.67 2.79 8.43
7/4/2021 7:45:00 PM 21.28 70.304 0.125 7.64 2.93 8.35
7/4/2021 8:00:00 PM 21.24 70.232 0.125 7.6 4.46 8.21
7/4/2021 8:15:00 PM 21.21 70.17799 0.125 7.59 2.74 8.18
7/4/2021 8:30:00 PM 21.18 70.124 0.125 7.54 3.33 8.16
7/4/2021 8:45:00 PM 21.15 70.07 0.125 7.55 2.87 8.06
7/4/2021 9:00:00 PM 21.12 70.016 0.125 7.53 3.08 8.02
7/4/2021 9:15:00 PM 21.09 69.962 0.125 7.51 3.01 7.95
7/4/2021 9:30:00 PM 21.07 69.926 0.125 7.49 3.14 7.91
7/4/2021 9:45:00 PM 21.04 69.872 0.125 7.48 3.5 7.88
7/4/2021 10:00:00 PM 21.01 69.818 0.125 7.47 3.52 7.83
7/4/2021 10:15:00 PM 20.96 69.728 0.125 7.44 3.19 7.81
7/4/2021 10:30:00 PM 20.93 69.674 0.125 7.44 3.62 7.79
7/4/2021 10:45:00 PM 20.88 69.584 0.125 7.43 3.83 7.81
7/4/2021 11:00:00 PM 20.84 69.512 0.125 7.42 3.95 7.78
7/4/2021 11:15:00 PM 20.8 69.44 0.125 7.4 3.84 7.73
7/4/2021 11:30:00 PM 20.74 69.332 0.126 7.39 3.44 7.76
7/4/2021 11:45:00 PM 20.69 69.242 0.126 7.38 3.79 7.75
7/5/2021 12:00:00 AM 20.64 69.152 0.126 7.37 5.13 7.73
7/5/2021 12:15:00 AM 20.58 69.044 0.126 7.37 4.16 7.7
7/5/2021 12:30:00 AM 20.53 68.954 0.126 7.36 4.22 7.73
7/5/2021 12:45:00 AM 20.47 68.846 0.126 7.35 4.08 7.73
7/5/2021 1:00:00 AM 20.39 68.702 0.126 7.34 3.97 7.73
7/5/2021 1:15:00 AM 20.34 68.612 0.126 7.34 4.34 7.73
7/5/2021 1:30:00 AM 20.27 68.486 0.126 7.34 4.01 7.76
7/5/2021 1:45:00 AM 20.21 68.378 0.126 7.34 3.68 7.75
7/5/2021 2:00:00 AM 20.14 68.252 0.126 7.34 4.34 7.76
7/5/2021 2:15:00 AM 20.08 68.144 0.126 7.33 4.14 7.76
7/5/2021 2:30:00 AM 20.01 68.018 0.127 7.33 4.23 7.77
7/5/2021 2:45:00 AM 19.93 67.874 0.127 7.32 4.48 7.76
7/5/2021 3:00:00 AM 19.87 67.766 0.127 7.32 4.22 7.79
7/5/2021 3:15:00 AM 19.8 67.64 0.127 7.33 4.51 7.78
7/5/2021 3:30:00 AM 19.72 67.496 0.127 7.33 4.08 7.82
7/5/2021 3:45:00 AM 19.65 67.37 0.127 7.32 3.9 7.84
7/5/2021 4:00:00 AM 19.56 67.208 0.127 7.31 4.41 7.83
7/5/2021 4:15:00 AM 19.5 67.1 0.127 7.27 4.86 7.86
7/5/2021 4:30:00 AM 19.43 66.974 0.127 7.32 4.4 7.87
7/5/2021 4:45:00 AM 19.35 66.83 0.127 7.32 4.53 7.93
7/5/2021 5:00:00 AM 19.28 66.704 0.127 7.31 4.39 7.84
7/5/2021 5:15:00 AM 19.22 66.596 0.127 7.32 4.88 7.92
7/5/2021 5:30:00 AM 19.15 66.47 0.127 7.32 4.81 7.94
7/5/2021 5:45:00 AM 19.08 66.344 0.127 7.31 4.97 7.97
7/5/2021 6:00:00 AM 19.02 66.236 0.127 7.32 4.48 7.97
7/5/2021 6:15:00 AM 18.95 66.11 0.127 7.32 4.19 8.07
7/5/2021 6:30:00 AM 18.9 66.02 0.127 7.33 3.32 8.1
7/5/2021 6:45:00 AM 18.85 65.93 0.127 7.34 4.09 8.16
7/5/2021 7:00:00 AM 18.82 65.876 0.127 7.35 3.25 8.27
7/5/2021 7:15:00 AM 18.81 65.858 0.127 7.36 3.59 8.33
7/5/2021 7:30:00 AM 18.81 65.858 0.127 7.37 4.18 8.43
7/5/2021 7:45:00 AM 18.83 65.894 0.127 7.4 3.2 8.55
7/5/2021 8:00:00 AM 18.86 65.948 0.127 7.42 3.45 8.7
7/5/2021 8:15:00 AM 18.89 66.002 0.127 7.43 3.12 8.71
7/5/2021 8:30:00 AM 18.96 66.128 0.127 7.47 3.64 8.87
7/5/2021 8:45:00 AM 19.02 66.236 0.127 7.5 3.07 8.92
7/5/2021 9:00:00 AM 19.1 66.38 0.127 7.51 3.91 9.04
7/5/2021 9:15:00 AM 19.2 66.56 0.127 7.57 3.17 9.19
7/5/2021 9:30:00 AM 19.29 66.722 0.127 7.56 2.83 9.25
7/5/2021 9:45:00 AM 19.41 66.938 0.127 7.65 2.97 9.37
7/5/2021 10:00:00 AM 19.54 67.172 0.127 7.69 3.06 9.47
7/5/2021 10:15:00 AM 19.69 67.442 0.127 7.71 2.76 9.53
7/5/2021 10:30:00 AM 19.83 67.694 0.127 7.76 2.57 9.64
7/5/2021 10:45:00 AM 20.04 68.07201 0.127 7.78 2.82 9.76
7/5/2021 11:00:00 AM 20.23 68.414 0.127 7.88 2.48 9.9
7/5/2021 11:15:00 AM 20.45 68.81 0.127 7.94 2.2 10.03
7/5/2021 11:30:00 AM 20.64 69.152 0.127 8.01 2.65 10.08
7/5/2021 11:45:00 AM 20.89 69.602 0.127 8.08 2.26 10.14
7/5/2021 12:00:00 PM 21.11 69.998 0.127 8.13 2.33 10.24
7/5/2021 12:15:00 PM 21.34 70.412 0.126 8.16 2.42 10.27
7/5/2021 12:30:00 PM 21.62 70.916 0.126 8.26 2.36 10.33
7/5/2021 12:45:00 PM 21.83 71.294 0.126 8.34 3.05 10.43
7/5/2021 1:00:00 PM 22.12 71.816 0.126 8.39 2.13 10.47
7/5/2021 1:15:00 PM 22.37 72.266 0.126 8.43 2.43 10.44
7/5/2021 1:30:00 PM 22.61 72.698 0.126 8.47 2.16 10.5
7/5/2021 1:45:00 PM 22.84 73.112 0.126 8.51 2.22 10.51
7/5/2021 2:00:00 PM 22.9 73.22 0.126 8.53 2.3 10.49
7/5/2021 2:15:00 PM 23.12 73.616 0.126 8.57 2.07 10.54
7/5/2021 2:30:00 PM 23.26 73.868 0.126 8.6 2.13 10.56
7/5/2021 2:45:00 PM 23.44 74.192 0.126 8.61 2.07 10.49
7/5/2021 3:00:00 PM 23.61 74.498 0.126 8.64 2.05 10.53
7/5/2021 3:15:00 PM 23.76 74.768 0.126 8.66 1.97 10.49
7/5/2021 3:30:00 PM 23.91 75.038 0.126 8.67 2.41 10.42
7/5/2021 3:45:00 PM 24.01 75.218 0.126 8.67 2.18 10.38
7/5/2021 4:00:00 PM 24.07 75.326 0.126 8.68 2.27 10.33
7/5/2021 4:15:00 PM 24.04 75.272 0.126 8.66 2.16 10.25
7/5/2021 4:30:00 PM 24 75.2 0.126 8.62 2.12 10.08
7/5/2021 4:45:00 PM 23.94 75.092 0.126 8.59 2.14 9.96
7/5/2021 5:00:00 PM 23.87 74.966 0.126 8.56 2.4 9.86
7/5/2021 5:15:00 PM 23.78 74.804 0.127 8.51 2.08 9.71
7/5/2021 5:30:00 PM 23.69 74.642 0.127 8.43 2.31 9.53
7/5/2021 5:45:00 PM 23.58 74.444 0.127 8.39 2.28 9.44
7/5/2021 6:00:00 PM 23.5 74.3 0.127 8.33 2.13 9.3
7/5/2021 6:15:00 PM 23.38 74.084 0.127 8.24 2.22 9.14
7/5/2021 6:30:00 PM 23.29 73.922 0.127 8.19 2.2 9.03
7/5/2021 6:45:00 PM 23.19 73.742 0.127 8.09 2.64 8.89
7/5/2021 7:00:00 PM 23.1 73.58 0.127 7.98 1.9 8.78
7/5/2021 7:15:00 PM 23.01 73.418 0.127 7.94 2.09 8.63
7/5/2021 7:30:00 PM 22.93 73.274 0.127 7.88 1.85 8.52
7/5/2021 7:45:00 PM 22.85 73.13 0.127 7.81 2.11 8.4
7/5/2021 8:00:00 PM 22.79 73.022 0.128 7.76 2.03 8.26
7/5/2021 8:15:00 PM 22.74 72.932 0.128 7.7 2.22 8.15
7/5/2021 8:30:00 PM 22.67 72.806 0.128 7.66 2.17 8.03
7/5/2021 8:45:00 PM 22.62 72.716 0.128 7.59 2.31 7.91
7/5/2021 9:00:00 PM 22.57 72.626 0.128 7.56 2.51 7.8
7/5/2021 9:15:00 PM 22.52 72.536 0.128 7.49 2.32 7.69
7/5/2021 9:30:00 PM 22.48 72.464 0.128 7.5 2.87 7.63
7/5/2021 9:45:00 PM 22.44 72.392 0.128 7.48 2.86 7.59
7/5/2021 10:00:00 PM 22.4 72.32 0.128 7.46 3.54 7.53
7/5/2021 10:15:00 PM 22.38 72.284 0.128 7.45 3.26 7.48
7/5/2021 10:30:00 PM 22.34 72.212 0.128 7.43 2.86 7.43
7/5/2021 10:45:00 PM 22.31 72.158 0.128 7.41 3.96 7.39
7/5/2021 11:00:00 PM 22.29 72.122 0.128 7.4 3.64 7.38
7/5/2021 11:15:00 PM 22.25 72.05 0.128 7.4 3.2 7.36
7/5/2021 11:30:00 PM 22.21 71.978 0.128 7.36 3.6 7.34
7/5/2021 11:45:00 PM 22.18 71.924 0.128 7.36 2.87 7.31
7/6/2021 12:00:00 AM 22.14 71.852 0.128 7.36 2.8 7.24
7/6/2021 12:15:00 AM 22.11 71.798 0.128 7.36 3.11 7.31
7/6/2021 12:30:00 AM 22.06 71.708 0.128 7.28 3.89 7.29
7/6/2021 12:45:00 AM 22.02 71.636 0.128 7.32 3.05 7.31
7/6/2021 1:00:00 AM 21.98 71.564 0.128 7.31 2.64 7.27
7/6/2021 1:15:00 AM 21.94 71.492 0.128 7.32 3.59 7.27
7/6/2021 1:30:00 AM 21.91 71.438 0.128 7.29 3.61 7.3
7/6/2021 1:45:00 AM 21.88 71.384 0.128 7.32 3.29 7.3
7/6/2021 2:00:00 AM 21.83 71.294 0.128 7.33 3.39 7.29
7/6/2021 2:15:00 AM 21.78 71.204 0.128 7.32 2.95 7.29
7/6/2021 2:30:00 AM 21.73 71.114 0.128 7.31 3.4 7.29
7/6/2021 2:45:00 AM 21.69 71.042 0.128 7.26 3.27 7.29
7/6/2021 3:00:00 AM 21.64 70.952 0.128 7.3 3.35 7.28
7/6/2021 3:15:00 AM 21.57 70.826 0.128 7.29 4.66 7.3
7/6/2021 3:30:00 AM 21.52 70.736 0.128 7.29 3.88 7.32
7/6/2021 3:45:00 AM 21.47 70.646 0.128 7.28 4.34 7.3
7/6/2021 4:00:00 AM 21.41 70.538 0.129 7.27 2.87 7.3
7/6/2021 4:15:00 AM 21.37 70.466 0.129 7.27 3.77 7.28
7/6/2021 4:30:00 AM 21.32 70.376 0.129 7.26 4.36 7.29
7/6/2021 4:45:00 AM 21.27 70.286 0.129 7.26 3.79 7.34
7/6/2021 5:00:00 AM 21.22 70.196 0.129 7.26 3.52 7.32
7/6/2021 5:15:00 AM 21.16 70.088 0.129 7.26 427.89 7.31
7/6/2021 5:30:00 AM 21.1 69.98 0.129 7.25 13.71 7.27
7/6/2021 5:45:00 AM 21.04 69.872 0.129 7.25 10.3 7.31
7/6/2021 6:00:00 AM 20.99 69.782 0.129 7.26 4.01 7.39
7/6/2021 6:15:00 AM 20.95 69.71 0.129 7.25 3.79 7.47
7/6/2021 6:30:00 AM 20.9 69.62 0.129 7.26 3.5 7.46
7/6/2021 6:45:00 AM 20.86 69.548 0.129 7.28 3.57 7.58
7/6/2021 7:00:00 AM 20.83 69.494 0.129 7.29 3.29 7.58
7/6/2021 7:15:00 AM 20.82 69.476 0.128 7.29 3.13 7.78
7/6/2021 7:30:00 AM 20.82 69.476 0.128 7.32 2.85 7.87
7/6/2021 7:45:00 AM 20.83 69.494 0.128 7.34 3.57 7.95
7/6/2021 8:00:00 AM 20.84 69.512 0.128 7.36 2.89 8.09
7/6/2021 8:15:00 AM 20.86 69.548 0.128 7.38 3.2 8.17
7/6/2021 8:30:00 AM 20.92 69.656 0.128 7.39 3.21 8.31
7/6/2021 8:45:00 AM 21.01 69.818 0.128 7.45 2.97 8.56
7/6/2021 9:00:00 AM 21.11 69.998 0.128 7.49 2.66 8.65
7/6/2021 9:15:00 AM 21.2 70.16 0.128 7.52 4.93 8.77
7/6/2021 9:30:00 AM 21.34 70.412 0.128 7.54 2.66 8.88
7/6/2021 9:45:00 AM 21.47 70.646 0.127 7.59 3.01 8.96
7/6/2021 10:00:00 AM 21.62 70.916 0.127 7.61 2.34 9.05
7/6/2021 10:15:00 AM 21.78 71.204 0.127 7.7 2.53 9.24
7/6/2021 10:30:00 AM 21.93 71.474 0.127 7.77 2.59 9.37
7/6/2021 10:45:00 AM 22.16 71.888 0.127 7.78 2.41 9.47
7/6/2021 11:00:00 AM 22.42 72.356 0.127 7.92 2.51 9.67
7/6/2021 11:15:00 AM 22.6 72.68 0.127 7.97 2.02 9.65
7/6/2021 11:30:00 AM 22.76 72.968 0.127 8.02 2.2 9.76
7/6/2021 11:45:00 AM 22.9 73.22 0.127 8.06 2.31 9.82
7/6/2021 12:00:00 PM 23.14 73.652 0.127 8.13 2.05 9.9
7/6/2021 12:15:00 PM 23.35 74.03 0.127 8.23 2.3 10.04
7/6/2021 12:30:00 PM 23.5 74.3 0.127 8.21 2.07 10.01
7/6/2021 12:45:00 PM 23.72 74.696 0.127 8.37 2.09 10.17
7/6/2021 1:00:00 PM 24 75.2 0.127 8.39 2.11 10.19
7/6/2021 1:15:00 PM 24.31 75.758 0.127 8.51 1.97 10.34
7/6/2021 1:30:00 PM 24.52 76.136 0.127 8.54 2.49 10.33
7/6/2021 1:45:00 PM 24.74 76.532 0.127 8.58 2.46 10.33
7/6/2021 2:00:00 PM 24.82 76.676 0.127 8.56 2.18 10.22
7/6/2021 2:15:00 PM 25.16 77.288 0.127 8.64 2.91 10.36
7/6/2021 2:30:00 PM 25.4 77.72 0.127 8.68 1.88 10.39
7/6/2021 2:45:00 PM 25.59 78.062 0.127 8.7 2.08 10.35
7/6/2021 3:00:00 PM 25.64 78.152 0.127 8.69 2.05 10.31
7/6/2021 3:15:00 PM 25.78 78.404 0.127 8.72 2.17 10.31
7/6/2021 3:30:00 PM 25.84 78.512 0.127 8.73 2.09 10.22
7/6/2021 3:45:00 PM 25.83 78.494 0.127 8.68 9.7 10.15
7/6/2021 4:00:00 PM 25.8 78.44 0.127 8.68 4.22 10.08
7/6/2021 4:15:00 PM 25.74 78.332 0.127 8.66 3.98 9.97
7/6/2021 4:30:00 PM 25.62 78.116 0.127 8.64 2.19 9.79
7/6/2021 4:45:00 PM 25.51 77.918 0.127 8.56 4.87 9.64
7/6/2021 5:00:00 PM 25.55 77.99 0.128 8.52 8.46 9.5
7/6/2021 5:15:00 PM 25.52 77.936 0.114 8.44 3.66 9.47
7/6/2021 5:30:00 PM 25.49 77.882 0.091 8.45 1.93 9.17
7/6/2021 5:45:00 PM 25.4 77.72 0.076 8.43 1.62 9.28
7/6/2021 6:00:00 PM 25.3 77.54 0.128 8.43 4.02 9.15
7/6/2021 6:15:00 PM 25.15 77.27 0.128 8.32 2.5 8.85
7/6/2021 6:30:00 PM 25.04 77.07201 0.128 8.22 2.07 8.73
7/6/2021 6:45:00 PM 24.95 76.91 0.128 8.16 1.81 8.63
7/6/2021 7:00:00 PM 24.85 76.73 0.129 8.06 2.2 8.45
7/6/2021 7:15:00 PM 24.78 76.604 0.129 7.98 2.08 8.31
7/6/2021 7:30:00 PM 24.7 76.46 0.129 7.92 2 8.27
7/6/2021 7:45:00 PM 24.61 76.298 0.129 7.84 1.9 8.11
7/6/2021 8:00:00 PM 24.53 76.154 0.129 7.77 1.93 7.93
7/6/2021 8:15:00 PM 24.43 75.974 0.129 7.67 2.22 7.83
7/6/2021 8:30:00 PM 24.35 75.83 0.13 7.65 2.18 7.67
7/6/2021 8:45:00 PM 24.26 75.668 0.13 7.61 1.99 7.53
7/6/2021 9:00:00 PM 24.19 75.542 0.13 7.57 2.35 7.43
7/6/2021 9:15:00 PM 24.11 75.398 0.13 7.49 2.86 7.34
7/6/2021 9:30:00 PM 24.06 75.308 0.13 7.46 2.51 7.27
7/6/2021 9:45:00 PM 24 75.2 0.13 7.47 2.21 7.2
7/6/2021 10:00:00 PM 23.94 75.092 0.13 7.45 2.71 7.15
7/6/2021 10:15:00 PM 23.89 75.002 0.13 7.44 3.05 7.11
7/6/2021 10:30:00 PM 23.85 74.93 0.13 7.39 2.6 6.95
7/6/2021 10:45:00 PM 23.81 74.858 0.13 7.4 2.83 7.01
7/6/2021 11:00:00 PM 23.75 74.75 0.13 7.39 2.85 7
7/6/2021 11:15:00 PM 23.7 74.66 0.13 7.36 2.53 6.95
7/6/2021 11:30:00 PM 23.67 74.606 0.13 7.36 3.83 6.95
7/6/2021 11:45:00 PM 23.62 74.516 0.13 7.36 3.33 6.93
7/7/2021 12:00:00 AM 23.57 74.426 0.13 7.34 2.8 6.9
7/7/2021 12:15:00 AM 23.52 74.336 0.13 7.34 2.91 6.87
7/7/2021 12:30:00 AM 23.47 74.246 0.13 7.3 2.45 6.83
7/7/2021 12:45:00 AM 23.42 74.156 0.13 7.28 3.1 6.87
7/7/2021 1:00:00 AM 23.38 74.084 0.13 7.31 2.69 6.9
7/7/2021 1:15:00 AM 23.33 73.994 0.13 7.31 3.6 6.87
7/7/2021 1:30:00 AM 23.28 73.904 0.13 7.27 2.88 6.87
7/7/2021 1:45:00 AM 23.22 73.796 0.13 7.3 2.6 6.87
7/7/2021 2:00:00 AM 23.17 73.706 0.13 7.31 2.9 6.88
7/7/2021 2:15:00 AM 23.11 73.598 0.13 7.3 3.67 6.83
7/7/2021 2:30:00 AM 23.06 73.508 0.13 7.3 3.49 6.89
7/7/2021 2:45:00 AM 23 73.4 0.13 7.3 3.29 6.88
7/7/2021 3:00:00 AM 22.96 73.328 0.13 7.25 3.62 6.82
7/7/2021 3:15:00 AM 22.9 73.22 0.13 7.29 2.8 6.91
7/7/2021 3:30:00 AM 22.83 73.094 0.13 7.29 3.19 6.89
7/7/2021 3:45:00 AM 22.78 73.004 0.13 7.28 3.89 6.88
7/7/2021 4:00:00 AM 22.71 72.878 0.13 7.27 3.13 6.87
7/7/2021 4:15:00 AM 22.67 72.806 0.13 7.27 3.65 6.95
7/7/2021 4:30:00 AM 22.6 72.68 0.13 7.27 3.54 6.91
7/7/2021 4:45:00 AM 22.54 72.57201 0.13 7.27 3.11 6.9
7/7/2021 5:00:00 AM 22.48 72.464 0.13 7.27 3.88 6.96
7/7/2021 5:15:00 AM 22.42 72.356 0.131 7.21 3.86 6.94
7/7/2021 5:30:00 AM 22.36 72.248 0.131 7.26 3.11 6.92
7/7/2021 5:45:00 AM 22.3 72.14 0.131 7.26 4.21 7.04
7/7/2021 6:00:00 AM 22.26 72.068 0.131 7.25 3.29 6.91
7/7/2021 6:15:00 AM 22.21 71.978 0.131 7.24 3.35 7.01
7/7/2021 6:30:00 AM 22.17 71.906 0.131 7.28 3.85 7.06
7/7/2021 6:45:00 AM 22.15 71.87 0.131 7.3 3.51 7.21
7/7/2021 7:00:00 AM 22.11 71.798 0.131 7.29 3.63 7.28
7/7/2021 7:15:00 AM 22.09 71.762 0.131 7.32 3.27 7.42
7/7/2021 7:30:00 AM 22.08 71.744 0.13 7.29 3 7.45
7/7/2021 7:45:00 AM 22.06 71.708 0.13 7.35 3.13 7.53
7/7/2021 8:00:00 AM 22.08 71.744 0.13 7.38 2.78 7.58
7/7/2021 8:15:00 AM 22.12 71.816 0.13 7.37 2.84 7.9
7/7/2021 8:30:00 AM 22.18 71.924 0.13 7.44 3.03 8.03
7/7/2021 8:45:00 AM 22.24 72.032 0.13 7.4 2.8 8.12
7/7/2021 9:00:00 AM 22.33 72.194 0.13 7.48 2.61 8.29
7/7/2021 9:15:00 AM 22.41 72.338 0.13 7.51 2.56 8.4
7/7/2021 9:30:00 AM 22.54 72.57201 0.13 7.57 2.63 8.64
7/7/2021 9:45:00 AM 22.66 72.788 0.13 7.61 2.3 8.79
7/7/2021 10:00:00 AM 22.76 72.968 0.129 7.66 2.5 8.79
7/7/2021 10:15:00 AM 22.91 73.238 0.129 7.67 2.49 8.98
7/7/2021 10:30:00 AM 23.09 73.562 0.129 7.75 2.48 9.08
7/7/2021 10:45:00 AM 23.29 73.922 0.129 7.83 2.55 9.3
7/7/2021 11:00:00 AM 23.52 74.336 0.129 7.9 2.06 9.38
7/7/2021 11:15:00 AM 23.7 74.66 0.129 7.99 2.4 9.53
7/7/2021 11:30:00 AM 23.81 74.858 0.129 8.03 2.57 9.64
7/7/2021 11:45:00 AM 24.06 75.308 0.129 8.12 2.1 9.71
7/7/2021 12:00:00 PM 24.19 75.542 0.129 8.19 2.09 9.76
7/7/2021 12:15:00 PM 24.33 75.794 0.128 8.24 2.29 9.87
7/7/2021 12:30:00 PM 24.37 75.866 0.128 8.25 5.39 9.86
7/7/2021 12:45:00 PM 24.44 75.992 0.128 8.3 2.1 9.85
7/7/2021 1:00:00 PM 24.66 76.388 0.128 8.32 4.41 9.83
7/7/2021 1:15:00 PM 24.7 76.46 0.128 8.4 2.48 9.92
7/7/2021 1:30:00 PM 25.07 77.126 0.127 8.4 2.12 10.04
7/7/2021 1:45:00 PM 25.29 77.522 0.127 8.53 2.01 10.09
7/7/2021 2:00:00 PM 25.55 77.99 0.127 8.58 2.22 10.09
7/7/2021 2:15:00 PM 25.83 78.494 0.127 8.63 2.17 10.15
7/7/2021 2:30:00 PM 26.01 78.818 0.127 8.65 1.97 10.14
7/7/2021 2:45:00 PM 26.17 79.106 0.127 8.65 1.91 10.08
7/7/2021 3:00:00 PM 26.06 78.908 0.127 8.62 1.89 9.94
7/7/2021 3:15:00 PM 26.3 79.34 0.127 8.64 3.97 10.1
7/7/2021 3:30:00 PM 26.2 79.16 0.127 8.66 2.12 9.88
7/7/2021 3:45:00 PM 26.29 79.32201 0.127 8.64 4.35 9.94
7/7/2021 4:00:00 PM 26.35 79.43 0.127 8.64 4.1 9.88
7/7/2021 4:15:00 PM 26.28 79.304 0.127 8.61 3.9 9.7
7/7/2021 4:30:00 PM 26.2 79.16 0.127 8.61 1.99 9.63
7/7/2021 4:45:00 PM 26.24 79.232 0.127 8.58 4.17 9.58
7/7/2021 5:00:00 PM 26.14 79.052 0.128 8.54 2.28 9.32
7/7/2021 5:15:00 PM 26.02 78.836 0.127 8.49 1.95 9.27
7/7/2021 5:30:00 PM 25.95 78.71 0.128 8.4 1.79 9.1
7/7/2021 5:45:00 PM 25.82 78.476 0.128 8.38 1.89 8.98
7/7/2021 6:00:00 PM 25.71 78.278 0.128 8.25 2.13 8.8
7/7/2021 6:15:00 PM 25.68 78.224 0.128 8.22 1.98 8.7
7/7/2021 6:30:00 PM 25.63 78.134 0.128 8.18 2.31 8.65
7/7/2021 6:45:00 PM 25.53 77.954 0.128 8.12 2.16 8.41
7/7/2021 7:00:00 PM 25.44 77.792 0.128 8.03 1.8 8.32
7/7/2021 7:15:00 PM 25.34 77.612 0.129 7.95 1.99 8.16
7/7/2021 7:30:00 PM 25.27 77.486 0.129 7.85 1.94 7.98
7/7/2021 7:45:00 PM 25.18 77.324 0.129 7.79 2.14 7.84
7/7/2021 8:00:00 PM 25.11 77.198 0.129 7.74 2.18 7.7
7/7/2021 8:15:00 PM 25.06 77.108 0.129 7.66 2 7.48
7/7/2021 8:30:00 PM 24.98 76.964 0.129 7.62 1.96 7.41
7/7/2021 8:45:00 PM 24.3 75.74 0.105 7.43 13.94 7.7
7/7/2021 9:00:00 PM 24.33 75.794 0.119 7.44 6.61 7.4
7/7/2021 9:15:00 PM 24.4 75.92 0.124 7.48 3.89 7.27
7/7/2021 9:30:00 PM 24.27 75.686 0.121 7.45 4.61 7.23
7/7/2021 9:45:00 PM 24.29 75.722 0.123 7.43 5.96 7.11
7/7/2021 10:00:00 PM 24.3 75.74 0.124 7.42 5.61 7.04
7/7/2021 10:15:00 PM 24.21 75.578 0.124 7.39 5.8 7.01
7/7/2021 10:30:00 PM 24.1 75.38 0.123 7.35 5.9 6.96
7/7/2021 10:45:00 PM 24.02 75.236 0.123 7.36 6.8 6.93
7/7/2021 11:00:00 PM 23.97 75.146 0.124 7.36 7.52 6.92
7/7/2021 11:15:00 PM 23.92 75.056 0.125 7.34 8.22 6.82
7/7/2021 11:30:00 PM 23.84 74.912 0.128 7.33 9.78 6.78
7/7/2021 11:45:00 PM 23.71 74.67799 0.126 7.32 9.64 6.83
7/8/2021 12:00:00 AM 23.66 74.588 0.129 7.29 10.62 6.81
7/8/2021 12:15:00 AM 23.59 74.462 0.129 7.32 9.93 6.83
7/8/2021 12:30:00 AM 23.52 74.336 0.129 7.31 10.61 6.75
7/8/2021 12:45:00 AM 23.45 74.21 0.13 7.31 12.27 6.81
7/8/2021 1:00:00 AM 23.37 74.066 0.131 7.27 11.42 6.83
7/8/2021 1:15:00 AM 23.29 73.922 0.131 7.31 11.34 6.84
7/8/2021 1:30:00 AM 23.22 73.796 0.132 7.31 12.56 6.82
7/8/2021 1:45:00 AM 23.15 73.67 0.132 7.3 11.76 6.85
7/8/2021 2:00:00 AM 23.09 73.562 0.133 7.3 13.21 6.84
7/8/2021 2:15:00 AM 23.02 73.436 0.133 7.29 13.48 6.87
7/8/2021 2:30:00 AM 22.97 73.346 0.133 7.31 13.64 6.89
7/8/2021 2:45:00 AM 22.91 73.238 0.133 7.31 11.46 6.86
7/8/2021 3:00:00 AM 22.85 73.13 0.133 7.3 11.72 6.9
7/8/2021 3:15:00 AM 22.79 73.022 0.133 7.31 10.17 6.92
7/8/2021 3:30:00 AM 22.74 72.932 0.133 7.31 9.54 6.93
7/8/2021 3:45:00 AM 22.69 72.842 0.133 7.3 9.76 6.79
7/8/2021 4:00:00 AM 22.63 72.734 0.133 7.3 8.15 6.91
7/8/2021 4:15:00 AM 22.58 72.644 0.133 7.3 7.71 6.96
7/8/2021 4:30:00 AM 22.51 72.518 0.132 7.29 8.58 6.94
7/8/2021 4:45:00 AM 22.45 72.41 0.133 7.29 38.17 7.02
7/8/2021 5:00:00 AM 22.38 72.284 0.133 7.29 8.14 6.98
7/8/2021 5:15:00 AM 22.32 72.176 0.133 7.29 8.32 6.96
7/8/2021 5:30:00 AM 22.27 72.086 0.133 7.3 7.94 7.11
7/8/2021 5:45:00 AM 22.22 71.996 0.133 7.29 8.18 7.06
7/8/2021 6:00:00 AM 22.16 71.888 0.132 7.26 8.73 7.13
7/8/2021 6:15:00 AM 22.11 71.798 0.132 7.32 7.12 7.22
7/8/2021 6:30:00 AM 22.07 71.726 0.132 7.33 6.8 7.26
7/8/2021 6:45:00 AM 22.03 71.654 0.131 7.34 7.52 7.32
7/8/2021 7:00:00 AM 22 71.6 0.131 7.35 6.55 7.4
7/8/2021 7:15:00 AM 21.98 71.564 0.131 7.36 6.4 7.48
7/8/2021 7:30:00 AM 21.96 71.528 0.131 7.37 7.33 7.51
7/8/2021 7:45:00 AM 21.92 71.456 0.131 7.38 6.11 7.54
7/8/2021 8:00:00 AM 21.88 71.384 0.131 7.38 6.14 7.57
7/8/2021 8:15:00 AM 21.87 71.366 0.132 7.39 6.14 7.65
7/8/2021 8:30:00 AM 21.85 71.33 0.132 7.41 6.99 7.68
7/8/2021 8:45:00 AM 21.84 71.312 0.133 7.39 6.23 7.81
7/8/2021 9:00:00 AM 21.83 71.294 0.133 7.45 5.91 7.92
7/8/2021 9:15:00 AM 21.84 71.312 0.134 7.47 6.26 8.04
7/8/2021 9:30:00 AM 21.86 71.348 0.134 7.5 6.25 8.14
7/8/2021 9:45:00 AM 21.87 71.366 0.134 7.53 6.14 8.24
7/8/2021 10:00:00 AM 21.86 71.348 0.133 7.54 5.99 8.27
7/8/2021 10:15:00 AM 21.86 71.348 0.133 7.55 5.75 8.32
7/8/2021 10:30:00 AM 21.87 71.366 0.133 7.58 5.13 8.44
7/8/2021 10:45:00 AM 21.87 71.366 0.132 7.59 7.16 8.46
7/8/2021 11:00:00 AM 21.89 71.402 0.132 7.6 5.66 8.51
7/8/2021 11:15:00 AM 21.93 71.474 0.131 7.64 4.54 8.63
7/8/2021 11:30:00 AM 21.98 71.564 0.131 7.67 5.5 8.73
7/8/2021 11:45:00 AM 21.98 71.564 0.131 7.68 4.65 8.73
7/8/2021 12:00:00 PM 22.01 71.618 0.13 7.71 4.54 8.8
7/8/2021 12:15:00 PM 22.05 71.69 0.13 7.74 4.76 8.89
7/8/2021 12:30:00 PM 22.08 71.744 0.13 7.76 4.34 8.91
7/8/2021 12:45:00 PM 22.11 71.798 0.13 7.78 4.42 8.91
7/8/2021 1:00:00 PM 22.15 71.87 0.13 7.81 4.34 9.01
7/8/2021 1:15:00 PM 22.2 71.96 0.13 7.83 4.3 9.08
7/8/2021 1:30:00 PM 22.3 72.14 0.129 7.9 4.21 9.23
7/8/2021 1:45:00 PM 22.32 72.176 0.129 7.87 4.38 9.17
7/8/2021 2:00:00 PM 22.33 72.194 0.129 7.9 4.55 9.21
7/8/2021 2:15:00 PM 22.35 72.23 0.129 7.96 4.14 9.24
7/8/2021 2:30:00 PM 22.38 72.284 0.129 7.97 4 9.26
7/8/2021 2:45:00 PM 22.42 72.356 0.129 8.01 3.91 9.31
7/8/2021 3:00:00 PM 22.43 72.374 0.129 7.98 4.01 9.22
7/8/2021 3:15:00 PM 22.4 72.32 0.129 7.95 4.09 9.13
7/8/2021 3:30:00 PM 22.4 72.32 0.129 7.96 3.48 9.11
7/8/2021 3:45:00 PM 22.41 72.338 0.129 7.93 3.67 9.02
7/8/2021 4:00:00 PM 22.43 72.374 0.129 7.95 4.08 9.07
7/8/2021 4:15:00 PM 22.44 72.392 0.128 7.9 3.36 9
7/8/2021 4:30:00 PM 22.41 72.338 0.128 7.9 3.74 8.9
7/8/2021 4:45:00 PM 22.38 72.284 0.128 7.85 3.47 8.76
7/8/2021 5:00:00 PM 22.35 72.23 0.128 7.81 3.17 8.64
7/8/2021 5:15:00 PM 22.35 72.23 0.128 7.79 3.67 8.65
7/8/2021 5:30:00 PM 22.33 72.194 0.128 7.7 3.35 8.49
7/8/2021 5:45:00 PM 22.31 72.158 0.128 7.72 3.44 8.45
7/8/2021 6:00:00 PM 22.29 72.122 0.128 7.67 2.99 8.32
7/8/2021 6:15:00 PM 22.27 72.086 0.128 7.64 3.29 8.21
7/8/2021 6:30:00 PM 22.25 72.05 0.128 7.62 2.77 8.15
7/8/2021 6:45:00 PM 22.24 72.032 0.122 7.54 4.68 8.05
7/8/2021 7:00:00 PM 22.13 71.834 0.107 7.49 20.61 8.15
7/8/2021 7:15:00 PM 22.04 71.672 0.114 7.48 7.95 8.07
7/8/2021 7:30:00 PM 21.9 71.42 0.117 7.42 14.2 7.98
7/8/2021 7:45:00 PM 21.83 71.294 0.117 7.43 19.03 7.95
7/8/2021 8:00:00 PM 21.81 71.258 0.119 7.44 21.16 7.92
7/8/2021 8:15:00 PM 21.83 71.294 0.12 7.45 21.84 7.89
7/8/2021 8:30:00 PM 21.88 71.384 0.126 7.44 34.99 7.79
7/8/2021 8:45:00 PM 21.82 71.276 0.127 7.39 59.09 7.68
7/8/2021 9:00:00 PM 21.69 71.042 0.13 7.39 115.16 7.65
7/8/2021 9:15:00 PM 21.45 70.61 0.131 7.38 122.05 7.78
7/8/2021 9:30:00 PM 21.32 70.376 0.131 7.4 111.1 7.86
7/8/2021 9:45:00 PM 21.27 70.286 0.131 7.4 97.03 7.88
7/8/2021 10:00:00 PM 21.24 70.232 0.134 7.41 127.33 7.88
7/8/2021 10:15:00 PM 21.21 70.17799 0.136 7.36 95.41 7.87
7/8/2021 10:30:00 PM 21.14 70.052 0.137 7.39 77.3 7.88
7/8/2021 10:45:00 PM 21.05 69.89 0.135 7.38 67.95 7.92
7/8/2021 11:00:00 PM 20.96 69.728 0.133 7.38 88.02 7.95
7/8/2021 11:15:00 PM 20.89 69.602 0.132 7.36 77.1 7.98
7/8/2021 11:30:00 PM 20.85 69.53 0.131 7.39 92.84 8
7/8/2021 11:45:00 PM 20.83 69.494 0.13 7.4 92.51 8
7/9/2021 12:00:00 AM 20.8 69.44 0.13 7.39 88.48 8.02
7/9/2021 12:15:00 AM 20.76 69.368 0.129 7.44 102.25 8.03
7/9/2021 12:30:00 AM 20.71 69.278 0.127 7.43 105.24 8.05
7/9/2021 12:45:00 AM 20.65 69.17 0.124 7.41 104.75 8.08
7/9/2021 1:00:00 AM 20.6 69.08 0.122 7.39 101.84 8.1
7/9/2021 1:15:00 AM 20.53 68.954 0.12 7.38 84.5 8.12
7/9/2021 1:30:00 AM 20.46 68.828 0.118 7.37 92.45 8.15
7/9/2021 1:45:00 AM 20.41 68.738 0.116 7.36 71.75 8.16
7/9/2021 2:00:00 AM 20.37 68.666 0.115 7.37 76.32 8.18
7/9/2021 2:15:00 AM 20.35 68.63 0.115 7.37 63.7 8.19
7/9/2021 2:30:00 AM 20.33 68.594 0.115 7.37 56.98 8.2
7/9/2021 2:45:00 AM 20.32 68.576 0.115 7.37 54.54 8.19
7/9/2021 3:00:00 AM 20.3 68.54 0.115 7.38 51.3 8.2
7/9/2021 3:15:00 AM 20.27 68.486 0.114 7.37 48.23 8.21
7/9/2021 3:30:00 AM 20.23 68.414 0.113 7.38 53.38 8.21
7/9/2021 3:45:00 AM 20.19 68.342 0.113 7.32 39.11 8.22
7/9/2021 4:00:00 AM 20.14 68.252 0.112 7.37 41.66 8.23
7/9/2021 4:15:00 AM 20.09 68.162 0.112 7.37 45.8 8.24
7/9/2021 4:30:00 AM 20.05 68.09 0.112 7.31 46.62 8.24
7/9/2021 4:45:00 AM 20.01 68.018 0.112 7.37 41.2 8.24
7/9/2021 5:00:00 AM 19.97 67.946 0.112 7.37 36.02 8.24
7/9/2021 5:15:00 AM 19.94 67.892 0.112 7.37 38.65 8.24
7/9/2021 5:30:00 AM 19.9 67.82 0.112 7.37 42.07 8.25
7/9/2021 5:45:00 AM 19.87 67.766 0.113 7.37 43.61 8.24
7/9/2021 6:00:00 AM 19.84 67.712 0.113 7.37 39.42 8.25
7/9/2021 6:15:00 AM 19.81 67.658 0.112 7.31 46.05 8.25
7/9/2021 6:30:00 AM 19.78 67.604 0.112 7.37 46.69 8.27
7/9/2021 6:45:00 AM 19.76 67.568 0.113 7.36 44.87 8.28
7/9/2021 7:00:00 AM 19.74 67.532 0.114 7.35 47.4 8.3
7/9/2021 7:15:00 AM 19.72 67.496 0.114 7.36 48.46 8.3
7/9/2021 7:30:00 AM 19.71 67.478 0.114 7.37 56.62 8.32
7/9/2021 7:45:00 AM 19.7 67.46 0.114 7.36 39.17 8.33
7/9/2021 8:00:00 AM 19.7 67.46 0.114 7.37 35.86 8.36
7/9/2021 8:15:00 AM 19.71 67.478 0.115 7.33 35.46 8.4
7/9/2021 8:30:00 AM 19.74 67.532 0.115 7.36 53.24 8.43
7/9/2021 8:45:00 AM 19.75 67.55 0.115 7.34 26.85 8.46
7/9/2021 9:00:00 AM 19.77 67.586 0.115 7.33 27.72 8.49
7/9/2021 9:15:00 AM 19.81 67.658 0.115 7.38 25.45 8.54
7/9/2021 9:30:00 AM 19.87 67.766 0.116 7.39 30.34 8.6
7/9/2021 9:45:00 AM 19.92 67.856 0.116 7.4 23.58 8.65
7/9/2021 10:00:00 AM 19.95 67.91 0.116 7.42 21.78 8.66
7/9/2021 10:15:00 AM 20.03 68.054 0.116 7.43 27.57 8.69
7/9/2021 10:30:00 AM 20.08 68.144 0.116 7.42 21.5 8.71
7/9/2021 10:45:00 AM 20.15 68.27 0.117 7.48 21.61 8.76
7/9/2021 11:00:00 AM 20.23 68.414 0.117 7.48 20.38 8.78
7/9/2021 11:15:00 AM 20.39 68.702 0.117 7.52 21.93 8.84
7/9/2021 11:30:00 AM 20.51 68.918 0.117 7.49 22.11 8.84
7/9/2021 11:45:00 AM 20.74 69.332 0.117 7.56 21.05 8.93
7/9/2021 12:00:00 PM 20.92 69.656 0.117 7.59 22.96 8.96
7/9/2021 12:15:00 PM 20.99 69.782 0.118 7.58 31.61 8.95
7/9/2021 12:30:00 PM 21.13 70.034 0.118 7.6 19.8 8.98
7/9/2021 12:45:00 PM 21.24 70.232 0.118 7.61 20.37 8.97
7/9/2021 1:00:00 PM 21.36 70.448 0.118 7.63 20.59 8.98
7/9/2021 1:15:00 PM 21.36 70.448 0.118 7.59 22.26 8.86
7/9/2021 1:30:00 PM 21.41 70.538 0.119 7.57 20.89 8.83
7/9/2021 1:45:00 PM 21.46 70.628 0.119 7.6 19.75 8.83
7/9/2021 2:00:00 PM 21.66 70.988 0.119 7.59 19.52 8.92
7/9/2021 2:15:00 PM 21.8 71.24 0.119 7.68 17.84 8.94
7/9/2021 2:30:00 PM 21.79 71.222 0.119 7.66 17.46 8.93
7/9/2021 2:45:00 PM 22.09 71.762 0.119 7.71 14.97 9
7/9/2021 3:00:00 PM 22.26 72.068 0.119 7.71 16.02 9.04
7/9/2021 3:15:00 PM 22.38 72.284 0.119 7.76 14.5 9.05
7/9/2021 3:30:00 PM 22.31 72.158 0.119 7.73 14.97 8.92
7/9/2021 3:45:00 PM 22.51 72.518 0.119 7.75 13.95 8.97
7/9/2021 4:00:00 PM 22.44 72.392 0.12 7.71 13.68 8.83
7/9/2021 4:15:00 PM 22.38 72.284 0.12 7.65 13.5 8.69
7/9/2021 4:30:00 PM 22.37 72.266 0.12 7.61 13.1 8.59
7/9/2021 4:45:00 PM 22.3 72.14 0.12 7.59 12.61 8.49
7/9/2021 5:00:00 PM 22.29 72.122 0.12 7.58 11.5 8.49
7/9/2021 5:15:00 PM 22.28 72.104 0.12 7.57 12.06 8.5
7/9/2021 5:30:00 PM 22.24 72.032 0.121 7.55 10.9 8.35
7/9/2021 5:45:00 PM 22.03 71.654 0.113 7.5 13.08 8.36
7/9/2021 6:00:00 PM 22.01 71.618 0.115 7.44 30.69 8.38
7/9/2021 6:15:00 PM 21.96 71.528 0.116 7.46 15.41 8.28
7/9/2021 6:30:00 PM 21.86 71.348 0.117 7.42 18.67 8.25
7/9/2021 6:45:00 PM 21.87 71.366 0.119 7.44 28.4 8.22
7/9/2021 7:00:00 PM 21.9 71.42 0.123 7.43 26.54 8.15
7/9/2021 7:15:00 PM 21.85 71.33 0.126 7.45 20.76 8.09
7/9/2021 7:30:00 PM 21.76 71.168 0.126 7.43 50.35 8.02
7/9/2021 7:45:00 PM 21.67 71.006 0.127 7.43 60.14 7.99
7/9/2021 8:00:00 PM 21.53 70.754 0.125 7.39 51.38 8.03
7/9/2021 8:15:00 PM 21.43 70.574 0.125 7.4 47.47 8.02
7/9/2021 8:30:00 PM 21.4 70.52 0.126 7.36 64.26 8.01
7/9/2021 8:45:00 PM 21.34 70.412 0.126 7.34 73.18 8.01
7/9/2021 9:00:00 PM 21.17 70.106 0.125 7.31 84.31 8.04
7/9/2021 9:15:00 PM 21.04 69.872 0.123 7.33 128.29 8.06
7/9/2021 9:30:00 PM 21 69.8 0.122 7.35 123.08 8.06
7/9/2021 9:45:00 PM 20.99 69.782 0.121 7.35 91.73 8.07
7/9/2021 10:00:00 PM 20.97 69.746 0.121 7.39 96.41 8.07
7/9/2021 10:15:00 PM 20.93 69.674 0.12 7.4 106.51 8.08
7/9/2021 10:30:00 PM 20.88 69.584 0.119 7.37 103.48 8.1
7/9/2021 10:45:00 PM 20.82 69.476 0.116 7.33 109.08 8.13
7/9/2021 11:00:00 PM 20.74 69.332 0.113 7.35 88.51 8.16
7/9/2021 11:15:00 PM 20.67 69.206 0.11 7.31 94.44 8.19
7/9/2021 11:30:00 PM 20.62 69.116 0.108 7.29 82.34 8.21
7/9/2021 11:45:00 PM 20.59 69.062 0.109 7.26 60.89 8.21
7/10/2021 12:00:00 AM 20.54 68.972 0.112 7.27 73.93 8.21
7/10/2021 12:15:00 AM 20.44 68.792 0.118 7.28 117.2 8.22
7/10/2021 12:30:00 AM 20.28 68.504 0.119 7.28 359.94 8.24
7/10/2021 12:45:00 AM 20.2 68.36 0.116 7.29 382.62 8.28
7/10/2021 1:00:00 AM 20.17 68.306 0.112 7.26 296.22 8.32
7/10/2021 1:15:00 AM 20.09 68.162 0.112 7.25 225.2 8.35
7/10/2021 1:30:00 AM 20.03 68.054 0.11 7.26 221.56 8.35
7/10/2021 1:45:00 AM 19.91 67.838 0.108 7.21 190.63 8.37
7/10/2021 2:00:00 AM 19.81 67.658 0.107 7.21 228.1 8.38
7/10/2021 2:15:00 AM 19.75 67.55 0.105 7.23 299.72 8.38
7/10/2021 2:30:00 AM 19.69 67.442 0.102 7.19 232.67 8.38
7/10/2021 2:45:00 AM 19.61 67.298 0.098 7.13 275.95 8.38
7/10/2021 3:00:00 AM 19.59 67.262 0.032 7 277.46 8.38
7/10/2021 3:15:00 AM 19.57 67.226 0.097 6.96 269.9 8.38
7/10/2021 3:30:00 AM 19.49 67.082 0.096 6.99 272.01 8.39
7/10/2021 3:45:00 AM 19.39 66.902 0.094 6.99 268.97 8.42
7/10/2021 4:00:00 AM 19.3 66.74 0.093 7.01 235.66 8.45
7/10/2021 4:15:00 AM 19.23 66.614 0.092 7.03 249.09 8.49
7/10/2021 4:30:00 AM 19.17 66.506 0.092 7.05 267.62 8.5
7/10/2021 4:45:00 AM 19.12 66.416 0.093 7.01 232.51 8.52
7/10/2021 5:00:00 AM 19.08 66.344 0.093 7.06 226.62 8.53
7/10/2021 5:15:00 AM 19.05 66.29 0.094 7.05 245.02 8.54
7/10/2021 5:30:00 AM 19.01 66.218 0.092 7.05 223.5 8.55
7/10/2021 5:45:00 AM 18.98 66.164 0.091 7.04 225.2 8.56
7/10/2021 6:00:00 AM 18.94 66.092 0.09 7.01 187.16 8.58
7/10/2021 6:15:00 AM 18.92 66.056 0.09 7.05 162.11 8.58
7/10/2021 6:30:00 AM 18.89 66.002 0.092 7.07 141.55 8.59
7/10/2021 6:45:00 AM 18.86 65.948 0.092 7.04 153.56 8.6
7/10/2021 7:00:00 AM 18.84 65.912 0.092 7.06 128.1 8.61
7/10/2021 7:15:00 AM 18.82 65.876 0.091 7.08 109.69 8.62
7/10/2021 7:30:00 AM 18.8 65.84 0.091 7.12 100.94 8.63
7/10/2021 7:45:00 AM 18.79 65.82201 0.092 7.13 95.83 8.64
7/10/2021 8:00:00 AM 18.78 65.804 0.092 7.14 84.75 8.66
7/10/2021 8:15:00 AM 18.77 65.786 0.093 7.09 91.57 8.67
7/10/2021 8:30:00 AM 18.77 65.786 0.093 7.14 63.13 8.68
7/10/2021 8:45:00 AM 18.77 65.786 0.094 7.15 64.8 8.69
7/10/2021 9:00:00 AM 18.78 65.804 0.094 7.12 68.48 8.7
7/10/2021 9:15:00 AM 18.8 65.84 0.095 7.15 69.26 8.71
7/10/2021 9:30:00 AM 18.82 65.876 0.095 7.18 52.01 8.73
7/10/2021 9:45:00 AM 18.85 65.93 0.096 7.18 49.75 8.74
7/10/2021 10:00:00 AM 18.88 65.984 0.096 7.2 51.25 8.75
7/10/2021 10:15:00 AM 18.94 66.092 0.097 7.21 43.64 8.77
7/10/2021 10:30:00 AM 19.01 66.218 0.097 7.15 41.33 8.79
7/10/2021 10:45:00 AM 18.97 66.146 0.098 7.21 48.43 8.78
7/10/2021 11:00:00 AM 18.99 66.182 0.098 7.23 38.37 8.78
7/10/2021 11:15:00 AM 19.14 66.452 0.099 7.28 39.83 8.83
7/10/2021 11:30:00 AM 19.24 66.632 0.099 7.3 34.83 8.85
7/10/2021 11:45:00 AM 19.37 66.866 0.1 7.33 39.22 8.88
7/10/2021 12:00:00 PM 19.53 67.154 0.1 7.35 36.3 8.9
7/10/2021 12:15:00 PM 19.56 67.208 0.1 7.34 35.72 8.88
7/10/2021 12:30:00 PM 19.66 67.388 0.101 7.35 28.16 8.89
7/10/2021 12:45:00 PM 19.61 67.298 0.101 7.33 29.01 8.86
7/10/2021 1:00:00 PM 19.74 67.532 0.101 7.34 26.67 8.89
7/10/2021 1:15:00 PM 20.03 68.054 0.102 7.41 25.75 8.94
7/10/2021 1:30:00 PM 20.17 68.306 0.102 7.41 25.56 8.94
7/10/2021 1:45:00 PM 20.37 68.666 0.102 7.44 25.6 8.95
7/10/2021 2:00:00 PM 20.38 68.684 0.103 7.43 24.1 8.93
7/10/2021 2:15:00 PM 20.49 68.882 0.103 7.44 22.84 8.94
7/10/2021 2:30:00 PM 20.41 68.738 0.103 7.41 18.64 8.86
7/10/2021 2:45:00 PM 20.4 68.72 0.104 7.39 20.78 8.82
7/10/2021 3:00:00 PM 20.46 68.828 0.104 7.38 20.46 8.8
7/10/2021 3:15:00 PM 20.51 68.918 0.104 7.39 25.12 8.79
7/10/2021 3:30:00 PM 20.57 69.026 0.104 7.39 19.57 8.77
7/10/2021 3:45:00 PM 20.6 69.08 0.105 7.36 19.08 8.75
7/10/2021 4:00:00 PM 20.78 69.404 0.105 7.41 19.25 8.76
7/10/2021 4:15:00 PM 20.93 69.674 0.105 7.41 21.27 8.75
7/10/2021 4:30:00 PM 21.04 69.872 0.105 7.4 17.98 8.72
7/10/2021 4:45:00 PM 21.15 70.07 0.106 7.4 17.94 8.68
7/10/2021 5:00:00 PM 21.21 70.17799 0.106 7.39 18.53 8.63
7/10/2021 5:15:00 PM 21.25 70.25 0.106 7.38 17.8 8.57
7/10/2021 5:30:00 PM 21.27 70.286 0.106 7.37 18.3 8.55
7/10/2021 5:45:00 PM 21.26 70.268 0.107 7.35 17.71 8.52
7/10/2021 6:00:00 PM 21.22 70.196 0.107 7.33 16.91 8.51
7/10/2021 6:15:00 PM 21.19 70.142 0.107 7.31 16.97 8.49
7/10/2021 6:30:00 PM 21.17 70.106 0.107 7.24 16.41 8.48
7/10/2021 6:45:00 PM 21.15 70.07 0.108 7.28 16.55 8.47
7/10/2021 7:00:00 PM 21.1 69.98 0.108 7.27 15.53 8.46
7/10/2021 7:15:00 PM 21.02 69.836 0.108 7.24 15.63 8.46
7/10/2021 7:30:00 PM 20.94 69.692 0.108 7.27 13.87 8.45
7/10/2021 7:45:00 PM 20.86 69.548 0.109 7.24 14.85 8.44
7/10/2021 8:00:00 PM 20.78 69.404 0.109 7.24 16.8 8.43
7/10/2021 8:15:00 PM 20.71 69.278 0.109 7.24 15.89 8.42
7/10/2021 8:30:00 PM 20.64 69.152 0.109 7.24 14.55 8.41
7/10/2021 8:45:00 PM 20.57 69.026 0.109 7.22 14.73 8.39
7/10/2021 9:00:00 PM 20.5 68.9 0.11 7.22 14.77 8.39
7/10/2021 9:15:00 PM 20.43 68.774 0.11 7.23 15.38 8.38
7/10/2021 9:30:00 PM 20.37 68.666 0.11 7.19 15.37 8.38
7/10/2021 9:45:00 PM 20.32 68.576 0.11 7.23 15.5 8.38
7/10/2021 10:00:00 PM 20.26 68.468 0.111 7.21 14.34 8.37
7/10/2021 10:15:00 PM 20.2 68.36 0.111 7.23 14.93 8.38
7/10/2021 10:30:00 PM 20.14 68.252 0.111 7.24 15.22 8.39
7/10/2021 10:45:00 PM 20.08 68.144 0.111 7.23 15.16 8.39
7/10/2021 11:00:00 PM 20.03 68.054 0.111 7.22 14.67 8.4
7/10/2021 11:15:00 PM 19.97 67.946 0.112 7.22 14.64 8.41
7/10/2021 11:30:00 PM 19.91 67.838 0.112 7.22 14.52 8.42
7/10/2021 11:45:00 PM 19.85 67.73 0.112 7.21 14.5 8.42
7/11/2021 12:00:00 AM 19.8 67.64 0.112 7.17 14.84 8.43
7/11/2021 12:15:00 AM 19.74 67.532 0.112 7.19 14.7 8.45
7/11/2021 12:30:00 AM 19.69 67.442 0.112 7.25 16.43 8.46
7/11/2021 12:45:00 AM 19.63 67.334 0.113 7.21 14.04 8.45
7/11/2021 1:00:00 AM 19.58 67.244 0.113 7.26 16.73 8.47
7/11/2021 1:15:00 AM 19.52 67.136 0.113 7.24 16.04 8.49
7/11/2021 1:30:00 AM 19.46 67.028 0.113 7.21 19 8.5
7/11/2021 1:45:00 AM 19.4 66.92 0.113 7.24 18.71 8.51
7/11/2021 2:00:00 AM 19.35 66.83 0.113 7.21 20.99 8.52
7/11/2021 2:15:00 AM 19.3 66.74 0.113 7.25 21.84 8.52
7/11/2021 2:30:00 AM 19.24 66.632 0.114 7.17 21.66 8.54
7/11/2021 2:45:00 AM 19.19 66.542 0.114 7.24 22.38 8.55
7/11/2021 3:00:00 AM 19.14 66.452 0.114 7.22 22.1 8.56
7/11/2021 3:15:00 AM 19.09 66.362 0.114 7.2 20.38 8.57
7/11/2021 3:30:00 AM 19.03 66.254 0.114 7.24 21.11 8.58
7/11/2021 3:45:00 AM 18.98 66.164 0.114 7.23 23.47 8.59
7/11/2021 4:00:00 AM 18.93 66.074 0.114 7.22 19.12 8.6
7/11/2021 4:15:00 AM 18.89 66.002 0.114 7.24 19.36 8.61
7/11/2021 4:30:00 AM 18.84 65.912 0.114 7.23 17.3 8.62
7/11/2021 4:45:00 AM 18.8 65.84 0.115 7.23 17.11 8.62
7/11/2021 5:00:00 AM 18.76 65.768 0.115 7.24 16.15 8.63
7/11/2021 5:15:00 AM 18.72 65.696 0.115 7.17 15.49 8.64
7/11/2021 5:30:00 AM 18.68 65.624 0.115 7.24 16.22 8.64
7/11/2021 5:45:00 AM 18.65 65.57 0.115 7.23 14.65 8.65
7/11/2021 6:00:00 AM 18.61 65.498 0.115 7.23 14.2 8.66
7/11/2021 6:15:00 AM 18.58 65.444 0.115 7.25 14.78 8.67
7/11/2021 6:30:00 AM 18.55 65.39 0.115 7.24 14.81 8.69
7/11/2021 6:45:00 AM 18.52 65.336 0.115 7.27 13.95 8.7
7/11/2021 7:00:00 AM 18.5 65.3 0.115 7.27 14.64 8.72
7/11/2021 7:15:00 AM 18.48 65.264 0.116 7.21 13.26 8.73
7/11/2021 7:30:00 AM 18.47 65.246 0.115 7.26 11.86 8.74
7/11/2021 7:45:00 AM 18.45 65.21 0.116 7.22 12.01 8.76
7/11/2021 8:00:00 AM 18.43 65.174 0.116 7.24 11.28 8.77
7/11/2021 8:15:00 AM 18.42 65.156 0.116 7.24 10.59 8.79
7/11/2021 8:30:00 AM 18.42 65.156 0.116 7.27 10.4 8.81
7/11/2021 8:45:00 AM 18.41 65.138 0.116 7.3 10.62 8.84
7/11/2021 9:00:00 AM 18.41 65.138 0.116 7.31 10.34 8.86
7/11/2021 9:15:00 AM 18.41 65.138 0.116 7.3 9.63 8.87
7/11/2021 9:30:00 AM 18.4 65.12 0.116 7.32 9.31 8.87
7/11/2021 9:45:00 AM 18.42 65.156 0.116 7.32 9.75 8.92
7/11/2021 10:00:00 AM 18.42 65.156 0.116 7.33 9.64 8.93
7/11/2021 10:15:00 AM 18.43 65.174 0.116 7.32 9.19 8.94
7/11/2021 10:30:00 AM 18.44 65.192 0.116 7.34 9.5 8.98
7/11/2021 10:45:00 AM 18.49 65.282 0.116 7.37 9.1 9.06
7/11/2021 11:00:00 AM 18.55 65.39 0.116 7.35 8.81 9.12
7/11/2021 11:15:00 AM 18.61 65.498 0.116 7.42 9 9.18
7/11/2021 11:30:00 AM 18.65 65.57 0.116 7.38 8.19 9.21
7/11/2021 11:45:00 AM 18.68 65.624 0.116 7.45 8.49 9.22
7/11/2021 12:00:00 PM 18.7 65.66 0.116 7.44 7.26 9.19
7/11/2021 12:15:00 PM 18.72 65.696 0.116 7.46 8.16 9.18
7/11/2021 12:30:00 PM 18.76 65.768 0.116 7.44 8.55 9.17
7/11/2021 12:45:00 PM 18.8 65.84 0.116 7.41 6.95 9.19
7/11/2021 1:00:00 PM 18.84 65.912 0.116 7.46 7.84 9.21
7/11/2021 1:15:00 PM 18.88 65.984 0.116 7.47 6.77 9.21
7/11/2021 1:30:00 PM 18.91 66.038 0.116 7.41 6.51 9.21
7/11/2021 1:45:00 PM 18.95 66.11 0.116 7.42 6.66 9.21
7/11/2021 2:00:00 PM 18.97 66.146 0.116 7.44 6.29 9.19
7/11/2021 2:15:00 PM 19 66.2 0.116 7.46 6.63 9.17
7/11/2021 2:30:00 PM 19.03 66.254 0.116 7.46 7.38 9.18
7/11/2021 2:45:00 PM 19.03 66.254 0.116 7.44 8.23 9.11
7/11/2021 3:00:00 PM 19.04 66.272 0.116 7.43 6.3 9.09
7/11/2021 3:15:00 PM 19.06 66.308 0.116 7.43 7.25 9.08
7/11/2021 3:30:00 PM 19.1 66.38 0.116 7.41 9.3 9.12
7/11/2021 3:45:00 PM 19.12 66.416 0.116 7.45 5.77 9.12
7/11/2021 4:00:00 PM 19.16 66.488 0.116 7.45 5.9 9.12
7/11/2021 4:15:00 PM 19.21 66.578 0.116 7.42 6.12 9.17
7/11/2021 4:30:00 PM 19.24 66.632 0.116 7.47 5.72 9.16
7/11/2021 4:45:00 PM 19.33 66.794 0.116 7.44 5.47 9.21
7/11/2021 5:00:00 PM 19.35 66.83 0.116 7.45 6.05 9.18
7/11/2021 5:15:00 PM 19.36 66.848 0.116 7.48 6.11 9.13
7/11/2021 5:30:00 PM 19.38 66.884 0.117 7.47 5.78 9.1
7/11/2021 5:45:00 PM 19.39 66.902 0.117 7.43 5.83 9.05
7/11/2021 6:00:00 PM 19.41 66.938 0.117 7.44 5.58 9.02
7/11/2021 6:15:00 PM 19.43 66.974 0.117 7.44 5.43 8.97
7/11/2021 6:30:00 PM 19.44 66.992 0.116 7.42 6.11 8.91
7/11/2021 6:45:00 PM 19.46 67.028 0.117 7.41 6.05 8.84
7/11/2021 7:00:00 PM 19.46 67.028 0.117 7.39 6.1 8.78
7/11/2021 7:15:00 PM 19.47 67.046 0.117 7.39 6.05 8.76
7/11/2021 7:30:00 PM 19.47 67.046 0.117 7.36 6.1 8.72
7/11/2021 7:45:00 PM 19.47 67.046 0.117 7.33 6.25 8.68
7/11/2021 8:00:00 PM 19.47 67.046 0.117 7.3 6.89 8.65
7/11/2021 8:15:00 PM 19.46 67.028 0.117 7.32 6.56 8.61
7/11/2021 8:30:00 PM 19.46 67.028 0.117 7.3 6.75 8.58
7/11/2021 8:45:00 PM 19.46 67.028 0.117 7.28 6.63 8.56
7/11/2021 9:00:00 PM 19.47 67.046 0.117 7.26 6.83 8.55
7/11/2021 9:15:00 PM 19.49 67.082 0.116 7.3 7.72 8.54
7/11/2021 9:30:00 PM 19.5 67.1 0.116 7.3 7.87 8.53
7/11/2021 9:45:00 PM 19.49 67.082 0.115 7.27 8.42 8.52
7/11/2021 10:00:00 PM 19.48 67.064 0.115 7.28 9.39 8.5
7/11/2021 10:15:00 PM 19.47 67.046 0.115 7.26 11.62 8.5
7/11/2021 10:30:00 PM 19.46 67.028 0.115 7.25 11.16 8.5
7/11/2021 10:45:00 PM 19.43 66.974 0.115 7.28 12.68 8.49
7/11/2021 11:00:00 PM 19.42 66.956 0.116 7.26 14.39 8.5
7/11/2021 11:15:00 PM 19.41 66.938 0.116 7.18 16.47 8.5
7/11/2021 11:30:00 PM 19.39 66.902 0.116 7.24 33.09 8.51
7/11/2021 11:45:00 PM 19.36 66.848 0.117 7.19 46.59 8.52
7/12/2021 12:00:00 AM 19.27 66.686 0.119 7.22 71.65 8.55
7/12/2021 12:15:00 AM 19.12 66.416 0.118 7.18 156.46 8.58
7/12/2021 12:30:00 AM 19.1 66.38 0.115 7.22 206 8.56
7/12/2021 12:45:00 AM 19.14 66.452 0.114 7.27 150.75 8.55
7/12/2021 1:00:00 AM 19.2 66.56 0.114 7.31 134 8.55
7/12/2021 1:15:00 AM 19.25 66.65 0.115 7.35 176.68 8.54
7/12/2021 1:30:00 AM 19.29 66.722 0.112 7.3 125.61 8.54
7/12/2021 1:45:00 AM 19.3 66.74 0.109 7.3 112.25 8.55
7/12/2021 2:00:00 AM 19.28 66.704 0.105 7.23 73.07 8.56
7/12/2021 2:15:00 AM 19.28 66.704 0.102 7.21 81.96 8.57
7/12/2021 2:30:00 AM 19.28 66.704 0.099 7.15 81.25 8.57
7/12/2021 2:45:00 AM 19.26 66.668 0.095 7.12 81.42 8.57
7/12/2021 3:00:00 AM 19.2 66.56 0.094 7.07 61.93 8.58
7/12/2021 3:15:00 AM 19.15 66.47 0.094 7.15 70.32 8.6
7/12/2021 3:30:00 AM 19.11 66.398 0.094 7.11 59.71 8.62
7/12/2021 3:45:00 AM 19.07 66.326 0.094 7.15 60.12 8.63
7/12/2021 4:00:00 AM 19.04 66.272 0.094 7.17 57.97 8.64
7/12/2021 4:15:00 AM 19.02 66.236 0.094 7.19 62.92 8.64
7/12/2021 4:30:00 AM 19 66.2 0.095 7.16 55.69 8.65
7/12/2021 4:45:00 AM 18.98 66.164 0.096 7.21 58.38 8.65
7/12/2021 5:00:00 AM 18.97 66.146 0.097 7.22 57.58 8.65
7/12/2021 5:15:00 AM 18.96 66.128 0.097 7.13 57.98 8.65
7/12/2021 5:30:00 AM 18.95 66.11 0.097 7.17 49.03 8.66
7/12/2021 5:45:00 AM 18.94 66.092 0.097 7.2 47.84 8.66
7/12/2021 6:00:00 AM 18.93 66.074 0.097 7.15 57 8.65
7/12/2021 6:15:00 AM 18.92 66.056 0.096 7.18 38.21 8.66
7/12/2021 6:30:00 AM 18.91 66.038 0.096 7.18 42.4 8.66
7/12/2021 6:45:00 AM 18.9 66.02 0.096 7.19 46.42 8.67
7/12/2021 7:00:00 AM 18.9 66.02 0.096 7.18 49.55 8.67
7/12/2021 7:15:00 AM 18.89 66.002 0.096 7.18 48.9 8.68
7/12/2021 7:30:00 AM 18.89 66.002 0.096 7.18 64.78 8.69
7/12/2021 7:45:00 AM 18.89 66.002 0.095 7.16 54.36 8.7
7/12/2021 8:00:00 AM 18.88 65.984 0.096 7.17 54.23 8.71
7/12/2021 8:15:00 AM 18.88 65.984 0.096 7.19 47.1 8.71
7/12/2021 8:30:00 AM 18.88 65.984 0.096 7.2 43.88 8.73
7/12/2021 8:45:00 AM 18.89 66.002 0.096 7.18 44.61 8.74
7/12/2021 9:00:00 AM 18.9 66.02 0.096 7.16 38.38 8.76
7/12/2021 9:15:00 AM 18.95 66.11 0.096 7.19 48.58 8.8
7/12/2021 9:30:00 AM 18.98 66.164 0.096 7.21 39.35 8.82
7/12/2021 9:45:00 AM 18.99 66.182 0.096 7.21 28.8 8.82
7/12/2021 10:00:00 AM 19.01 66.218 0.096 7.2 29.58 8.83
7/12/2021 10:15:00 AM 19.03 66.254 0.097 7.2 28.23 8.85
7/12/2021 10:30:00 AM 19.08 66.344 0.097 7.17 27.07 8.88
7/12/2021 10:45:00 AM 19.15 66.47 0.097 7.22 25.39 8.91
7/12/2021 11:00:00 AM 19.23 66.614 0.097 7.25 20.89 8.95
7/12/2021 11:15:00 AM 19.31 66.758 0.097 7.25 18.83 8.99
7/12/2021 11:30:00 AM 19.48 67.064 0.098 7.31 22.38 9.04
7/12/2021 11:45:00 AM 19.56 67.208 0.098 7.31 21.22 9.05
7/12/2021 12:00:00 PM 19.73 67.514 0.098 7.36 20.61 9.08
7/12/2021 12:15:00 PM 19.7 67.46 0.098 7.34 19.01 9.06
7/12/2021 12:30:00 PM 19.8 67.64 0.098 7.33 19 9.05
7/12/2021 12:45:00 PM 19.95 67.91 0.098 7.37 18.23 9.1
7/12/2021 1:00:00 PM 20.03 68.054 0.098 7.37 16.3 9.07
7/12/2021 1:15:00 PM 20.1 68.18 0.099 7.38 17.31 9.08
7/12/2021 1:30:00 PM 20.19 68.342 0.099 7.33 15.5 9.09
7/12/2021 1:45:00 PM 20.2 68.36 0.099 7.36 16.25 9.05
7/12/2021 2:00:00 PM 20.35 68.63 0.099 7.35 16.33 9.09
7/12/2021 2:15:00 PM 20.35 68.63 0.099 7.33 15.65 9.04
7/12/2021 2:30:00 PM 20.5 68.9 0.099 7.4 15.26 9.07
7/12/2021 2:45:00 PM 20.69 69.242 0.1 7.41 14.83 9.07
7/12/2021 3:00:00 PM 20.86 69.548 0.1 7.43 14.41 9.09
7/12/2021 3:15:00 PM 20.95 69.71 0.1 7.45 13.67 9.06
7/12/2021 3:30:00 PM 20.98 69.764 0.1 7.44 14.19 9.01
7/12/2021 3:45:00 PM 21.07 69.926 0.1 7.38 13.53 9
7/12/2021 4:00:00 PM 21.13 70.034 0.1 7.43 13.21 8.98
7/12/2021 4:15:00 PM 21.1 69.98 0.1 7.37 13.85 8.86
7/12/2021 4:30:00 PM 21.11 69.998 0.101 7.34 14.63 8.79
7/12/2021 4:45:00 PM 21.11 69.998 0.101 7.33 13.26 8.72
7/12/2021 5:00:00 PM 21.14 70.052 0.101 7.28 12.42 8.68
7/12/2021 5:15:00 PM 21.15 70.07 0.101 7.3 12.62 8.64
7/12/2021 5:30:00 PM 21.19 70.142 0.101 7.31 12.24 8.63
7/12/2021 5:45:00 PM 21.23 70.214 0.101 7.3 12.4 8.63
7/12/2021 6:00:00 PM 21.26 70.268 0.101 7.27 12.31 8.61
7/12/2021 6:15:00 PM 21.28 70.304 0.101 7.3 11.47 8.58
7/12/2021 6:30:00 PM 21.28 70.304 0.102 7.29 12.09 8.57
7/12/2021 6:45:00 PM 21.27 70.286 0.102 7.25 11.92 8.54
7/12/2021 7:00:00 PM 21.25 70.25 0.102 7.26 11.37 8.52
7/12/2021 7:15:00 PM 21.22 70.196 0.102 7.26 11.27 8.49
7/12/2021 7:30:00 PM 21.2 70.16 0.102 7.26 11.84 8.47
7/12/2021 7:45:00 PM 21.17 70.106 0.102 7.22 10.81 8.44
7/12/2021 8:00:00 PM 21.14 70.052 0.102 7.22 11.07 8.41
7/12/2021 8:15:00 PM 21.1 69.98 0.103 7.2 11.04 8.39
7/12/2021 8:30:00 PM 21.05 69.89 0.103 7.19 10.66 8.37
7/12/2021 8:45:00 PM 21 69.8 0.103 7.18 11.17 8.36
7/12/2021 9:00:00 PM 20.95 69.71 0.104 7.16 11.35 8.34
7/12/2021 9:15:00 PM 20.9 69.62 0.104 7.19 11.64 8.34
7/12/2021 9:30:00 PM 20.85 69.53 0.104 7.17 11.12 8.34
7/12/2021 9:45:00 PM 20.81 69.458 0.104 7.12 12.29 8.33
7/12/2021 10:00:00 PM 20.78 69.404 0.104 7.15 13.73 8.33
7/12/2021 10:15:00 PM 20.75 69.35 0.104 7.16 16.44 8.33
7/12/2021 10:30:00 PM 20.72 69.296 0.104 7.16 20.61 8.32
7/12/2021 10:45:00 PM 20.69 69.242 0.104 7.14 18.62 8.32
7/12/2021 11:00:00 PM 20.65 69.17 0.104 7.16 22.73 8.33
7/12/2021 11:15:00 PM 20.61 69.098 0.104 7.16 23.94 8.33
7/12/2021 11:30:00 PM 20.57 69.026 0.104 7.15 26.8 8.34
7/12/2021 11:45:00 PM 20.54 68.972 0.105 7.14 26.88 8.35
7/13/2021 12:00:00 AM 20.5 68.9 0.105 7.13 24.53 8.35
7/13/2021 12:15:00 AM 20.45 68.81 0.105 7.13 18.34 8.35
7/13/2021 12:30:00 AM 20.41 68.738 0.105 7.14 20.34 8.36
7/13/2021 12:45:00 AM 20.38 68.684 0.106 7.11 15.13 8.38
7/13/2021 1:00:00 AM 20.34 68.612 0.106 7.09 14.03 8.38
7/13/2021 1:15:00 AM 20.3 68.54 0.106 7.09 13.07 8.39
7/13/2021 1:30:00 AM 20.26 68.468 0.106 7.1 13.06 8.4
7/13/2021 1:45:00 AM 20.23 68.414 0.106 7.12 12.46 8.4
7/13/2021 2:00:00 AM 20.19 68.342 0.106 7.11 12.33 8.41
7/13/2021 2:15:00 AM 20.16 68.288 0.107 7.11 11.98 8.41
7/13/2021 2:30:00 AM 20.12 68.216 0.107 7.06 11.39 8.42
7/13/2021 2:45:00 AM 20.09 68.162 0.107 7.11 11.65 8.43
7/13/2021 3:00:00 AM 20.05 68.09 0.107 7.13 11.33 8.44
7/13/2021 3:15:00 AM 20.02 68.036 0.107 7.13 14.67 8.44
7/13/2021 3:30:00 AM 19.98 67.964 0.107 7.13 11.7 8.45
7/13/2021 3:45:00 AM 19.95 67.91 0.107 7.14 10.86 8.46
7/13/2021 4:00:00 AM 19.92 67.856 0.107 7.14 11.1 8.46
7/13/2021 4:15:00 AM 19.89 67.802 0.107 7.16 10.88 8.46
7/13/2021 4:30:00 AM 19.86 67.748 0.108 7.14 10.61 8.47
7/13/2021 4:45:00 AM 19.83 67.694 0.108 7.12 10.57 8.48
7/13/2021 5:00:00 AM 19.8 67.64 0.108 7.09 11.14 8.49
7/13/2021 5:15:00 AM 19.77 67.586 0.108 7.16 10.85 8.49
7/13/2021 5:30:00 AM 19.75 67.55 0.108 7.15 11.73 8.5
7/13/2021 5:45:00 AM 19.72 67.496 0.108 7.08 11.72 8.5
7/13/2021 6:00:00 AM 19.69 67.442 0.108 7.14 11.28 8.51
7/13/2021 6:15:00 AM 19.66 67.388 0.108 7.15 10.55 8.53
7/13/2021 6:30:00 AM 19.65 67.37 0.108 7.1 10.55 8.54
7/13/2021 6:45:00 AM 19.63 67.334 0.109 7.09 10.94 8.58
7/13/2021 7:00:00 AM 19.62 67.316 0.109 7.15 10.58 8.61
7/13/2021 7:15:00 AM 19.61 67.298 0.109 7.15 9.73 8.62
7/13/2021 7:30:00 AM 19.6 67.28 0.109 7.11 10.05 8.65
7/13/2021 7:45:00 AM 19.59 67.262 0.109 7.18 9.33 8.66
7/13/2021 8:00:00 AM 19.6 67.28 0.109 7.12 9.77 8.72
7/13/2021 8:15:00 AM 19.61 67.298 0.109 7.21 9.27 8.76
7/13/2021 8:30:00 AM 19.61 67.298 0.109 7.22 8.54 8.78
7/13/2021 8:45:00 AM 19.64 67.352 0.109 7.23 8.46 8.85
7/13/2021 9:00:00 AM 19.65 67.37 0.109 7.26 7.86 8.86
7/13/2021 9:15:00 AM 19.67 67.406 0.109 7.27 7.55 8.9
7/13/2021 9:30:00 AM 19.69 67.442 0.109 7.22 7.34 8.91
7/13/2021 9:45:00 AM 19.72 67.496 0.109 7.3 8.12 8.93
7/13/2021 10:00:00 AM 19.78 67.604 0.109 7.28 7.42 9.01
7/13/2021 10:15:00 AM 19.84 67.712 0.109 7.34 7.94 9.07
7/13/2021 10:30:00 AM 19.86 67.748 0.109 7.35 7.19 9.07
7/13/2021 10:45:00 AM 19.9 67.82 0.109 7.39 7.13 9.11
7/13/2021 11:00:00 AM 19.94 67.892 0.109 7.39 7.44 9.1
7/13/2021 11:15:00 AM 19.95 67.91 0.109 7.4 6.76 9.06
7/13/2021 11:30:00 AM 20 68 0.109 7.38 7.05 9.08
7/13/2021 11:45:00 AM 20.06 68.108 0.109 7.43 6.88 9.1
7/13/2021 12:00:00 PM 20.12 68.216 0.102 7.45 6.65 9.13
7/13/2021 12:15:00 PM 20.18 68.324 0.109 7.44 6.57 9.16
7/13/2021 12:30:00 PM 20.22 68.396 0.109 7.47 6.87 9.16
7/13/2021 12:45:00 PM 20.3 68.54 0.109 7.49 6.33 9.19
7/13/2021 1:00:00 PM 20.33 68.594 0.108 7.49 6.9 9.18
7/13/2021 1:15:00 PM 20.37 68.666 0.109 7.45 5.89 9.18
7/13/2021 1:30:00 PM 20.39 68.702 0.109 7.49 5.93 9.15
7/13/2021 1:45:00 PM 20.46 68.828 0.109 7.49 6.08 9.2
7/13/2021 2:00:00 PM 20.59 69.062 0.108 7.53 6.19 9.23
7/13/2021 2:15:00 PM 20.7 69.26 0.108 7.55 6.31 9.25
7/13/2021 2:30:00 PM 20.73 69.314 0.108 7.55 5.81 9.23
7/13/2021 2:45:00 PM 20.82 69.476 0.108 7.56 5.59 9.25
7/13/2021 3:00:00 PM 20.89 69.602 0.108 7.6 5.73 9.23
7/13/2021 3:15:00 PM 21.05 69.89 0.108 7.59 5.27 9.25
7/13/2021 3:30:00 PM 21.13 70.034 0.108 7.64 5.7 9.26
7/13/2021 3:45:00 PM 21.2 70.16 0.108 7.65 5.51 9.24
7/13/2021 4:00:00 PM 21.27 70.286 0.108 7.61 5.45 9.22
7/13/2021 4:15:00 PM 21.33 70.394 0.108 7.63 6.03 9.17
7/13/2021 4:30:00 PM 21.32 70.376 0.108 7.58 5.72 9.11
7/13/2021 4:45:00 PM 21.39 70.502 0.108 7.58 5.88 9.07
7/13/2021 5:00:00 PM 21.4 70.52 0.108 7.59 5.53 9
7/13/2021 5:15:00 PM 21.42 70.556 0.108 7.55 5.42 8.93
7/13/2021 5:30:00 PM 21.44 70.592 0.108 7.5 5.43 8.79
7/13/2021 5:45:00 PM 21.5 70.7 0.108 7.5 5.57 8.8
7/13/2021 6:00:00 PM 21.52 70.736 0.109 7.5 5.51 8.75
7/13/2021 6:15:00 PM 21.52 70.736 0.108 7.46 5.41 8.7
7/13/2021 6:30:00 PM 21.52 70.736 0.109 7.45 5.65 8.66
7/13/2021 6:45:00 PM 21.5 70.7 0.109 7.36 5.6 8.59
7/13/2021 7:00:00 PM 21.48 70.664 0.109 7.38 5.46 8.52
7/13/2021 7:15:00 PM 21.47 70.646 0.109 7.37 5.54 8.47
7/13/2021 7:30:00 PM 21.48 70.664 0.109 7.35 5.58 8.43
7/13/2021 7:45:00 PM 21.49 70.682 0.109 7.34 6.15 8.4
7/13/2021 8:00:00 PM 21.49 70.682 0.109 7.34 5.36 8.37
7/13/2021 8:15:00 PM 21.47 70.646 0.109 7.28 5.45 8.33
7/13/2021 8:30:00 PM 21.45 70.61 0.109 7.31 5.76 8.29
7/13/2021 8:45:00 PM 21.44 70.592 0.109 7.28 6.02 8.26
7/13/2021 9:00:00 PM 21.43 70.574 0.109 7.28 6 8.24
7/13/2021 9:15:00 PM 21.42 70.556 0.109 7.28 6.76 8.22
7/13/2021 9:30:00 PM 21.39 70.502 0.11 7.28 6.26 8.2
7/13/2021 9:45:00 PM 21.33 70.394 0.109 7.28 6.73 8.22
7/13/2021 10:00:00 PM 21.28 70.304 0.109 7.25 7.23 8.22
7/13/2021 10:15:00 PM 21.19 70.142 0.106 7.22 9.72 8.25
7/13/2021 10:30:00 PM 21.01 69.818 0.103 7.18 12.62 8.33
7/13/2021 10:45:00 PM 20.87 69.566 0.102 7.13 25.14 8.32
7/13/2021 11:00:00 PM 20.76 69.368 0.107 7.16 167.31 8.35
7/13/2021 11:15:00 PM 20.71 69.278 0.108 7.12 94.01 8.32
7/13/2021 11:30:00 PM 20.61 69.098 0.108 7.09 315 8.2
7/13/2021 11:45:00 PM 20.38 68.684 0.106 7.03 475.22 8.24
7/14/2021 12:00:00 AM 20.31 68.558 0.104 7.07 608.23 8.29
7/14/2021 12:15:00 AM 20.12 68.216 0.101 7.05 646.69 8.33
7/14/2021 12:30:00 AM 20 68 0.098 7.1 507.2 8.35
7/14/2021 12:45:00 AM 19.88 67.784 0.096 7 494.65 8.35
7/14/2021 1:00:00 AM 19.83 67.694 0.092 7 415.91 8.34
7/14/2021 1:15:00 AM 19.77 67.586 0.088 6.92 338.29 8.33
7/14/2021 1:30:00 AM 19.72 67.496 0.085 6.84 382.82 8.31
7/14/2021 1:45:00 AM 19.68 67.424 0.084 6.78 388.02 8.3
7/14/2021 2:00:00 AM 19.55 67.19 0.085 6.81 406.38 8.34
7/14/2021 2:15:00 AM 19.46 67.028 0.086 6.8 404.1 8.38
7/14/2021 2:30:00 AM 19.41 66.938 0.086 6.84 429.01 8.41
7/14/2021 2:45:00 AM 19.36 66.848 0.085 6.85 397.09 8.44
7/14/2021 3:00:00 AM 19.31 66.758 0.084 6.84 373.62 8.47
7/14/2021 3:15:00 AM 19.24 66.632 0.082 6.85 292.74 8.51
7/14/2021 3:30:00 AM 19.17 66.506 0.08 6.8 262.16 8.54
7/14/2021 3:45:00 AM 19.11 66.398 0.08 6.81 211.73 8.56
7/14/2021 4:00:00 AM 19.05 66.29 0.079 6.8 164.36 8.58
7/14/2021 4:15:00 AM 18.98 66.164 0.079 6.79 177.24 8.6
7/14/2021 4:30:00 AM 18.92 66.056 0.079 6.84 130.95 8.62
7/14/2021 4:45:00 AM 18.86 65.948 0.079 6.84 122.4 8.64
7/14/2021 5:00:00 AM 18.8 65.84 0.079 6.86 100.31 8.66
7/14/2021 5:15:00 AM 18.74 65.732 0.08 6.82 92.05 8.68
7/14/2021 5:30:00 AM 18.69 65.642 0.08 6.85 88.06 8.7
7/14/2021 5:45:00 AM 18.64 65.552 0.08 6.86 72.18 8.73
7/14/2021 6:00:00 AM 18.6 65.48 0.081 6.93 93.2 8.74
7/14/2021 6:15:00 AM 18.56 65.408 0.082 6.93 111.13 8.76
7/14/2021 6:30:00 AM 18.53 65.354 0.082 6.95 66.24 8.77
7/14/2021 6:45:00 AM 18.51 65.318 0.083 6.96 57.29 8.79
7/14/2021 7:00:00 AM 18.48 65.264 0.083 6.92 62.15 8.8
7/14/2021 7:15:00 AM 18.48 65.264 0.084 6.98 55.75 8.81
7/14/2021 7:30:00 AM 18.46 65.228 0.085 6.99 55.67 8.82
7/14/2021 7:45:00 AM 18.46 65.228 0.085 7.01 51.7 8.83
7/14/2021 8:00:00 AM 18.45 65.21 0.086 7.02 46.89 8.84
7/14/2021 8:15:00 AM 18.45 65.21 0.086 7.02 45.57 8.86
7/14/2021 8:30:00 AM 18.45 65.21 0.087 7.03 43.65 8.87
7/14/2021 8:45:00 AM 18.45 65.21 0.087 7.04 41.21 8.88
7/14/2021 9:00:00 AM 18.45 65.21 0.088 7.04 40.13 8.89
7/14/2021 9:15:00 AM 18.46 65.228 0.088 7.06 39.99 8.9
7/14/2021 9:30:00 AM 18.47 65.246 0.088 7.07 33.67 8.91
7/14/2021 9:45:00 AM 18.47 65.246 0.089 7.08 28.41 8.92
7/14/2021 10:00:00 AM 18.47 65.246 0.089 7.02 33.56 8.92
7/14/2021 10:15:00 AM 18.47 65.246 0.089 7.08 33.49 8.93
7/14/2021 10:30:00 AM 18.47 65.246 0.09 7.1 29.65 8.94
7/14/2021 10:45:00 AM 18.48 65.264 0.09 7.07 29.17 8.95
7/14/2021 11:00:00 AM 18.53 65.354 0.09 7.04 33 8.97
7/14/2021 11:15:00 AM 18.6 65.48 0.09 7.12 35.62 8.99
7/14/2021 11:30:00 AM 18.65 65.57 0.09 7.13 31.9 9
7/14/2021 11:45:00 AM 18.72 65.696 0.09 7.15 25.93 9
7/14/2021 12:00:00 PM 18.76 65.768 0.09 7.16 29.2 9
7/14/2021 12:15:00 PM 18.86 65.948 0.09 7.11 25.27 9
7/14/2021 12:30:00 PM 18.98 66.164 0.09 7.18 23.16 9
7/14/2021 12:45:00 PM 19.11 66.398 0.091 7.19 28.22 8.97
7/14/2021 1:00:00 PM 19.17 66.506 0.091 7.19 35.88 8.93
7/14/2021 1:15:00 PM 19.29 66.722 0.091 7.13 20.19 8.93
7/14/2021 1:30:00 PM 19.4 66.92 0.091 7.19 21.15 8.92
7/14/2021 1:45:00 PM 19.44 66.992 0.091 7.19 23.06 8.9
7/14/2021 2:00:00 PM 19.62 67.316 0.091 7.17 22.79 8.91
7/14/2021 2:15:00 PM 19.71 67.478 0.091 7.19 17.87 8.89
7/14/2021 2:30:00 PM 19.78 67.604 0.091 7.19 22.54 8.87
7/14/2021 2:45:00 PM 19.81 67.658 0.091 7.19 20.3 8.85
7/14/2021 3:00:00 PM 19.84 67.712 0.091 7.19 21.39 8.84
7/14/2021 3:15:00 PM 19.88 67.784 0.091 7.2 21.35 8.83
7/14/2021 3:30:00 PM 19.96 67.92799 0.092 7.18 22.25 8.84
7/14/2021 3:45:00 PM 20.04 68.07201 0.092 7.18 21.17 8.83
7/14/2021 4:00:00 PM 20.11 68.198 0.092 7.19 22.29 8.82
7/14/2021 4:15:00 PM 20.19 68.342 0.092 7.19 20.03 8.81
7/14/2021 4:30:00 PM 20.26 68.468 0.092 7.2 22.29 8.79
7/14/2021 4:45:00 PM 20.29 68.522 0.092 7.18 18.33 8.76
7/14/2021 5:00:00 PM 20.29 68.522 0.092 7.2 19.53 8.73
7/14/2021 5:15:00 PM 20.28 68.504 0.092 7.2 21.32 8.71
7/14/2021 5:30:00 PM 20.29 68.522 0.092 7.19 20.23 8.7
7/14/2021 5:45:00 PM 20.27 68.486 0.093 7.19 20.03 8.69
7/14/2021 6:00:00 PM 20.26 68.468 0.093 7.14 22.61 8.67
7/14/2021 6:15:00 PM 20.25 68.45 0.093 7.18 23.62 8.66
7/14/2021 6:30:00 PM 20.23 68.414 0.093 7.16 21.41 8.64
7/14/2021 6:45:00 PM 20.21 68.378 0.093 7.17 17.81 8.63
7/14/2021 7:00:00 PM 20.17 68.306 0.093 7.14 23.09 8.62
7/14/2021 7:15:00 PM 20.13 68.234 0.092 7.15 23.85 8.62
7/14/2021 7:30:00 PM 20.08 68.144 0.092 7.13 21.74 8.62
7/14/2021 7:45:00 PM 20.02 68.036 0.092 7.13 22.82 8.62
7/14/2021 8:00:00 PM 19.96 67.92799 0.093 7.11 23.44 8.61
7/14/2021 8:15:00 PM 19.66 67.388 0.1 7.11 73.9 8.66
7/14/2021 8:30:00 PM 19.72 67.496 0.1 7.29 220.11 8.66
7/14/2021 8:45:00 PM 19.82 67.676 0.098 7.31 253.06 8.61
7/14/2021 9:00:00 PM 19.82 67.676 0.097 7.26 152.12 8.59
7/14/2021 9:15:00 PM 19.74 67.532 0.096 7.19 88.76 8.6
7/14/2021 9:30:00 PM 19.65 67.37 0.095 7.11 54.95 8.61
7/14/2021 9:45:00 PM 19.56 67.208 0.094 7.13 42.03 8.62
7/14/2021 10:00:00 PM 19.48 67.064 0.094 7.11 39.73 8.64
7/14/2021 10:15:00 PM 19.42 66.956 0.094 7.09 33.21 8.65
7/14/2021 10:30:00 PM 19.36 66.848 0.094 7.1 32.28 8.66
7/14/2021 10:45:00 PM 19.27 66.686 0.094 7.1 30.32 8.67
7/14/2021 11:00:00 PM 19.17 66.506 0.094 7.09 24.44 8.69
7/14/2021 11:15:00 PM 19.09 66.362 0.095 7.02 33.56 8.7
7/14/2021 11:30:00 PM 19.03 66.254 0.096 7.11 91.57 8.71
7/14/2021 11:45:00 PM 18.99 66.182 0.096 7.09 131.12 8.72
7/15/2021 12:00:00 AM 18.98 66.164 0.098 7.17 150.92 8.71
7/15/2021 12:15:00 AM 18.96 66.128 0.098 7.17 101.15 8.72
7/15/2021 12:30:00 AM 18.93 66.074 0.098 7.16 97.18 8.73
7/15/2021 12:45:00 AM 18.89 66.002 0.098 7.16 64.14 8.73
7/15/2021 1:00:00 AM 18.84 65.912 0.098 7.16 52.06 8.74
7/15/2021 1:15:00 AM 18.8 65.84 0.098 7.17 38.99 8.75
7/15/2021 1:30:00 AM 18.75 65.75 0.098 7.16 60.52 8.76
7/15/2021 1:45:00 AM 18.69 65.642 0.099 7.17 31.25 8.77
7/15/2021 2:00:00 AM 18.62 65.516 0.1 7.11 28.26 8.78
7/15/2021 2:15:00 AM 18.55 65.39 0.1 7.16 28.7 8.8
7/15/2021 2:30:00 AM 18.47 65.246 0.101 7.16 24.59 8.81
7/15/2021 2:45:00 AM 18.38 65.084 0.101 7.18 23.12 8.83
7/15/2021 3:00:00 AM 18.3 64.94 0.102 7.15 23.5 8.84
7/15/2021 3:15:00 AM 18.21 64.778 0.102 7.16 21.45 8.87
7/15/2021 3:30:00 AM 18.12 64.616 0.102 7.1 20.63 8.89
7/15/2021 3:45:00 AM 18.04 64.472 0.102 7.16 23.98 8.91
7/15/2021 4:00:00 AM 17.96 64.328 0.102 7.14 20.35 8.93
7/15/2021 4:15:00 AM 17.89 64.202 0.102 7.14 18.92 8.95
7/15/2021 4:30:00 AM 17.82 64.076 0.102 7.14 17.08 8.96
7/15/2021 4:45:00 AM 17.75 63.95 0.102 7.13 16.21 8.98
7/15/2021 5:00:00 AM 17.69 63.842 0.102 7.13 14.51 8.99
7/15/2021 5:15:00 AM 17.63 63.734 0.102 7.14 15.46 9
7/15/2021 5:30:00 AM 17.56 63.608 0.102 7.13 16.24 9.02
7/15/2021 5:45:00 AM 17.5 63.5 0.102 7.14 15.66 9.03
7/15/2021 6:00:00 AM 17.44 63.392 0.102 7.14 15.46 9.04
7/15/2021 6:15:00 AM 17.39 63.302 0.102 7.14 14.79 9.06
7/15/2021 6:30:00 AM 17.34 63.212 0.102 7.16 14.87 9.07
7/15/2021 6:45:00 AM 17.29 63.122 0.102 7.15 14.55 9.09
7/15/2021 7:00:00 AM 17.25 63.05 0.102 7.15 13.73 9.1
7/15/2021 7:15:00 AM 17.22 62.996 0.102 7.16 13.74 9.13
7/15/2021 7:30:00 AM 17.18 62.924 0.102 7.15 12.72 9.15
7/15/2021 7:45:00 AM 17.16 62.888 0.102 7.17 12.94 9.17
7/15/2021 8:00:00 AM 17.14 62.852 0.101 7.17 12.74 9.2
7/15/2021 8:15:00 AM 17.13 62.834 0.102 7.18 11.91 9.23
7/15/2021 8:30:00 AM 17.13 62.834 0.101 7.19 11.58 9.25
7/15/2021 8:45:00 AM 17.13 62.834 0.102 7.2 11.6 9.28
7/15/2021 9:00:00 AM 17.15 62.87 0.101 7.2 11.06 9.3
7/15/2021 9:15:00 AM 17.16 62.888 0.102 7.21 11.27 9.32
7/15/2021 9:30:00 AM 17.18 62.924 0.102 7.23 11.6 9.34
7/15/2021 9:45:00 AM 17.22 62.996 0.101 7.23 10.78 9.36
7/15/2021 10:00:00 AM 17.28 63.104 0.101 7.25 10.42 9.37
7/15/2021 10:15:00 AM 17.33 63.194 0.101 7.25 10.62 9.39
7/15/2021 10:30:00 AM 17.36 63.248 0.101 7.26 10.19 9.4
7/15/2021 10:45:00 AM 17.46 63.428 0.101 7.27 10.13 9.4
7/15/2021 11:00:00 AM 17.56 63.608 0.101 7.28 9.75 9.41
7/15/2021 11:15:00 AM 17.68 63.824 0.101 7.3 10.25 9.42
7/15/2021 11:30:00 AM 17.79 64.022 0.101 7.31 9.86 9.42
7/15/2021 11:45:00 AM 17.93 64.274 0.101 7.33 9.16 9.41
7/15/2021 12:00:00 PM 18.09 64.562 0.101 7.34 9.48 9.4
7/15/2021 12:15:00 PM 18.24 64.832 0.101 7.35 9.45 9.4
7/15/2021 12:30:00 PM 18.41 65.138 0.101 7.36 8.88 9.39
7/15/2021 12:45:00 PM 18.56 65.408 0.101 7.37 9.16 9.36
7/15/2021 1:00:00 PM 18.69 65.642 0.101 7.36 9.48 9.35
7/15/2021 1:15:00 PM 18.87 65.966 0.101 7.39 8.87 9.34
7/15/2021 1:30:00 PM 19.01 66.218 0.101 7.39 8.73 9.32
7/15/2021 1:45:00 PM 19.14 66.452 0.101 7.39 8.67 9.29
7/15/2021 2:00:00 PM 19.29 66.722 0.101 7.4 8.87 9.27
7/15/2021 2:15:00 PM 19.43 66.974 0.101 7.41 8.87 9.24
7/15/2021 2:30:00 PM 19.52 67.136 0.1 7.41 8.58 9.21
7/15/2021 2:45:00 PM 19.59 67.262 0.1 7.4 8.86 9.16
7/15/2021 3:00:00 PM 19.69 67.442 0.1 7.41 9.16 9.14
7/15/2021 3:15:00 PM 19.84 67.712 0.1 7.42 8.61 9.13
7/15/2021 3:30:00 PM 19.84 67.712 0.1 7.4 8.55 9.06
7/15/2021 3:45:00 PM 19.91 67.838 0.1 7.41 8.67 9.07
7/15/2021 4:00:00 PM 20.02 68.036 0.1 7.4 8.71 9.05
7/15/2021 4:15:00 PM 20.08 68.144 0.1 7.4 8.61 9.03
7/15/2021 4:30:00 PM 20.12 68.216 0.1 7.4 8.67 8.99
7/15/2021 4:45:00 PM 20.13 68.234 0.1 7.38 8.51 8.94
7/15/2021 5:00:00 PM 20.19 68.342 0.1 7.37 9.2 8.92
7/15/2021 5:15:00 PM 20.21 68.378 0.1 7.37 8.6 8.9
7/15/2021 5:30:00 PM 20.2 68.36 0.1 7.36 8.25 8.87
7/15/2021 5:45:00 PM 20.21 68.378 0.1 7.35 8.49 8.85
7/15/2021 6:00:00 PM 20.21 68.378 0.1 7.34 8.41 8.82
7/15/2021 6:15:00 PM 20.17 68.306 0.1 7.33 8.52 8.79
7/15/2021 6:30:00 PM 20.15 68.27 0.1 7.32 8.1 8.76
7/15/2021 6:45:00 PM 20.12 68.216 0.1 7.3 8.3 8.75
7/15/2021 7:00:00 PM 20.09 68.162 0.1 7.29 8.22 8.72
7/15/2021 7:15:00 PM 20.04 68.07201 0.1 7.29 8.22 8.71
7/15/2021 7:30:00 PM 19.99 67.982 0.101 7.27 8.33 8.7
7/15/2021 7:45:00 PM 19.94 67.892 0.101 7.26 8.33 8.67
7/15/2021 8:00:00 PM 19.89 67.802 0.101 7.25 8.58 8.66
7/15/2021 8:15:00 PM 19.83 67.694 0.101 7.24 8.67 8.65
7/15/2021 8:30:00 PM 19.77 67.586 0.101 7.23 8.62 8.64
7/15/2021 8:45:00 PM 19.72 67.496 0.101 7.22 8.93 8.63
7/15/2021 9:00:00 PM 19.65 67.37 0.101 7.21 9.33 8.62
7/15/2021 9:15:00 PM 19.59 67.262 0.101 7.2 9.23 8.61
7/15/2021 9:30:00 PM 19.52 67.136 0.101 7.19 9.73 8.61
7/15/2021 9:45:00 PM 19.46 67.028 0.101 7.19 9.14 8.62
7/15/2021 10:00:00 PM 19.41 66.938 0.101 7.18 8.62 8.62
7/15/2021 10:15:00 PM 19.35 66.83 0.101 7.17 9.66 8.62
7/15/2021 10:30:00 PM 19.29 66.722 0.101 7.17 9.05 8.63
7/15/2021 10:45:00 PM 19.24 66.632 0.101 7.16 12.15 8.63
7/15/2021 11:00:00 PM 19.18 66.524 0.102 7.17 9.57 8.64
7/15/2021 11:15:00 PM 19.13 66.434 0.102 7.17 8.79 8.65
7/15/2021 11:30:00 PM 19.07 66.326 0.102 7.17 8.6 8.66
7/15/2021 11:45:00 PM 19.02 66.236 0.102 7.17 8.65 8.67
7/16/2021 12:00:00 AM 18.97 66.146 0.102 7.17 10.07 8.68
7/16/2021 12:15:00 AM 18.92 66.056 0.102 7.18 9.24 8.68
7/16/2021 12:30:00 AM 18.86 65.948 0.102 7.18 8.61 8.69
7/16/2021 12:45:00 AM 18.81 65.858 0.102 7.17 8.54 8.7
7/16/2021 1:00:00 AM 18.75 65.75 0.102 7.17 8.34 8.71
7/16/2021 1:15:00 AM 18.7 65.66 0.102 7.17 8.41 8.72
7/16/2021 1:30:00 AM 18.65 65.57 0.102 7.17 8.31 8.73
7/16/2021 1:45:00 AM 18.6 65.48 0.102 7.17 8.15 8.74
7/16/2021 2:00:00 AM 18.55 65.39 0.102 7.17 8.82 8.75
7/16/2021 2:15:00 AM 18.5 65.3 0.102 7.17 8.27 8.76
7/16/2021 2:30:00 AM 18.45 65.21 0.102 7.17 8.64 8.78
7/16/2021 2:45:00 AM 18.4 65.12 0.102 7.18 8.72 8.79
7/16/2021 3:00:00 AM 18.36 65.048 0.102 7.17 7.93 8.78
7/16/2021 3:15:00 AM 18.31 64.958 0.102 7.17 8.06 8.8
7/16/2021 3:30:00 AM 18.26 64.868 0.102 7.17 8.25 8.81
7/16/2021 3:45:00 AM 18.22 64.796 0.102 7.17 11.08 8.82
7/16/2021 4:00:00 AM 18.17 64.706 0.102 7.17 10.29 8.83
7/16/2021 4:15:00 AM 18.13 64.634 0.102 7.17 7.98 8.83
7/16/2021 4:30:00 AM 18.08 64.544 0.102 7.16 7.57 8.84
7/16/2021 4:45:00 AM 18.04 64.472 0.102 7.17 7.96 8.85
7/16/2021 5:00:00 AM 18 64.4 0.102 7.17 8.29 8.86
7/16/2021 5:15:00 AM 17.96 64.328 0.102 7.17 8.27 8.87
7/16/2021 5:30:00 AM 17.92 64.256 0.102 7.17 8.05 8.88
7/16/2021 5:45:00 AM 17.88 64.184 0.102 7.17 7.99 8.89
7/16/2021 6:00:00 AM 17.85 64.13 0.102 7.16 7.69 8.89
7/16/2021 6:15:00 AM 17.81 64.058 0.102 7.17 8.27 8.91
7/16/2021 6:30:00 AM 17.78 64.004 0.103 7.17 7.59 8.92
7/16/2021 6:45:00 AM 17.75 63.95 0.103 7.18 8.25 8.94
7/16/2021 7:00:00 AM 17.73 63.914 0.103 7.18 7.55 8.96
7/16/2021 7:15:00 AM 17.71 63.878 0.103 7.18 7.12 8.99
7/16/2021 7:30:00 AM 17.7 63.86 0.103 7.19 6.97 9.01
7/16/2021 7:45:00 AM 17.69 63.842 0.103 7.2 7.13 9.04
7/16/2021 8:00:00 AM 17.68 63.824 0.103 7.21 6.6 9.07
7/16/2021 8:15:00 AM 17.69 63.842 0.103 7.22 6.48 9.09
7/16/2021 8:30:00 AM 17.7 63.86 0.102 7.23 6.51 9.11
7/16/2021 8:45:00 AM 17.72 63.896 0.103 7.24 6.36 9.14
7/16/2021 9:00:00 AM 17.75 63.95 0.103 7.25 6.05 9.17
7/16/2021 9:15:00 AM 17.79 64.022 0.103 7.26 5.94 9.19
7/16/2021 9:30:00 AM 17.83 64.094 0.103 7.27 5.98 9.21
7/16/2021 9:45:00 AM 17.89 64.202 0.103 7.29 5.68 9.23
7/16/2021 10:00:00 AM 17.96 64.328 0.103 7.3 5.86 9.25
7/16/2021 10:15:00 AM 18.03 64.454 0.103 7.32 5.69 9.27
7/16/2021 10:30:00 AM 18.13 64.634